<?xml version="1.0" encoding="UTF-8" standalone="no" ?>
<gpx xmlns="http://www.topografix.com/GPX/1/1" xmlns:xsi="http://www.w3.org/2001/XMLSchema-instance" xsi:schemaLocation="http://www.topografix.com/GPX/1/1 http://www.topografix.com/GPX/1/1/gpx.xsd" version="1.1" creator="VisuGPX - https://www.visugpx.com">
  <metadata>
    <name>La ronde des clubs - Parcours NORD 88 kms</name>
  </metadata>
  <trk>
    <name><![CDATA[Parcours nord 1 de la ronde-18247022]]></name>
    <trkseg>
      <trkpt lat="50.70613" lon="1.57599">
        <ele>29</ele>
        <time>2024-03-20T21:09:32Z</time>
      </trkpt>
      <trkpt lat="50.70647" lon="1.57686">
        <ele>29</ele>
        <time>2024-03-20T21:09:44Z</time>
      </trkpt>
      <trkpt lat="50.70649" lon="1.57688">
        <ele>29</ele>
        <time>2024-03-20T21:09:44Z</time>
      </trkpt>
      <trkpt lat="50.70656" lon="1.57687">
        <ele>29</ele>
        <time>2024-03-20T21:09:45Z</time>
      </trkpt>
      <trkpt lat="50.70656" lon="1.57682">
        <ele>29</ele>
        <time>2024-03-20T21:09:46Z</time>
      </trkpt>
      <trkpt lat="50.70659" lon="1.57618">
        <ele>29</ele>
        <time>2024-03-20T21:09:53Z</time>
      </trkpt>
      <trkpt lat="50.70667" lon="1.57574">
        <ele>29</ele>
        <time>2024-03-20T21:09:58Z</time>
      </trkpt>
      <trkpt lat="50.70684" lon="1.57517">
        <ele>29</ele>
        <time>2024-03-20T21:10:05Z</time>
      </trkpt>
      <trkpt lat="50.70692" lon="1.57473">
        <ele>28</ele>
        <time>2024-03-20T21:10:10Z</time>
      </trkpt>
      <trkpt lat="50.70696" lon="1.57465">
        <ele>28</ele>
        <time>2024-03-20T21:10:12Z</time>
      </trkpt>
      <trkpt lat="50.70698" lon="1.57462">
        <ele>28</ele>
        <time>2024-03-20T21:10:12Z</time>
      </trkpt>
      <trkpt lat="50.70701" lon="1.57461">
        <ele>28</ele>
        <time>2024-03-20T21:10:13Z</time>
      </trkpt>
      <trkpt lat="50.70704" lon="1.57452">
        <ele>28</ele>
        <time>2024-03-20T21:10:14Z</time>
      </trkpt>
      <trkpt lat="50.70701" lon="1.57445">
        <ele>28</ele>
        <time>2024-03-20T21:10:15Z</time>
      </trkpt>
      <trkpt lat="50.70733" lon="1.57376">
        <ele>27</ele>
        <time>2024-03-20T21:10:24Z</time>
      </trkpt>
      <trkpt lat="50.70734" lon="1.57374">
        <ele>27</ele>
        <time>2024-03-20T21:10:25Z</time>
      </trkpt>
      <trkpt lat="50.70749" lon="1.5739">
        <ele>28</ele>
        <time>2024-03-20T21:10:28Z</time>
      </trkpt>
      <trkpt lat="50.70794" lon="1.57438">
        <ele>28</ele>
        <time>2024-03-20T21:10:37Z</time>
      </trkpt>
      <trkpt lat="50.7083" lon="1.57464">
        <ele>28</ele>
        <time>2024-03-20T21:10:45Z</time>
      </trkpt>
      <trkpt lat="50.70848" lon="1.57475">
        <ele>28</ele>
        <time>2024-03-20T21:10:48Z</time>
      </trkpt>
      <trkpt lat="50.7092" lon="1.57504">
        <ele>29</ele>
        <time>2024-03-20T21:11:01Z</time>
      </trkpt>
      <trkpt lat="50.70943" lon="1.57519">
        <ele>29</ele>
        <time>2024-03-20T21:11:06Z</time>
      </trkpt>
      <trkpt lat="50.70969" lon="1.57542">
        <ele>29</ele>
        <time>2024-03-20T21:11:11Z</time>
      </trkpt>
      <trkpt lat="50.70988" lon="1.57566">
        <ele>29</ele>
        <time>2024-03-20T21:11:15Z</time>
      </trkpt>
      <trkpt lat="50.71041" lon="1.57656">
        <ele>31</ele>
        <time>2024-03-20T21:11:29Z</time>
      </trkpt>
      <trkpt lat="50.71157" lon="1.57861">
        <ele>34</ele>
        <time>2024-03-20T21:12:00Z</time>
      </trkpt>
      <trkpt lat="50.71208" lon="1.57953">
        <ele>37</ele>
        <time>2024-03-20T21:12:14Z</time>
      </trkpt>
      <trkpt lat="50.71222" lon="1.57983">
        <ele>39</ele>
        <time>2024-03-20T21:12:18Z</time>
      </trkpt>
      <trkpt lat="50.71235" lon="1.58017">
        <ele>40</ele>
        <time>2024-03-20T21:12:23Z</time>
      </trkpt>
      <trkpt lat="50.71248" lon="1.58059">
        <ele>41</ele>
        <time>2024-03-20T21:12:28Z</time>
      </trkpt>
      <trkpt lat="50.71258" lon="1.58092">
        <ele>42</ele>
        <time>2024-03-20T21:12:32Z</time>
      </trkpt>
      <trkpt lat="50.71274" lon="1.58154">
        <ele>44</ele>
        <time>2024-03-20T21:12:39Z</time>
      </trkpt>
      <trkpt lat="50.71318" lon="1.58317">
        <ele>45</ele>
        <time>2024-03-20T21:12:59Z</time>
      </trkpt>
      <trkpt lat="50.71319" lon="1.58317">
        <ele>45</ele>
        <time>2024-03-20T21:13:00Z</time>
      </trkpt>
      <trkpt lat="50.71324" lon="1.58312">
        <ele>45</ele>
        <time>2024-03-20T21:13:01Z</time>
      </trkpt>
      <trkpt lat="50.71326" lon="1.58315">
        <ele>45</ele>
        <time>2024-03-20T21:13:01Z</time>
      </trkpt>
      <trkpt lat="50.71324" lon="1.58321">
        <ele>45</ele>
        <time>2024-03-20T21:13:02Z</time>
      </trkpt>
      <trkpt lat="50.71322" lon="1.58323">
        <ele>45</ele>
        <time>2024-03-20T21:13:02Z</time>
      </trkpt>
      <trkpt lat="50.71318" lon="1.58317">
        <ele>45</ele>
        <time>2024-03-20T21:13:03Z</time>
      </trkpt>
      <trkpt lat="50.7132" lon="1.58325">
        <ele>45</ele>
        <time>2024-03-20T21:13:04Z</time>
      </trkpt>
      <trkpt lat="50.7132" lon="1.5834">
        <ele>46</ele>
        <time>2024-03-20T21:13:06Z</time>
      </trkpt>
      <trkpt lat="50.71319" lon="1.58348">
        <ele>46</ele>
        <time>2024-03-20T21:13:07Z</time>
      </trkpt>
      <trkpt lat="50.71315" lon="1.58358">
        <ele>46</ele>
        <time>2024-03-20T21:13:08Z</time>
      </trkpt>
      <trkpt lat="50.71318" lon="1.58359">
        <ele>46</ele>
        <time>2024-03-20T21:13:09Z</time>
      </trkpt>
      <trkpt lat="50.71322" lon="1.5836">
        <ele>46</ele>
        <time>2024-03-20T21:13:09Z</time>
      </trkpt>
      <trkpt lat="50.71332" lon="1.58374">
        <ele>46</ele>
        <time>2024-03-20T21:13:12Z</time>
      </trkpt>
      <trkpt lat="50.71335" lon="1.58393">
        <ele>47</ele>
        <time>2024-03-20T21:13:14Z</time>
      </trkpt>
      <trkpt lat="50.71355" lon="1.58471">
        <ele>49</ele>
        <time>2024-03-20T21:13:24Z</time>
      </trkpt>
      <trkpt lat="50.71362" lon="1.58496">
        <ele>50</ele>
        <time>2024-03-20T21:13:27Z</time>
      </trkpt>
      <trkpt lat="50.71375" lon="1.58532">
        <ele>51</ele>
        <time>2024-03-20T21:13:31Z</time>
      </trkpt>
      <trkpt lat="50.71379" lon="1.5854">
        <ele>51</ele>
        <time>2024-03-20T21:13:32Z</time>
      </trkpt>
      <trkpt lat="50.71383" lon="1.58552">
        <ele>51</ele>
        <time>2024-03-20T21:13:34Z</time>
      </trkpt>
      <trkpt lat="50.71384" lon="1.58561">
        <ele>51</ele>
        <time>2024-03-20T21:13:35Z</time>
      </trkpt>
      <trkpt lat="50.71386" lon="1.58572">
        <ele>51</ele>
        <time>2024-03-20T21:13:36Z</time>
      </trkpt>
      <trkpt lat="50.71393" lon="1.58584">
        <ele>52</ele>
        <time>2024-03-20T21:13:38Z</time>
      </trkpt>
      <trkpt lat="50.71402" lon="1.58611">
        <ele>52</ele>
        <time>2024-03-20T21:13:42Z</time>
      </trkpt>
      <trkpt lat="50.71432" lon="1.58685">
        <ele>53</ele>
        <time>2024-03-20T21:13:51Z</time>
      </trkpt>
      <trkpt lat="50.71445" lon="1.58721">
        <ele>54</ele>
        <time>2024-03-20T21:13:56Z</time>
      </trkpt>
      <trkpt lat="50.71488" lon="1.58898">
        <ele>55</ele>
        <time>2024-03-20T21:14:17Z</time>
      </trkpt>
      <trkpt lat="50.71504" lon="1.5895">
        <ele>54</ele>
        <time>2024-03-20T21:14:24Z</time>
      </trkpt>
      <trkpt lat="50.7151" lon="1.58965">
        <ele>54</ele>
        <time>2024-03-20T21:14:26Z</time>
      </trkpt>
      <trkpt lat="50.71533" lon="1.59008">
        <ele>52</ele>
        <time>2024-03-20T21:14:32Z</time>
      </trkpt>
      <trkpt lat="50.71551" lon="1.59034">
        <ele>50</ele>
        <time>2024-03-20T21:14:37Z</time>
      </trkpt>
      <trkpt lat="50.71584" lon="1.59068">
        <ele>47</ele>
        <time>2024-03-20T21:14:44Z</time>
      </trkpt>
      <trkpt lat="50.71605" lon="1.59083">
        <ele>44</ele>
        <time>2024-03-20T21:14:48Z</time>
      </trkpt>
      <trkpt lat="50.71608" lon="1.591">
        <ele>43</ele>
        <time>2024-03-20T21:14:50Z</time>
      </trkpt>
      <trkpt lat="50.7161" lon="1.59109">
        <ele>42</ele>
        <time>2024-03-20T21:14:51Z</time>
      </trkpt>
      <trkpt lat="50.71653" lon="1.59095">
        <ele>37</ele>
        <time>2024-03-20T21:14:59Z</time>
      </trkpt>
      <trkpt lat="50.71696" lon="1.59088">
        <ele>36</ele>
        <time>2024-03-20T21:15:06Z</time>
      </trkpt>
      <trkpt lat="50.71696" lon="1.59093">
        <ele>36</ele>
        <time>2024-03-20T21:15:07Z</time>
      </trkpt>
      <trkpt lat="50.71785" lon="1.59068">
        <ele>37</ele>
        <time>2024-03-20T21:15:23Z</time>
      </trkpt>
      <trkpt lat="50.71797" lon="1.59068">
        <ele>36</ele>
        <time>2024-03-20T21:15:25Z</time>
      </trkpt>
      <trkpt lat="50.71799" lon="1.59068">
        <ele>36</ele>
        <time>2024-03-20T21:15:26Z</time>
      </trkpt>
      <trkpt lat="50.71811" lon="1.59076">
        <ele>34</ele>
        <time>2024-03-20T21:15:28Z</time>
      </trkpt>
      <trkpt lat="50.7182" lon="1.59093">
        <ele>31</ele>
        <time>2024-03-20T21:15:30Z</time>
      </trkpt>
      <trkpt lat="50.71823" lon="1.59091">
        <ele>32</ele>
        <time>2024-03-20T21:15:31Z</time>
      </trkpt>
      <trkpt lat="50.71826" lon="1.59104">
        <ele>30</ele>
        <time>2024-03-20T21:15:32Z</time>
      </trkpt>
      <trkpt lat="50.71826" lon="1.59119">
        <ele>27</ele>
        <time>2024-03-20T21:15:34Z</time>
      </trkpt>
      <trkpt lat="50.71823" lon="1.59137">
        <ele>25</ele>
        <time>2024-03-20T21:15:36Z</time>
      </trkpt>
      <trkpt lat="50.71819" lon="1.59151">
        <ele>24</ele>
        <time>2024-03-20T21:15:38Z</time>
      </trkpt>
      <trkpt lat="50.71824" lon="1.59145">
        <ele>24</ele>
        <time>2024-03-20T21:15:39Z</time>
      </trkpt>
      <trkpt lat="50.71828" lon="1.59141">
        <ele>24</ele>
        <time>2024-03-20T21:15:40Z</time>
      </trkpt>
      <trkpt lat="50.71832" lon="1.59114">
        <ele>28</ele>
        <time>2024-03-20T21:15:43Z</time>
      </trkpt>
      <trkpt lat="50.71831" lon="1.59099">
        <ele>30</ele>
        <time>2024-03-20T21:15:45Z</time>
      </trkpt>
      <trkpt lat="50.71828" lon="1.59087">
        <ele>32</ele>
        <time>2024-03-20T21:15:46Z</time>
      </trkpt>
      <trkpt lat="50.7182" lon="1.59093">
        <ele>31</ele>
        <time>2024-03-20T21:15:48Z</time>
      </trkpt>
      <trkpt lat="50.71823" lon="1.59106">
        <ele>29</ele>
        <time>2024-03-20T21:15:49Z</time>
      </trkpt>
      <trkpt lat="50.71823" lon="1.59117">
        <ele>28</ele>
        <time>2024-03-20T21:15:51Z</time>
      </trkpt>
      <trkpt lat="50.7182" lon="1.59134">
        <ele>26</ele>
        <time>2024-03-20T21:15:53Z</time>
      </trkpt>
      <trkpt lat="50.71817" lon="1.59142">
        <ele>25</ele>
        <time>2024-03-20T21:15:54Z</time>
      </trkpt>
      <trkpt lat="50.71704" lon="1.59272">
        <ele>18</ele>
        <time>2024-03-20T21:16:18Z</time>
      </trkpt>
      <trkpt lat="50.71686" lon="1.593">
        <ele>18</ele>
        <time>2024-03-20T21:16:23Z</time>
      </trkpt>
      <trkpt lat="50.71682" lon="1.59311">
        <ele>18</ele>
        <time>2024-03-20T21:16:24Z</time>
      </trkpt>
      <trkpt lat="50.71675" lon="1.59325">
        <ele>18</ele>
        <time>2024-03-20T21:16:26Z</time>
      </trkpt>
      <trkpt lat="50.71668" lon="1.59352">
        <ele>17</ele>
        <time>2024-03-20T21:16:30Z</time>
      </trkpt>
      <trkpt lat="50.71665" lon="1.59371">
        <ele>17</ele>
        <time>2024-03-20T21:16:32Z</time>
      </trkpt>
      <trkpt lat="50.71659" lon="1.59426">
        <ele>17</ele>
        <time>2024-03-20T21:16:38Z</time>
      </trkpt>
      <trkpt lat="50.71657" lon="1.59459">
        <ele>17</ele>
        <time>2024-03-20T21:16:42Z</time>
      </trkpt>
      <trkpt lat="50.71661" lon="1.5946">
        <ele>16</ele>
        <time>2024-03-20T21:16:43Z</time>
      </trkpt>
      <trkpt lat="50.7166" lon="1.59462">
        <ele>17</ele>
        <time>2024-03-20T21:16:43Z</time>
      </trkpt>
      <trkpt lat="50.71658" lon="1.59472">
        <ele>17</ele>
        <time>2024-03-20T21:16:44Z</time>
      </trkpt>
      <trkpt lat="50.71654" lon="1.59479">
        <ele>18</ele>
        <time>2024-03-20T21:16:45Z</time>
      </trkpt>
      <trkpt lat="50.71647" lon="1.59487">
        <ele>20</ele>
        <time>2024-03-20T21:16:47Z</time>
      </trkpt>
      <trkpt lat="50.71641" lon="1.59502">
        <ele>21</ele>
        <time>2024-03-20T21:16:49Z</time>
      </trkpt>
      <trkpt lat="50.7164" lon="1.59519">
        <ele>21</ele>
        <time>2024-03-20T21:16:51Z</time>
      </trkpt>
      <trkpt lat="50.71643" lon="1.59533">
        <ele>20</ele>
        <time>2024-03-20T21:16:52Z</time>
      </trkpt>
      <trkpt lat="50.71643" lon="1.59562">
        <ele>20</ele>
        <time>2024-03-20T21:16:56Z</time>
      </trkpt>
      <trkpt lat="50.71652" lon="1.5957">
        <ele>18</ele>
        <time>2024-03-20T21:16:57Z</time>
      </trkpt>
      <trkpt lat="50.71656" lon="1.59572">
        <ele>17</ele>
        <time>2024-03-20T21:16:58Z</time>
      </trkpt>
      <trkpt lat="50.71671" lon="1.59558">
        <ele>15</ele>
        <time>2024-03-20T21:17:01Z</time>
      </trkpt>
      <trkpt lat="50.71681" lon="1.59553">
        <ele>14</ele>
        <time>2024-03-20T21:17:03Z</time>
      </trkpt>
      <trkpt lat="50.71692" lon="1.59548">
        <ele>13</ele>
        <time>2024-03-20T21:17:05Z</time>
      </trkpt>
      <trkpt lat="50.71693" lon="1.59548">
        <ele>13</ele>
        <time>2024-03-20T21:17:05Z</time>
      </trkpt>
      <trkpt lat="50.71698" lon="1.59549">
        <ele>12</ele>
        <time>2024-03-20T21:17:06Z</time>
      </trkpt>
      <trkpt lat="50.71699" lon="1.59545">
        <ele>12</ele>
        <time>2024-03-20T21:17:07Z</time>
      </trkpt>
      <trkpt lat="50.71717" lon="1.59559">
        <ele>10</ele>
        <time>2024-03-20T21:17:10Z</time>
      </trkpt>
      <trkpt lat="50.7178" lon="1.5964">
        <ele>7</ele>
        <time>2024-03-20T21:17:25Z</time>
      </trkpt>
      <trkpt lat="50.71789" lon="1.59653">
        <ele>6</ele>
        <time>2024-03-20T21:17:27Z</time>
      </trkpt>
      <trkpt lat="50.71801" lon="1.59672">
        <ele>6</ele>
        <time>2024-03-20T21:17:30Z</time>
      </trkpt>
      <trkpt lat="50.71795" lon="1.59681">
        <ele>6</ele>
        <time>2024-03-20T21:17:31Z</time>
      </trkpt>
      <trkpt lat="50.71841" lon="1.59764">
        <ele>6</ele>
        <time>2024-03-20T21:17:44Z</time>
      </trkpt>
      <trkpt lat="50.71859" lon="1.59792">
        <ele>7</ele>
        <time>2024-03-20T21:17:48Z</time>
      </trkpt>
      <trkpt lat="50.7188" lon="1.5982">
        <ele>7</ele>
        <time>2024-03-20T21:17:53Z</time>
      </trkpt>
      <trkpt lat="50.71887" lon="1.59825">
        <ele>6</ele>
        <time>2024-03-20T21:17:55Z</time>
      </trkpt>
      <trkpt lat="50.71889" lon="1.59827">
        <ele>6</ele>
        <time>2024-03-20T21:17:55Z</time>
      </trkpt>
      <trkpt lat="50.71894" lon="1.59849">
        <ele>6</ele>
        <time>2024-03-20T21:17:58Z</time>
      </trkpt>
      <trkpt lat="50.719" lon="1.59862">
        <ele>6</ele>
        <time>2024-03-20T21:17:59Z</time>
      </trkpt>
      <trkpt lat="50.71918" lon="1.59885">
        <ele>5</ele>
        <time>2024-03-20T21:18:04Z</time>
      </trkpt>
      <trkpt lat="50.71934" lon="1.5991">
        <ele>5</ele>
        <time>2024-03-20T21:18:08Z</time>
      </trkpt>
      <trkpt lat="50.71941" lon="1.59925">
        <ele>5</ele>
        <time>2024-03-20T21:18:10Z</time>
      </trkpt>
      <trkpt lat="50.71949" lon="1.59931">
        <ele>5</ele>
        <time>2024-03-20T21:18:11Z</time>
      </trkpt>
      <trkpt lat="50.7195" lon="1.59945">
        <ele>5</ele>
        <time>2024-03-20T21:18:13Z</time>
      </trkpt>
      <trkpt lat="50.71951" lon="1.59944">
        <ele>5</ele>
        <time>2024-03-20T21:18:13Z</time>
      </trkpt>
      <trkpt lat="50.7195" lon="1.59931">
        <ele>5</ele>
        <time>2024-03-20T21:18:15Z</time>
      </trkpt>
      <trkpt lat="50.71947" lon="1.59928">
        <ele>5</ele>
        <time>2024-03-20T21:18:15Z</time>
      </trkpt>
      <trkpt lat="50.7195" lon="1.59931">
        <ele>5</ele>
        <time>2024-03-20T21:18:16Z</time>
      </trkpt>
      <trkpt lat="50.71951" lon="1.59937">
        <ele>5</ele>
        <time>2024-03-20T21:18:17Z</time>
      </trkpt>
      <trkpt lat="50.71949" lon="1.59938">
        <ele>5</ele>
        <time>2024-03-20T21:18:17Z</time>
      </trkpt>
      <trkpt lat="50.7195" lon="1.59947">
        <ele>5</ele>
        <time>2024-03-20T21:18:18Z</time>
      </trkpt>
      <trkpt lat="50.71952" lon="1.59952">
        <ele>5</ele>
        <time>2024-03-20T21:18:19Z</time>
      </trkpt>
      <trkpt lat="50.71979" lon="1.5995">
        <ele>5</ele>
        <time>2024-03-20T21:18:23Z</time>
      </trkpt>
      <trkpt lat="50.72042" lon="1.59932">
        <ele>5</ele>
        <time>2024-03-20T21:18:35Z</time>
      </trkpt>
      <trkpt lat="50.72049" lon="1.59937">
        <ele>5</ele>
        <time>2024-03-20T21:18:36Z</time>
      </trkpt>
      <trkpt lat="50.72058" lon="1.59952">
        <ele>5</ele>
        <time>2024-03-20T21:18:38Z</time>
      </trkpt>
      <trkpt lat="50.72067" lon="1.59983">
        <ele>6</ele>
        <time>2024-03-20T21:18:42Z</time>
      </trkpt>
      <trkpt lat="50.72099" lon="1.60111">
        <ele>6</ele>
        <time>2024-03-20T21:18:58Z</time>
      </trkpt>
      <trkpt lat="50.72106" lon="1.6013">
        <ele>6</ele>
        <time>2024-03-20T21:19:00Z</time>
      </trkpt>
      <trkpt lat="50.72143" lon="1.60254">
        <ele>5</ele>
        <time>2024-03-20T21:19:16Z</time>
      </trkpt>
      <trkpt lat="50.72143" lon="1.60265">
        <ele>6</ele>
        <time>2024-03-20T21:19:17Z</time>
      </trkpt>
      <trkpt lat="50.72142" lon="1.60276">
        <ele>6</ele>
        <time>2024-03-20T21:19:18Z</time>
      </trkpt>
      <trkpt lat="50.72148" lon="1.6028">
        <ele>6</ele>
        <time>2024-03-20T21:19:19Z</time>
      </trkpt>
      <trkpt lat="50.72162" lon="1.60267">
        <ele>5</ele>
        <time>2024-03-20T21:19:22Z</time>
      </trkpt>
      <trkpt lat="50.7216" lon="1.60269">
        <ele>5</ele>
        <time>2024-03-20T21:19:23Z</time>
      </trkpt>
      <trkpt lat="50.72163" lon="1.60272">
        <ele>5</ele>
        <time>2024-03-20T21:19:23Z</time>
      </trkpt>
      <trkpt lat="50.72168" lon="1.60273">
        <ele>5</ele>
        <time>2024-03-20T21:19:24Z</time>
      </trkpt>
      <trkpt lat="50.72174" lon="1.60271">
        <ele>5</ele>
        <time>2024-03-20T21:19:25Z</time>
      </trkpt>
      <trkpt lat="50.72193" lon="1.60256">
        <ele>5</ele>
        <time>2024-03-20T21:19:29Z</time>
      </trkpt>
      <trkpt lat="50.72282" lon="1.60199">
        <ele>6</ele>
        <time>2024-03-20T21:19:46Z</time>
      </trkpt>
      <trkpt lat="50.72283" lon="1.60201">
        <ele>6</ele>
        <time>2024-03-20T21:19:46Z</time>
      </trkpt>
      <trkpt lat="50.72294" lon="1.60224">
        <ele>7</ele>
        <time>2024-03-20T21:19:50Z</time>
      </trkpt>
      <trkpt lat="50.72294" lon="1.60205">
        <ele>6</ele>
        <time>2024-03-20T21:19:52Z</time>
      </trkpt>
      <trkpt lat="50.72296" lon="1.60199">
        <ele>6</ele>
        <time>2024-03-20T21:19:53Z</time>
      </trkpt>
      <trkpt lat="50.723" lon="1.60193">
        <ele>6</ele>
        <time>2024-03-20T21:19:54Z</time>
      </trkpt>
      <trkpt lat="50.72323" lon="1.60188">
        <ele>6</ele>
        <time>2024-03-20T21:19:58Z</time>
      </trkpt>
      <trkpt lat="50.72382" lon="1.60179">
        <ele>6</ele>
        <time>2024-03-20T21:20:08Z</time>
      </trkpt>
      <trkpt lat="50.72448" lon="1.60164">
        <ele>7</ele>
        <time>2024-03-20T21:20:20Z</time>
      </trkpt>
      <trkpt lat="50.72454" lon="1.6017">
        <ele>7</ele>
        <time>2024-03-20T21:20:21Z</time>
      </trkpt>
      <trkpt lat="50.72462" lon="1.6017">
        <ele>8</ele>
        <time>2024-03-20T21:20:23Z</time>
      </trkpt>
      <trkpt lat="50.72467" lon="1.60164">
        <ele>8</ele>
        <time>2024-03-20T21:20:24Z</time>
      </trkpt>
      <trkpt lat="50.72469" lon="1.60158">
        <ele>8</ele>
        <time>2024-03-20T21:20:25Z</time>
      </trkpt>
      <trkpt lat="50.72477" lon="1.6015">
        <ele>8</ele>
        <time>2024-03-20T21:20:26Z</time>
      </trkpt>
      <trkpt lat="50.72503" lon="1.60128">
        <ele>8</ele>
        <time>2024-03-20T21:20:32Z</time>
      </trkpt>
      <trkpt lat="50.72551" lon="1.60094">
        <ele>8</ele>
        <time>2024-03-20T21:20:41Z</time>
      </trkpt>
      <trkpt lat="50.72608" lon="1.60042">
        <ele>8</ele>
        <time>2024-03-20T21:20:53Z</time>
      </trkpt>
      <trkpt lat="50.72723" lon="1.59933">
        <ele>7</ele>
        <time>2024-03-20T21:21:17Z</time>
      </trkpt>
      <trkpt lat="50.72837" lon="1.59824">
        <ele>8</ele>
        <time>2024-03-20T21:21:40Z</time>
      </trkpt>
      <trkpt lat="50.72862" lon="1.598">
        <ele>11</ele>
        <time>2024-03-20T21:21:45Z</time>
      </trkpt>
      <trkpt lat="50.72874" lon="1.59793">
        <ele>12</ele>
        <time>2024-03-20T21:21:48Z</time>
      </trkpt>
      <trkpt lat="50.72881" lon="1.59792">
        <ele>13</ele>
        <time>2024-03-20T21:21:49Z</time>
      </trkpt>
      <trkpt lat="50.72891" lon="1.59797">
        <ele>15</ele>
        <time>2024-03-20T21:21:51Z</time>
      </trkpt>
      <trkpt lat="50.72894" lon="1.59801">
        <ele>15</ele>
        <time>2024-03-20T21:21:52Z</time>
      </trkpt>
      <trkpt lat="50.72902" lon="1.59806">
        <ele>17</ele>
        <time>2024-03-20T21:21:53Z</time>
      </trkpt>
      <trkpt lat="50.72909" lon="1.59804">
        <ele>18</ele>
        <time>2024-03-20T21:21:54Z</time>
      </trkpt>
      <trkpt lat="50.72913" lon="1.59796">
        <ele>18</ele>
        <time>2024-03-20T21:21:56Z</time>
      </trkpt>
      <trkpt lat="50.7292" lon="1.59765">
        <ele>17</ele>
        <time>2024-03-20T21:21:59Z</time>
      </trkpt>
      <trkpt lat="50.72938" lon="1.59727">
        <ele>15</ele>
        <time>2024-03-20T21:22:05Z</time>
      </trkpt>
      <trkpt lat="50.72968" lon="1.59693">
        <ele>15</ele>
        <time>2024-03-20T21:22:11Z</time>
      </trkpt>
      <trkpt lat="50.73051" lon="1.59605">
        <ele>16</ele>
        <time>2024-03-20T21:22:29Z</time>
      </trkpt>
      <trkpt lat="50.73109" lon="1.59562">
        <ele>16</ele>
        <time>2024-03-20T21:22:40Z</time>
      </trkpt>
      <trkpt lat="50.73122" lon="1.59555">
        <ele>15</ele>
        <time>2024-03-20T21:22:43Z</time>
      </trkpt>
      <trkpt lat="50.73139" lon="1.5955">
        <ele>15</ele>
        <time>2024-03-20T21:22:46Z</time>
      </trkpt>
      <trkpt lat="50.73145" lon="1.59551">
        <ele>16</ele>
        <time>2024-03-20T21:22:47Z</time>
      </trkpt>
      <trkpt lat="50.73152" lon="1.59544">
        <ele>15</ele>
        <time>2024-03-20T21:22:48Z</time>
      </trkpt>
      <trkpt lat="50.73184" lon="1.59537">
        <ele>15</ele>
        <time>2024-03-20T21:22:54Z</time>
      </trkpt>
      <trkpt lat="50.73242" lon="1.59519">
        <ele>14</ele>
        <time>2024-03-20T21:23:05Z</time>
      </trkpt>
      <trkpt lat="50.73334" lon="1.59492">
        <ele>11</ele>
        <time>2024-03-20T21:23:21Z</time>
      </trkpt>
      <trkpt lat="50.73375" lon="1.59483">
        <ele>10</ele>
        <time>2024-03-20T21:23:29Z</time>
      </trkpt>
      <trkpt lat="50.7341" lon="1.59475">
        <ele>9</ele>
        <time>2024-03-20T21:23:35Z</time>
      </trkpt>
      <trkpt lat="50.73408" lon="1.59463">
        <ele>7</ele>
        <time>2024-03-20T21:23:36Z</time>
      </trkpt>
      <trkpt lat="50.73486" lon="1.59447">
        <ele>9</ele>
        <time>2024-03-20T21:23:50Z</time>
      </trkpt>
      <trkpt lat="50.73487" lon="1.59457">
        <ele>11</ele>
        <time>2024-03-20T21:23:52Z</time>
      </trkpt>
      <trkpt lat="50.7351" lon="1.59451">
        <ele>11</ele>
        <time>2024-03-20T21:23:56Z</time>
      </trkpt>
      <trkpt lat="50.73591" lon="1.59431">
        <ele>8</ele>
        <time>2024-03-20T21:24:10Z</time>
      </trkpt>
      <trkpt lat="50.73649" lon="1.59426">
        <ele>7</ele>
        <time>2024-03-20T21:24:21Z</time>
      </trkpt>
      <trkpt lat="50.73664" lon="1.59424">
        <ele>6</ele>
        <time>2024-03-20T21:24:23Z</time>
      </trkpt>
      <trkpt lat="50.73733" lon="1.59425">
        <ele>6</ele>
        <time>2024-03-20T21:24:36Z</time>
      </trkpt>
      <trkpt lat="50.73791" lon="1.5943">
        <ele>7</ele>
        <time>2024-03-20T21:24:46Z</time>
      </trkpt>
      <trkpt lat="50.73911" lon="1.59441">
        <ele>7</ele>
        <time>2024-03-20T21:25:07Z</time>
      </trkpt>
      <trkpt lat="50.73942" lon="1.59452">
        <ele>7</ele>
        <time>2024-03-20T21:25:13Z</time>
      </trkpt>
      <trkpt lat="50.73971" lon="1.59472">
        <ele>9</ele>
        <time>2024-03-20T21:25:19Z</time>
      </trkpt>
      <trkpt lat="50.74025" lon="1.59514">
        <ele>12</ele>
        <time>2024-03-20T21:25:29Z</time>
      </trkpt>
      <trkpt lat="50.74041" lon="1.59531">
        <ele>14</ele>
        <time>2024-03-20T21:25:33Z</time>
      </trkpt>
      <trkpt lat="50.74045" lon="1.59539">
        <ele>15</ele>
        <time>2024-03-20T21:25:34Z</time>
      </trkpt>
      <trkpt lat="50.74046" lon="1.59545">
        <ele>16</ele>
        <time>2024-03-20T21:25:35Z</time>
      </trkpt>
      <trkpt lat="50.74049" lon="1.59551">
        <ele>17</ele>
        <time>2024-03-20T21:25:35Z</time>
      </trkpt>
      <trkpt lat="50.74054" lon="1.59553">
        <ele>17</ele>
        <time>2024-03-20T21:25:36Z</time>
      </trkpt>
      <trkpt lat="50.74059" lon="1.59549">
        <ele>16</ele>
        <time>2024-03-20T21:25:37Z</time>
      </trkpt>
      <trkpt lat="50.74068" lon="1.59549">
        <ele>16</ele>
        <time>2024-03-20T21:25:39Z</time>
      </trkpt>
      <trkpt lat="50.74076" lon="1.59555">
        <ele>17</ele>
        <time>2024-03-20T21:25:40Z</time>
      </trkpt>
      <trkpt lat="50.74074" lon="1.59561">
        <ele>18</ele>
        <time>2024-03-20T21:25:41Z</time>
      </trkpt>
      <trkpt lat="50.74198" lon="1.59653">
        <ele>28</ele>
        <time>2024-03-20T21:26:06Z</time>
      </trkpt>
      <trkpt lat="50.74259" lon="1.59697">
        <ele>31</ele>
        <time>2024-03-20T21:26:18Z</time>
      </trkpt>
      <trkpt lat="50.74305" lon="1.59722">
        <ele>34</ele>
        <time>2024-03-20T21:26:26Z</time>
      </trkpt>
      <trkpt lat="50.74342" lon="1.59739">
        <ele>36</ele>
        <time>2024-03-20T21:26:33Z</time>
      </trkpt>
      <trkpt lat="50.74374" lon="1.59755">
        <ele>38</ele>
        <time>2024-03-20T21:26:39Z</time>
      </trkpt>
      <trkpt lat="50.74412" lon="1.59768">
        <ele>41</ele>
        <time>2024-03-20T21:26:46Z</time>
      </trkpt>
      <trkpt lat="50.74463" lon="1.59782">
        <ele>44</ele>
        <time>2024-03-20T21:26:55Z</time>
      </trkpt>
      <trkpt lat="50.74491" lon="1.59787">
        <ele>45</ele>
        <time>2024-03-20T21:27:00Z</time>
      </trkpt>
      <trkpt lat="50.74638" lon="1.59811">
        <ele>51</ele>
        <time>2024-03-20T21:27:26Z</time>
      </trkpt>
      <trkpt lat="50.74708" lon="1.59822">
        <ele>51</ele>
        <time>2024-03-20T21:27:39Z</time>
      </trkpt>
      <trkpt lat="50.74734" lon="1.59831">
        <ele>51</ele>
        <time>2024-03-20T21:27:44Z</time>
      </trkpt>
      <trkpt lat="50.74772" lon="1.59839">
        <ele>52</ele>
        <time>2024-03-20T21:27:51Z</time>
      </trkpt>
      <trkpt lat="50.74781" lon="1.59845">
        <ele>52</ele>
        <time>2024-03-20T21:27:52Z</time>
      </trkpt>
      <trkpt lat="50.74789" lon="1.59853">
        <ele>52</ele>
        <time>2024-03-20T21:27:54Z</time>
      </trkpt>
      <trkpt lat="50.74793" lon="1.59834">
        <ele>52</ele>
        <time>2024-03-20T21:27:56Z</time>
      </trkpt>
      <trkpt lat="50.7477" lon="1.59823">
        <ele>51</ele>
        <time>2024-03-20T21:28:00Z</time>
      </trkpt>
      <trkpt lat="50.74735" lon="1.59821">
        <ele>51</ele>
        <time>2024-03-20T21:28:07Z</time>
      </trkpt>
      <trkpt lat="50.74775" lon="1.59833">
        <ele>51</ele>
        <time>2024-03-20T21:28:14Z</time>
      </trkpt>
      <trkpt lat="50.7479" lon="1.59846">
        <ele>52</ele>
        <time>2024-03-20T21:28:17Z</time>
      </trkpt>
      <trkpt lat="50.74789" lon="1.59853">
        <ele>52</ele>
        <time>2024-03-20T21:28:18Z</time>
      </trkpt>
      <trkpt lat="50.74794" lon="1.59864">
        <ele>53</ele>
        <time>2024-03-20T21:28:19Z</time>
      </trkpt>
      <trkpt lat="50.74797" lon="1.59875">
        <ele>54</ele>
        <time>2024-03-20T21:28:21Z</time>
      </trkpt>
      <trkpt lat="50.74805" lon="1.59883">
        <ele>54</ele>
        <time>2024-03-20T21:28:22Z</time>
      </trkpt>
      <trkpt lat="50.74816" lon="1.59897">
        <ele>55</ele>
        <time>2024-03-20T21:28:25Z</time>
      </trkpt>
      <trkpt lat="50.74817" lon="1.59901">
        <ele>56</ele>
        <time>2024-03-20T21:28:25Z</time>
      </trkpt>
      <trkpt lat="50.7482" lon="1.59915">
        <ele>56</ele>
        <time>2024-03-20T21:28:27Z</time>
      </trkpt>
      <trkpt lat="50.74834" lon="1.59919">
        <ele>57</ele>
        <time>2024-03-20T21:28:30Z</time>
      </trkpt>
      <trkpt lat="50.74835" lon="1.5991">
        <ele>57</ele>
        <time>2024-03-20T21:28:31Z</time>
      </trkpt>
      <trkpt lat="50.74838" lon="1.59903">
        <ele>56</ele>
        <time>2024-03-20T21:28:32Z</time>
      </trkpt>
      <trkpt lat="50.74857" lon="1.59877">
        <ele>54</ele>
        <time>2024-03-20T21:28:36Z</time>
      </trkpt>
      <trkpt lat="50.74868" lon="1.59872">
        <ele>54</ele>
        <time>2024-03-20T21:28:38Z</time>
      </trkpt>
      <trkpt lat="50.74878" lon="1.59875">
        <ele>54</ele>
        <time>2024-03-20T21:28:40Z</time>
      </trkpt>
      <trkpt lat="50.74898" lon="1.59891">
        <ele>55</ele>
        <time>2024-03-20T21:28:44Z</time>
      </trkpt>
      <trkpt lat="50.74921" lon="1.59913">
        <ele>57</ele>
        <time>2024-03-20T21:28:49Z</time>
      </trkpt>
      <trkpt lat="50.74954" lon="1.59952">
        <ele>58</ele>
        <time>2024-03-20T21:28:56Z</time>
      </trkpt>
      <trkpt lat="50.74983" lon="1.59993">
        <ele>58</ele>
        <time>2024-03-20T21:29:03Z</time>
      </trkpt>
      <trkpt lat="50.75026" lon="1.60055">
        <ele>56</ele>
        <time>2024-03-20T21:29:13Z</time>
      </trkpt>
      <trkpt lat="50.75048" lon="1.60079">
        <ele>55</ele>
        <time>2024-03-20T21:29:18Z</time>
      </trkpt>
      <trkpt lat="50.75075" lon="1.60102">
        <ele>54</ele>
        <time>2024-03-20T21:29:23Z</time>
      </trkpt>
      <trkpt lat="50.75095" lon="1.60115">
        <ele>53</ele>
        <time>2024-03-20T21:29:27Z</time>
      </trkpt>
      <trkpt lat="50.75422" lon="1.60326">
        <ele>39</ele>
        <time>2024-03-20T21:30:30Z</time>
      </trkpt>
      <trkpt lat="50.75526" lon="1.60396">
        <ele>32</ele>
        <time>2024-03-20T21:30:50Z</time>
      </trkpt>
      <trkpt lat="50.75532" lon="1.60403">
        <ele>31</ele>
        <time>2024-03-20T21:30:52Z</time>
      </trkpt>
      <trkpt lat="50.75533" lon="1.60414">
        <ele>31</ele>
        <time>2024-03-20T21:30:53Z</time>
      </trkpt>
      <trkpt lat="50.75558" lon="1.6043">
        <ele>29</ele>
        <time>2024-03-20T21:30:58Z</time>
      </trkpt>
      <trkpt lat="50.75569" lon="1.60426">
        <ele>29</ele>
        <time>2024-03-20T21:31:00Z</time>
      </trkpt>
      <trkpt lat="50.75655" lon="1.60476">
        <ele>24</ele>
        <time>2024-03-20T21:31:16Z</time>
      </trkpt>
      <trkpt lat="50.75781" lon="1.60555">
        <ele>20</ele>
        <time>2024-03-20T21:31:40Z</time>
      </trkpt>
      <trkpt lat="50.75804" lon="1.60569">
        <ele>20</ele>
        <time>2024-03-20T21:31:44Z</time>
      </trkpt>
      <trkpt lat="50.7584" lon="1.60586">
        <ele>20</ele>
        <time>2024-03-20T21:31:51Z</time>
      </trkpt>
      <trkpt lat="50.75864" lon="1.60595">
        <ele>20</ele>
        <time>2024-03-20T21:31:56Z</time>
      </trkpt>
      <trkpt lat="50.75905" lon="1.60605">
        <ele>21</ele>
        <time>2024-03-20T21:32:03Z</time>
      </trkpt>
      <trkpt lat="50.75924" lon="1.60607">
        <ele>21</ele>
        <time>2024-03-20T21:32:06Z</time>
      </trkpt>
      <trkpt lat="50.7605" lon="1.60623">
        <ele>22</ele>
        <time>2024-03-20T21:32:29Z</time>
      </trkpt>
      <trkpt lat="50.76061" lon="1.60626">
        <ele>22</ele>
        <time>2024-03-20T21:32:31Z</time>
      </trkpt>
      <trkpt lat="50.76103" lon="1.6064">
        <ele>22</ele>
        <time>2024-03-20T21:32:38Z</time>
      </trkpt>
      <trkpt lat="50.76108" lon="1.60638">
        <ele>22</ele>
        <time>2024-03-20T21:32:39Z</time>
      </trkpt>
      <trkpt lat="50.76114" lon="1.60633">
        <ele>22</ele>
        <time>2024-03-20T21:32:41Z</time>
      </trkpt>
      <trkpt lat="50.76131" lon="1.60641">
        <ele>21</ele>
        <time>2024-03-20T21:32:44Z</time>
      </trkpt>
      <trkpt lat="50.76145" lon="1.60651">
        <ele>21</ele>
        <time>2024-03-20T21:32:46Z</time>
      </trkpt>
      <trkpt lat="50.76148" lon="1.60657">
        <ele>20</ele>
        <time>2024-03-20T21:32:47Z</time>
      </trkpt>
      <trkpt lat="50.76153" lon="1.60662">
        <ele>20</ele>
        <time>2024-03-20T21:32:48Z</time>
      </trkpt>
      <trkpt lat="50.76151" lon="1.60672">
        <ele>20</ele>
        <time>2024-03-20T21:32:50Z</time>
      </trkpt>
      <trkpt lat="50.76156" lon="1.60673">
        <ele>20</ele>
        <time>2024-03-20T21:32:50Z</time>
      </trkpt>
      <trkpt lat="50.76161" lon="1.60669">
        <ele>20</ele>
        <time>2024-03-20T21:32:51Z</time>
      </trkpt>
      <trkpt lat="50.76173" lon="1.60672">
        <ele>19</ele>
        <time>2024-03-20T21:32:54Z</time>
      </trkpt>
      <trkpt lat="50.76176" lon="1.6066">
        <ele>19</ele>
        <time>2024-03-20T21:32:55Z</time>
      </trkpt>
      <trkpt lat="50.76178" lon="1.60655">
        <ele>19</ele>
        <time>2024-03-20T21:32:56Z</time>
      </trkpt>
      <trkpt lat="50.76176" lon="1.6065">
        <ele>19</ele>
        <time>2024-03-20T21:32:56Z</time>
      </trkpt>
      <trkpt lat="50.76177" lon="1.6064">
        <ele>19</ele>
        <time>2024-03-20T21:32:58Z</time>
      </trkpt>
      <trkpt lat="50.7618" lon="1.60634">
        <ele>19</ele>
        <time>2024-03-20T21:32:58Z</time>
      </trkpt>
      <trkpt lat="50.76186" lon="1.60629">
        <ele>19</ele>
        <time>2024-03-20T21:33:00Z</time>
      </trkpt>
      <trkpt lat="50.76186" lon="1.60625">
        <ele>19</ele>
        <time>2024-03-20T21:33:00Z</time>
      </trkpt>
      <trkpt lat="50.76262" lon="1.60632">
        <ele>14</ele>
        <time>2024-03-20T21:33:14Z</time>
      </trkpt>
      <trkpt lat="50.76286" lon="1.60636">
        <ele>13</ele>
        <time>2024-03-20T21:33:18Z</time>
      </trkpt>
      <trkpt lat="50.76317" lon="1.60644">
        <ele>11</ele>
        <time>2024-03-20T21:33:23Z</time>
      </trkpt>
      <trkpt lat="50.76323" lon="1.60646">
        <ele>11</ele>
        <time>2024-03-20T21:33:25Z</time>
      </trkpt>
      <trkpt lat="50.76324" lon="1.60641">
        <ele>11</ele>
        <time>2024-03-20T21:33:25Z</time>
      </trkpt>
      <trkpt lat="50.76434" lon="1.60687">
        <ele>10</ele>
        <time>2024-03-20T21:33:45Z</time>
      </trkpt>
      <trkpt lat="50.76436" lon="1.60694">
        <ele>10</ele>
        <time>2024-03-20T21:33:46Z</time>
      </trkpt>
      <trkpt lat="50.76438" lon="1.60695">
        <ele>10</ele>
        <time>2024-03-20T21:33:47Z</time>
      </trkpt>
      <trkpt lat="50.76494" lon="1.60708">
        <ele>9</ele>
        <time>2024-03-20T21:33:57Z</time>
      </trkpt>
      <trkpt lat="50.765" lon="1.60712">
        <ele>9</ele>
        <time>2024-03-20T21:33:58Z</time>
      </trkpt>
      <trkpt lat="50.76537" lon="1.60724">
        <ele>9</ele>
        <time>2024-03-20T21:34:05Z</time>
      </trkpt>
      <trkpt lat="50.76542" lon="1.60725">
        <ele>9</ele>
        <time>2024-03-20T21:34:05Z</time>
      </trkpt>
      <trkpt lat="50.76542" lon="1.60723">
        <ele>9</ele>
        <time>2024-03-20T21:34:06Z</time>
      </trkpt>
      <trkpt lat="50.76604" lon="1.60739">
        <ele>10</ele>
        <time>2024-03-20T21:34:17Z</time>
      </trkpt>
      <trkpt lat="50.76673" lon="1.60756">
        <ele>10</ele>
        <time>2024-03-20T21:34:29Z</time>
      </trkpt>
      <trkpt lat="50.76685" lon="1.60759">
        <ele>10</ele>
        <time>2024-03-20T21:34:31Z</time>
      </trkpt>
      <trkpt lat="50.76806" lon="1.60789">
        <ele>9</ele>
        <time>2024-03-20T21:34:53Z</time>
      </trkpt>
      <trkpt lat="50.76834" lon="1.60794">
        <ele>9</ele>
        <time>2024-03-20T21:34:58Z</time>
      </trkpt>
      <trkpt lat="50.76835" lon="1.60791">
        <ele>10</ele>
        <time>2024-03-20T21:34:59Z</time>
      </trkpt>
      <trkpt lat="50.76838" lon="1.60713">
        <ele>9</ele>
        <time>2024-03-20T21:35:07Z</time>
      </trkpt>
      <trkpt lat="50.7684" lon="1.60713">
        <ele>9</ele>
        <time>2024-03-20T21:35:08Z</time>
      </trkpt>
      <trkpt lat="50.76885" lon="1.60721">
        <ele>9</ele>
        <time>2024-03-20T21:35:16Z</time>
      </trkpt>
      <trkpt lat="50.77009" lon="1.60741">
        <ele>6</ele>
        <time>2024-03-20T21:35:38Z</time>
      </trkpt>
      <trkpt lat="50.7701" lon="1.60741">
        <ele>6</ele>
        <time>2024-03-20T21:35:38Z</time>
      </trkpt>
      <trkpt lat="50.77005" lon="1.60812">
        <ele>7</ele>
        <time>2024-03-20T21:35:46Z</time>
      </trkpt>
      <trkpt lat="50.76994" lon="1.60914">
        <ele>6</ele>
        <time>2024-03-20T21:35:58Z</time>
      </trkpt>
      <trkpt lat="50.76992" lon="1.60914">
        <ele>6</ele>
        <time>2024-03-20T21:35:58Z</time>
      </trkpt>
      <trkpt lat="50.76994" lon="1.60914">
        <ele>6</ele>
        <time>2024-03-20T21:35:59Z</time>
      </trkpt>
      <trkpt lat="50.77003" lon="1.60915">
        <ele>6</ele>
        <time>2024-03-20T21:36:00Z</time>
      </trkpt>
      <trkpt lat="50.77039" lon="1.60919">
        <ele>6</ele>
        <time>2024-03-20T21:36:07Z</time>
      </trkpt>
      <trkpt lat="50.77049" lon="1.6092">
        <ele>7</ele>
        <time>2024-03-20T21:36:08Z</time>
      </trkpt>
      <trkpt lat="50.77077" lon="1.60922">
        <ele>7</ele>
        <time>2024-03-20T21:36:13Z</time>
      </trkpt>
      <trkpt lat="50.77083" lon="1.60923">
        <ele>7</ele>
        <time>2024-03-20T21:36:14Z</time>
      </trkpt>
      <trkpt lat="50.77174" lon="1.60805">
        <ele>12</ele>
        <time>2024-03-20T21:36:35Z</time>
      </trkpt>
      <trkpt lat="50.77225" lon="1.6074">
        <ele>15</ele>
        <time>2024-03-20T21:36:47Z</time>
      </trkpt>
      <trkpt lat="50.77246" lon="1.60668">
        <ele>15</ele>
        <time>2024-03-20T21:36:56Z</time>
      </trkpt>
      <trkpt lat="50.7725" lon="1.60663">
        <ele>14</ele>
        <time>2024-03-20T21:36:57Z</time>
      </trkpt>
      <trkpt lat="50.77253" lon="1.60661">
        <ele>14</ele>
        <time>2024-03-20T21:36:57Z</time>
      </trkpt>
      <trkpt lat="50.77275" lon="1.60663">
        <ele>15</ele>
        <time>2024-03-20T21:37:01Z</time>
      </trkpt>
      <trkpt lat="50.77279" lon="1.60664">
        <ele>15</ele>
        <time>2024-03-20T21:37:02Z</time>
      </trkpt>
      <trkpt lat="50.77296" lon="1.60692">
        <ele>16</ele>
        <time>2024-03-20T21:37:06Z</time>
      </trkpt>
      <trkpt lat="50.77332" lon="1.60752">
        <ele>20</ele>
        <time>2024-03-20T21:37:16Z</time>
      </trkpt>
      <trkpt lat="50.77365" lon="1.60818">
        <ele>19</ele>
        <time>2024-03-20T21:37:25Z</time>
      </trkpt>
      <trkpt lat="50.77393" lon="1.60882">
        <ele>18</ele>
        <time>2024-03-20T21:37:34Z</time>
      </trkpt>
      <trkpt lat="50.77395" lon="1.60887">
        <ele>18</ele>
        <time>2024-03-20T21:37:35Z</time>
      </trkpt>
      <trkpt lat="50.77661" lon="1.60827">
        <ele>35</ele>
        <time>2024-03-20T21:38:22Z</time>
      </trkpt>
      <trkpt lat="50.77664" lon="1.60826">
        <ele>36</ele>
        <time>2024-03-20T21:38:23Z</time>
      </trkpt>
      <trkpt lat="50.77771" lon="1.61066">
        <ele>42</ele>
        <time>2024-03-20T21:38:56Z</time>
      </trkpt>
      <trkpt lat="50.77775" lon="1.61076">
        <ele>42</ele>
        <time>2024-03-20T21:38:57Z</time>
      </trkpt>
      <trkpt lat="50.77757" lon="1.61092">
        <ele>42</ele>
        <time>2024-03-20T21:39:01Z</time>
      </trkpt>
      <trkpt lat="50.77752" lon="1.61098">
        <ele>42</ele>
        <time>2024-03-20T21:39:02Z</time>
      </trkpt>
      <trkpt lat="50.77751" lon="1.6111">
        <ele>42</ele>
        <time>2024-03-20T21:39:04Z</time>
      </trkpt>
      <trkpt lat="50.77754" lon="1.61117">
        <ele>42</ele>
        <time>2024-03-20T21:39:04Z</time>
      </trkpt>
      <trkpt lat="50.77758" lon="1.6112">
        <ele>43</ele>
        <time>2024-03-20T21:39:05Z</time>
      </trkpt>
      <trkpt lat="50.77767" lon="1.61132">
        <ele>43</ele>
        <time>2024-03-20T21:39:07Z</time>
      </trkpt>
      <trkpt lat="50.77771" lon="1.61147">
        <ele>43</ele>
        <time>2024-03-20T21:39:09Z</time>
      </trkpt>
      <trkpt lat="50.77772" lon="1.61158">
        <ele>43</ele>
        <time>2024-03-20T21:39:10Z</time>
      </trkpt>
      <trkpt lat="50.77772" lon="1.6115">
        <ele>43</ele>
        <time>2024-03-20T21:39:11Z</time>
      </trkpt>
      <trkpt lat="50.77772" lon="1.61147">
        <ele>43</ele>
        <time>2024-03-20T21:39:12Z</time>
      </trkpt>
      <trkpt lat="50.77771" lon="1.61147">
        <ele>43</ele>
        <time>2024-03-20T21:39:12Z</time>
      </trkpt>
      <trkpt lat="50.77772" lon="1.61158">
        <ele>43</ele>
        <time>2024-03-20T21:39:13Z</time>
      </trkpt>
      <trkpt lat="50.77769" lon="1.61579">
        <ele>45</ele>
        <time>2024-03-20T21:40:00Z</time>
      </trkpt>
      <trkpt lat="50.7777" lon="1.61607">
        <ele>46</ele>
        <time>2024-03-20T21:40:04Z</time>
      </trkpt>
      <trkpt lat="50.77768" lon="1.61642">
        <ele>46</ele>
        <time>2024-03-20T21:40:08Z</time>
      </trkpt>
      <trkpt lat="50.7777" lon="1.61845">
        <ele>47</ele>
        <time>2024-03-20T21:40:30Z</time>
      </trkpt>
      <trkpt lat="50.77772" lon="1.61877">
        <ele>48</ele>
        <time>2024-03-20T21:40:34Z</time>
      </trkpt>
      <trkpt lat="50.77771" lon="1.6189">
        <ele>48</ele>
        <time>2024-03-20T21:40:36Z</time>
      </trkpt>
      <trkpt lat="50.77772" lon="1.61907">
        <ele>48</ele>
        <time>2024-03-20T21:40:37Z</time>
      </trkpt>
      <trkpt lat="50.7776" lon="1.61966">
        <ele>48</ele>
        <time>2024-03-20T21:40:44Z</time>
      </trkpt>
      <trkpt lat="50.77721" lon="1.62092">
        <ele>46</ele>
        <time>2024-03-20T21:41:00Z</time>
      </trkpt>
      <trkpt lat="50.77721" lon="1.62094">
        <ele>46</ele>
        <time>2024-03-20T21:41:00Z</time>
      </trkpt>
      <trkpt lat="50.77738" lon="1.62132">
        <ele>46</ele>
        <time>2024-03-20T21:41:06Z</time>
      </trkpt>
      <trkpt lat="50.77769" lon="1.62177">
        <ele>46</ele>
        <time>2024-03-20T21:41:13Z</time>
      </trkpt>
      <trkpt lat="50.77797" lon="1.62223">
        <ele>46</ele>
        <time>2024-03-20T21:41:20Z</time>
      </trkpt>
      <trkpt lat="50.7783" lon="1.62281">
        <ele>46</ele>
        <time>2024-03-20T21:41:29Z</time>
      </trkpt>
      <trkpt lat="50.77885" lon="1.62401">
        <ele>46</ele>
        <time>2024-03-20T21:41:46Z</time>
      </trkpt>
      <trkpt lat="50.77896" lon="1.62428">
        <ele>46</ele>
        <time>2024-03-20T21:41:49Z</time>
      </trkpt>
      <trkpt lat="50.77944" lon="1.62545">
        <ele>43</ele>
        <time>2024-03-20T21:42:05Z</time>
      </trkpt>
      <trkpt lat="50.77969" lon="1.62623">
        <ele>43</ele>
        <time>2024-03-20T21:42:15Z</time>
      </trkpt>
      <trkpt lat="50.77982" lon="1.62669">
        <ele>42</ele>
        <time>2024-03-20T21:42:21Z</time>
      </trkpt>
      <trkpt lat="50.77998" lon="1.62735">
        <ele>38</ele>
        <time>2024-03-20T21:42:29Z</time>
      </trkpt>
      <trkpt lat="50.78013" lon="1.62803">
        <ele>36</ele>
        <time>2024-03-20T21:42:37Z</time>
      </trkpt>
      <trkpt lat="50.78015" lon="1.62826">
        <ele>35</ele>
        <time>2024-03-20T21:42:39Z</time>
      </trkpt>
      <trkpt lat="50.78026" lon="1.62841">
        <ele>35</ele>
        <time>2024-03-20T21:42:42Z</time>
      </trkpt>
      <trkpt lat="50.78042" lon="1.6287">
        <ele>34</ele>
        <time>2024-03-20T21:42:46Z</time>
      </trkpt>
      <trkpt lat="50.78047" lon="1.62888">
        <ele>33</ele>
        <time>2024-03-20T21:42:48Z</time>
      </trkpt>
      <trkpt lat="50.7805" lon="1.62912">
        <ele>32</ele>
        <time>2024-03-20T21:42:51Z</time>
      </trkpt>
      <trkpt lat="50.78052" lon="1.62951">
        <ele>31</ele>
        <time>2024-03-20T21:42:56Z</time>
      </trkpt>
      <trkpt lat="50.78059" lon="1.62988">
        <ele>30</ele>
        <time>2024-03-20T21:43:00Z</time>
      </trkpt>
      <trkpt lat="50.78095" lon="1.63144">
        <ele>27</ele>
        <time>2024-03-20T21:43:19Z</time>
      </trkpt>
      <trkpt lat="50.78102" lon="1.63163">
        <ele>27</ele>
        <time>2024-03-20T21:43:21Z</time>
      </trkpt>
      <trkpt lat="50.78111" lon="1.63177">
        <ele>26</ele>
        <time>2024-03-20T21:43:23Z</time>
      </trkpt>
      <trkpt lat="50.78122" lon="1.63188">
        <ele>26</ele>
        <time>2024-03-20T21:43:26Z</time>
      </trkpt>
      <trkpt lat="50.78255" lon="1.6327">
        <ele>22</ele>
        <time>2024-03-20T21:43:51Z</time>
      </trkpt>
      <trkpt lat="50.78391" lon="1.63353">
        <ele>19</ele>
        <time>2024-03-20T21:44:17Z</time>
      </trkpt>
      <trkpt lat="50.78456" lon="1.63394">
        <ele>18</ele>
        <time>2024-03-20T21:44:29Z</time>
      </trkpt>
      <trkpt lat="50.78481" lon="1.63406">
        <ele>18</ele>
        <time>2024-03-20T21:44:34Z</time>
      </trkpt>
      <trkpt lat="50.78505" lon="1.63407">
        <ele>18</ele>
        <time>2024-03-20T21:44:38Z</time>
      </trkpt>
      <trkpt lat="50.78627" lon="1.63383">
        <ele>18</ele>
        <time>2024-03-20T21:45:00Z</time>
      </trkpt>
      <trkpt lat="50.78658" lon="1.63388">
        <ele>17</ele>
        <time>2024-03-20T21:45:06Z</time>
      </trkpt>
      <trkpt lat="50.78754" lon="1.6344">
        <ele>16</ele>
        <time>2024-03-20T21:45:24Z</time>
      </trkpt>
      <trkpt lat="50.78805" lon="1.6347">
        <ele>16</ele>
        <time>2024-03-20T21:45:33Z</time>
      </trkpt>
      <trkpt lat="50.78831" lon="1.63479">
        <ele>16</ele>
        <time>2024-03-20T21:45:38Z</time>
      </trkpt>
      <trkpt lat="50.78862" lon="1.63483">
        <ele>16</ele>
        <time>2024-03-20T21:45:44Z</time>
      </trkpt>
      <trkpt lat="50.78896" lon="1.63487">
        <ele>15</ele>
        <time>2024-03-20T21:45:50Z</time>
      </trkpt>
      <trkpt lat="50.7894" lon="1.63469">
        <ele>15</ele>
        <time>2024-03-20T21:45:58Z</time>
      </trkpt>
      <trkpt lat="50.79017" lon="1.63427">
        <ele>14</ele>
        <time>2024-03-20T21:46:12Z</time>
      </trkpt>
      <trkpt lat="50.79059" lon="1.63499">
        <ele>15</ele>
        <time>2024-03-20T21:46:23Z</time>
      </trkpt>
      <trkpt lat="50.79102" lon="1.6358">
        <ele>19</ele>
        <time>2024-03-20T21:46:35Z</time>
      </trkpt>
      <trkpt lat="50.79137" lon="1.63663">
        <ele>21</ele>
        <time>2024-03-20T21:46:47Z</time>
      </trkpt>
      <trkpt lat="50.7917" lon="1.6373">
        <ele>23</ele>
        <time>2024-03-20T21:46:56Z</time>
      </trkpt>
      <trkpt lat="50.79195" lon="1.63762">
        <ele>22</ele>
        <time>2024-03-20T21:47:02Z</time>
      </trkpt>
      <trkpt lat="50.79268" lon="1.63846">
        <ele>20</ele>
        <time>2024-03-20T21:47:18Z</time>
      </trkpt>
      <trkpt lat="50.79278" lon="1.63855">
        <ele>21</ele>
        <time>2024-03-20T21:47:20Z</time>
      </trkpt>
      <trkpt lat="50.79291" lon="1.63857">
        <ele>21</ele>
        <time>2024-03-20T21:47:22Z</time>
      </trkpt>
      <trkpt lat="50.79309" lon="1.63854">
        <ele>21</ele>
        <time>2024-03-20T21:47:25Z</time>
      </trkpt>
      <trkpt lat="50.79325" lon="1.63841">
        <ele>20</ele>
        <time>2024-03-20T21:47:29Z</time>
      </trkpt>
      <trkpt lat="50.79369" lon="1.63816">
        <ele>21</ele>
        <time>2024-03-20T21:47:37Z</time>
      </trkpt>
      <trkpt lat="50.79388" lon="1.63815">
        <ele>22</ele>
        <time>2024-03-20T21:47:40Z</time>
      </trkpt>
      <trkpt lat="50.79407" lon="1.63825">
        <ele>23</ele>
        <time>2024-03-20T21:47:44Z</time>
      </trkpt>
      <trkpt lat="50.7946" lon="1.63875">
        <ele>24</ele>
        <time>2024-03-20T21:47:55Z</time>
      </trkpt>
      <trkpt lat="50.79478" lon="1.63894">
        <ele>25</ele>
        <time>2024-03-20T21:47:59Z</time>
      </trkpt>
      <trkpt lat="50.79493" lon="1.63917">
        <ele>25</ele>
        <time>2024-03-20T21:48:02Z</time>
      </trkpt>
      <trkpt lat="50.79521" lon="1.6397">
        <ele>25</ele>
        <time>2024-03-20T21:48:10Z</time>
      </trkpt>
      <trkpt lat="50.79558" lon="1.64046">
        <ele>25</ele>
        <time>2024-03-20T21:48:21Z</time>
      </trkpt>
      <trkpt lat="50.79577" lon="1.64124">
        <ele>26</ele>
        <time>2024-03-20T21:48:30Z</time>
      </trkpt>
      <trkpt lat="50.79589" lon="1.64198">
        <ele>29</ele>
        <time>2024-03-20T21:48:39Z</time>
      </trkpt>
      <trkpt lat="50.79595" lon="1.6421">
        <ele>29</ele>
        <time>2024-03-20T21:48:41Z</time>
      </trkpt>
      <trkpt lat="50.79643" lon="1.64307">
        <ele>32</ele>
        <time>2024-03-20T21:48:55Z</time>
      </trkpt>
      <trkpt lat="50.79665" lon="1.64393">
        <ele>33</ele>
        <time>2024-03-20T21:49:05Z</time>
      </trkpt>
      <trkpt lat="50.79676" lon="1.64443">
        <ele>33</ele>
        <time>2024-03-20T21:49:11Z</time>
      </trkpt>
      <trkpt lat="50.79683" lon="1.64492">
        <ele>32</ele>
        <time>2024-03-20T21:49:17Z</time>
      </trkpt>
      <trkpt lat="50.79679" lon="1.64548">
        <ele>31</ele>
        <time>2024-03-20T21:49:23Z</time>
      </trkpt>
      <trkpt lat="50.79671" lon="1.64594">
        <ele>31</ele>
        <time>2024-03-20T21:49:28Z</time>
      </trkpt>
      <trkpt lat="50.79657" lon="1.64691">
        <ele>29</ele>
        <time>2024-03-20T21:49:40Z</time>
      </trkpt>
      <trkpt lat="50.7966" lon="1.64738">
        <ele>29</ele>
        <time>2024-03-20T21:49:45Z</time>
      </trkpt>
      <trkpt lat="50.79669" lon="1.64751">
        <ele>28</ele>
        <time>2024-03-20T21:49:47Z</time>
      </trkpt>
      <trkpt lat="50.79705" lon="1.64777">
        <ele>27</ele>
        <time>2024-03-20T21:49:54Z</time>
      </trkpt>
      <trkpt lat="50.79859" lon="1.64822">
        <ele>23</ele>
        <time>2024-03-20T21:50:22Z</time>
      </trkpt>
      <trkpt lat="50.79876" lon="1.64832">
        <ele>23</ele>
        <time>2024-03-20T21:50:25Z</time>
      </trkpt>
      <trkpt lat="50.79894" lon="1.64861">
        <ele>24</ele>
        <time>2024-03-20T21:50:30Z</time>
      </trkpt>
      <trkpt lat="50.79901" lon="1.64888">
        <ele>26</ele>
        <time>2024-03-20T21:50:33Z</time>
      </trkpt>
      <trkpt lat="50.79902" lon="1.6492">
        <ele>27</ele>
        <time>2024-03-20T21:50:37Z</time>
      </trkpt>
      <trkpt lat="50.79895" lon="1.64947">
        <ele>29</ele>
        <time>2024-03-20T21:50:40Z</time>
      </trkpt>
      <trkpt lat="50.79872" lon="1.65002">
        <ele>30</ele>
        <time>2024-03-20T21:50:47Z</time>
      </trkpt>
      <trkpt lat="50.7986" lon="1.65047">
        <ele>31</ele>
        <time>2024-03-20T21:50:53Z</time>
      </trkpt>
      <trkpt lat="50.79841" lon="1.6524">
        <ele>25</ele>
        <time>2024-03-20T21:51:15Z</time>
      </trkpt>
      <trkpt lat="50.7981" lon="1.65273">
        <ele>25</ele>
        <time>2024-03-20T21:51:21Z</time>
      </trkpt>
      <trkpt lat="50.79771" lon="1.65292">
        <ele>25</ele>
        <time>2024-03-20T21:51:29Z</time>
      </trkpt>
      <trkpt lat="50.79744" lon="1.65323">
        <ele>26</ele>
        <time>2024-03-20T21:51:35Z</time>
      </trkpt>
      <trkpt lat="50.79717" lon="1.65382">
        <ele>27</ele>
        <time>2024-03-20T21:51:43Z</time>
      </trkpt>
      <trkpt lat="50.79716" lon="1.654">
        <ele>27</ele>
        <time>2024-03-20T21:51:45Z</time>
      </trkpt>
      <trkpt lat="50.79719" lon="1.65404">
        <ele>26</ele>
        <time>2024-03-20T21:51:46Z</time>
      </trkpt>
      <trkpt lat="50.79908" lon="1.65585">
        <ele>15</ele>
        <time>2024-03-20T21:52:25Z</time>
      </trkpt>
      <trkpt lat="50.79937" lon="1.6562">
        <ele>14</ele>
        <time>2024-03-20T21:52:31Z</time>
      </trkpt>
      <trkpt lat="50.79976" lon="1.65698">
        <ele>12</ele>
        <time>2024-03-20T21:52:43Z</time>
      </trkpt>
      <trkpt lat="50.79989" lon="1.65738">
        <ele>11</ele>
        <time>2024-03-20T21:52:48Z</time>
      </trkpt>
      <trkpt lat="50.80046" lon="1.65966">
        <ele>14</ele>
        <time>2024-03-20T21:53:15Z</time>
      </trkpt>
      <trkpt lat="50.8011" lon="1.66196">
        <ele>19</ele>
        <time>2024-03-20T21:53:43Z</time>
      </trkpt>
      <trkpt lat="50.8012" lon="1.66234">
        <ele>20</ele>
        <time>2024-03-20T21:53:48Z</time>
      </trkpt>
      <trkpt lat="50.80149" lon="1.66401">
        <ele>23</ele>
        <time>2024-03-20T21:54:08Z</time>
      </trkpt>
      <trkpt lat="50.80156" lon="1.66425">
        <ele>24</ele>
        <time>2024-03-20T21:54:10Z</time>
      </trkpt>
      <trkpt lat="50.80174" lon="1.66469">
        <ele>24</ele>
        <time>2024-03-20T21:54:16Z</time>
      </trkpt>
      <trkpt lat="50.80185" lon="1.66472">
        <ele>24</ele>
        <time>2024-03-20T21:54:18Z</time>
      </trkpt>
      <trkpt lat="50.80199" lon="1.66491">
        <ele>24</ele>
        <time>2024-03-20T21:54:22Z</time>
      </trkpt>
      <trkpt lat="50.8022" lon="1.66544">
        <ele>24</ele>
        <time>2024-03-20T21:54:29Z</time>
      </trkpt>
      <trkpt lat="50.80225" lon="1.66565">
        <ele>25</ele>
        <time>2024-03-20T21:54:31Z</time>
      </trkpt>
      <trkpt lat="50.80237" lon="1.66642">
        <ele>25</ele>
        <time>2024-03-20T21:54:40Z</time>
      </trkpt>
      <trkpt lat="50.80249" lon="1.66678">
        <ele>26</ele>
        <time>2024-03-20T21:54:45Z</time>
      </trkpt>
      <trkpt lat="50.80285" lon="1.6677">
        <ele>26</ele>
        <time>2024-03-20T21:54:57Z</time>
      </trkpt>
      <trkpt lat="50.80288" lon="1.66792">
        <ele>27</ele>
        <time>2024-03-20T21:54:59Z</time>
      </trkpt>
      <trkpt lat="50.80291" lon="1.66851">
        <ele>27</ele>
        <time>2024-03-20T21:55:06Z</time>
      </trkpt>
      <trkpt lat="50.80291" lon="1.66947">
        <ele>25</ele>
        <time>2024-03-20T21:55:17Z</time>
      </trkpt>
      <trkpt lat="50.80298" lon="1.67003">
        <ele>24</ele>
        <time>2024-03-20T21:55:23Z</time>
      </trkpt>
      <trkpt lat="50.80319" lon="1.67166">
        <ele>20</ele>
        <time>2024-03-20T21:55:42Z</time>
      </trkpt>
      <trkpt lat="50.80339" lon="1.67219">
        <ele>17</ele>
        <time>2024-03-20T21:55:49Z</time>
      </trkpt>
      <trkpt lat="50.8036" lon="1.67256">
        <ele>15</ele>
        <time>2024-03-20T21:55:55Z</time>
      </trkpt>
      <trkpt lat="50.80366" lon="1.67274">
        <ele>15</ele>
        <time>2024-03-20T21:55:57Z</time>
      </trkpt>
      <trkpt lat="50.8038" lon="1.67392">
        <ele>15</ele>
        <time>2024-03-20T21:56:10Z</time>
      </trkpt>
      <trkpt lat="50.80376" lon="1.67468">
        <ele>16</ele>
        <time>2024-03-20T21:56:19Z</time>
      </trkpt>
      <trkpt lat="50.80378" lon="1.67514">
        <ele>18</ele>
        <time>2024-03-20T21:56:24Z</time>
      </trkpt>
      <trkpt lat="50.80377" lon="1.67668">
        <ele>23</ele>
        <time>2024-03-20T21:56:41Z</time>
      </trkpt>
      <trkpt lat="50.80378" lon="1.67683">
        <ele>23</ele>
        <time>2024-03-20T21:56:43Z</time>
      </trkpt>
      <trkpt lat="50.80383" lon="1.67722">
        <ele>26</ele>
        <time>2024-03-20T21:56:48Z</time>
      </trkpt>
      <trkpt lat="50.80406" lon="1.67846">
        <ele>31</ele>
        <time>2024-03-20T21:57:02Z</time>
      </trkpt>
      <trkpt lat="50.80444" lon="1.67993">
        <ele>31</ele>
        <time>2024-03-20T21:57:20Z</time>
      </trkpt>
      <trkpt lat="50.80453" lon="1.68134">
        <ele>30</ele>
        <time>2024-03-20T21:57:36Z</time>
      </trkpt>
      <trkpt lat="50.80478" lon="1.68288">
        <ele>27</ele>
        <time>2024-03-20T21:57:54Z</time>
      </trkpt>
      <trkpt lat="50.80486" lon="1.68397">
        <ele>26</ele>
        <time>2024-03-20T21:58:06Z</time>
      </trkpt>
      <trkpt lat="50.80491" lon="1.68434">
        <ele>25</ele>
        <time>2024-03-20T21:58:10Z</time>
      </trkpt>
      <trkpt lat="50.80549" lon="1.68596">
        <ele>17</ele>
        <time>2024-03-20T21:58:31Z</time>
      </trkpt>
      <trkpt lat="50.80591" lon="1.68711">
        <ele>13</ele>
        <time>2024-03-20T21:58:46Z</time>
      </trkpt>
      <trkpt lat="50.80647" lon="1.68852">
        <ele>10</ele>
        <time>2024-03-20T21:59:05Z</time>
      </trkpt>
      <trkpt lat="50.80687" lon="1.68936">
        <ele>9</ele>
        <time>2024-03-20T21:59:17Z</time>
      </trkpt>
      <trkpt lat="50.80712" lon="1.69003">
        <ele>9</ele>
        <time>2024-03-20T21:59:26Z</time>
      </trkpt>
      <trkpt lat="50.8072" lon="1.69028">
        <ele>9</ele>
        <time>2024-03-20T21:59:29Z</time>
      </trkpt>
      <trkpt lat="50.80729" lon="1.69066">
        <ele>10</ele>
        <time>2024-03-20T21:59:33Z</time>
      </trkpt>
      <trkpt lat="50.80734" lon="1.691">
        <ele>11</ele>
        <time>2024-03-20T21:59:37Z</time>
      </trkpt>
      <trkpt lat="50.80737" lon="1.69145">
        <ele>12</ele>
        <time>2024-03-20T21:59:42Z</time>
      </trkpt>
      <trkpt lat="50.80737" lon="1.69191">
        <ele>14</ele>
        <time>2024-03-20T21:59:47Z</time>
      </trkpt>
      <trkpt lat="50.80733" lon="1.69237">
        <ele>15</ele>
        <time>2024-03-20T21:59:53Z</time>
      </trkpt>
      <trkpt lat="50.80727" lon="1.69274">
        <ele>16</ele>
        <time>2024-03-20T21:59:57Z</time>
      </trkpt>
      <trkpt lat="50.80722" lon="1.69297">
        <ele>17</ele>
        <time>2024-03-20T22:00:00Z</time>
      </trkpt>
      <trkpt lat="50.80704" lon="1.69385">
        <ele>18</ele>
        <time>2024-03-20T22:00:10Z</time>
      </trkpt>
      <trkpt lat="50.807" lon="1.6941">
        <ele>17</ele>
        <time>2024-03-20T22:00:13Z</time>
      </trkpt>
      <trkpt lat="50.80701" lon="1.69434">
        <ele>17</ele>
        <time>2024-03-20T22:00:16Z</time>
      </trkpt>
      <trkpt lat="50.80705" lon="1.69452">
        <ele>17</ele>
        <time>2024-03-20T22:00:18Z</time>
      </trkpt>
      <trkpt lat="50.8071" lon="1.6946">
        <ele>16</ele>
        <time>2024-03-20T22:00:19Z</time>
      </trkpt>
      <trkpt lat="50.80717" lon="1.6947">
        <ele>16</ele>
        <time>2024-03-20T22:00:21Z</time>
      </trkpt>
      <trkpt lat="50.80758" lon="1.69493">
        <ele>14</ele>
        <time>2024-03-20T22:00:28Z</time>
      </trkpt>
      <trkpt lat="50.80855" lon="1.69526">
        <ele>9</ele>
        <time>2024-03-20T22:00:46Z</time>
      </trkpt>
      <trkpt lat="50.80873" lon="1.69536">
        <ele>8</ele>
        <time>2024-03-20T22:00:50Z</time>
      </trkpt>
      <trkpt lat="50.80892" lon="1.69549">
        <ele>8</ele>
        <time>2024-03-20T22:00:53Z</time>
      </trkpt>
      <trkpt lat="50.80914" lon="1.69569">
        <ele>7</ele>
        <time>2024-03-20T22:00:58Z</time>
      </trkpt>
      <trkpt lat="50.80946" lon="1.69602">
        <ele>7</ele>
        <time>2024-03-20T22:01:05Z</time>
      </trkpt>
      <trkpt lat="50.80962" lon="1.69619">
        <ele>7</ele>
        <time>2024-03-20T22:01:08Z</time>
      </trkpt>
      <trkpt lat="50.81091" lon="1.6975">
        <ele>6</ele>
        <time>2024-03-20T22:01:35Z</time>
      </trkpt>
      <trkpt lat="50.81114" lon="1.69773">
        <ele>6</ele>
        <time>2024-03-20T22:01:40Z</time>
      </trkpt>
      <trkpt lat="50.8111" lon="1.69806">
        <ele>7</ele>
        <time>2024-03-20T22:01:44Z</time>
      </trkpt>
      <trkpt lat="50.81105" lon="1.69873">
        <ele>7</ele>
        <time>2024-03-20T22:01:51Z</time>
      </trkpt>
      <trkpt lat="50.8103" lon="1.70401">
        <ele>8</ele>
        <time>2024-03-20T22:02:52Z</time>
      </trkpt>
      <trkpt lat="50.81012" lon="1.70535">
        <ele>7</ele>
        <time>2024-03-20T22:03:08Z</time>
      </trkpt>
      <trkpt lat="50.8101" lon="1.70558">
        <ele>7</ele>
        <time>2024-03-20T22:03:10Z</time>
      </trkpt>
      <trkpt lat="50.81011" lon="1.7059">
        <ele>7</ele>
        <time>2024-03-20T22:03:14Z</time>
      </trkpt>
      <trkpt lat="50.81013" lon="1.70616">
        <ele>8</ele>
        <time>2024-03-20T22:03:17Z</time>
      </trkpt>
      <trkpt lat="50.81018" lon="1.70643">
        <ele>8</ele>
        <time>2024-03-20T22:03:20Z</time>
      </trkpt>
      <trkpt lat="50.81026" lon="1.70668">
        <ele>8</ele>
        <time>2024-03-20T22:03:23Z</time>
      </trkpt>
      <trkpt lat="50.81034" lon="1.70689">
        <ele>9</ele>
        <time>2024-03-20T22:03:26Z</time>
      </trkpt>
      <trkpt lat="50.81049" lon="1.70718">
        <ele>9</ele>
        <time>2024-03-20T22:03:30Z</time>
      </trkpt>
      <trkpt lat="50.81069" lon="1.70744">
        <ele>10</ele>
        <time>2024-03-20T22:03:35Z</time>
      </trkpt>
      <trkpt lat="50.81115" lon="1.70787">
        <ele>11</ele>
        <time>2024-03-20T22:03:44Z</time>
      </trkpt>
      <trkpt lat="50.81114" lon="1.70787">
        <ele>11</ele>
        <time>2024-03-20T22:03:44Z</time>
      </trkpt>
      <trkpt lat="50.81125" lon="1.70757">
        <ele>10</ele>
        <time>2024-03-20T22:03:48Z</time>
      </trkpt>
      <trkpt lat="50.81181" lon="1.70816">
        <ele>12</ele>
        <time>2024-03-20T22:04:00Z</time>
      </trkpt>
      <trkpt lat="50.81204" lon="1.7085">
        <ele>13</ele>
        <time>2024-03-20T22:04:06Z</time>
      </trkpt>
      <trkpt lat="50.81228" lon="1.70904">
        <ele>15</ele>
        <time>2024-03-20T22:04:13Z</time>
      </trkpt>
      <trkpt lat="50.81246" lon="1.70942">
        <ele>16</ele>
        <time>2024-03-20T22:04:19Z</time>
      </trkpt>
      <trkpt lat="50.81277" lon="1.70986">
        <ele>15</ele>
        <time>2024-03-20T22:04:26Z</time>
      </trkpt>
      <trkpt lat="50.81246" lon="1.70942">
        <ele>16</ele>
        <time>2024-03-20T22:04:33Z</time>
      </trkpt>
      <trkpt lat="50.81228" lon="1.70904">
        <ele>15</ele>
        <time>2024-03-20T22:04:39Z</time>
      </trkpt>
      <trkpt lat="50.81204" lon="1.7085">
        <ele>13</ele>
        <time>2024-03-20T22:04:46Z</time>
      </trkpt>
      <trkpt lat="50.81181" lon="1.70816">
        <ele>12</ele>
        <time>2024-03-20T22:04:52Z</time>
      </trkpt>
      <trkpt lat="50.81125" lon="1.70757">
        <ele>10</ele>
        <time>2024-03-20T22:05:04Z</time>
      </trkpt>
      <trkpt lat="50.81114" lon="1.70787">
        <ele>11</ele>
        <time>2024-03-20T22:05:08Z</time>
      </trkpt>
      <trkpt lat="50.81069" lon="1.70744">
        <ele>10</ele>
        <time>2024-03-20T22:05:17Z</time>
      </trkpt>
      <trkpt lat="50.81053" lon="1.70784">
        <ele>11</ele>
        <time>2024-03-20T22:05:22Z</time>
      </trkpt>
      <trkpt lat="50.8104" lon="1.70799">
        <ele>11</ele>
        <time>2024-03-20T22:05:25Z</time>
      </trkpt>
      <trkpt lat="50.81034" lon="1.70802">
        <ele>11</ele>
        <time>2024-03-20T22:05:26Z</time>
      </trkpt>
      <trkpt lat="50.81021" lon="1.70804">
        <ele>11</ele>
        <time>2024-03-20T22:05:29Z</time>
      </trkpt>
      <trkpt lat="50.81011" lon="1.70803">
        <ele>11</ele>
        <time>2024-03-20T22:05:30Z</time>
      </trkpt>
      <trkpt lat="50.80993" lon="1.70801">
        <ele>11</ele>
        <time>2024-03-20T22:05:34Z</time>
      </trkpt>
      <trkpt lat="50.80974" lon="1.70808">
        <ele>11</ele>
        <time>2024-03-20T22:05:37Z</time>
      </trkpt>
      <trkpt lat="50.80963" lon="1.70818">
        <ele>10</ele>
        <time>2024-03-20T22:05:39Z</time>
      </trkpt>
      <trkpt lat="50.80863" lon="1.70926">
        <ele>9</ele>
        <time>2024-03-20T22:06:01Z</time>
      </trkpt>
      <trkpt lat="50.80853" lon="1.70937">
        <ele>9</ele>
        <time>2024-03-20T22:06:03Z</time>
      </trkpt>
      <trkpt lat="50.80816" lon="1.7097">
        <ele>8</ele>
        <time>2024-03-20T22:06:11Z</time>
      </trkpt>
      <trkpt lat="50.80782" lon="1.70992">
        <ele>8</ele>
        <time>2024-03-20T22:06:17Z</time>
      </trkpt>
      <trkpt lat="50.80761" lon="1.71003">
        <ele>8</ele>
        <time>2024-03-20T22:06:21Z</time>
      </trkpt>
      <trkpt lat="50.80669" lon="1.71062">
        <ele>16</ele>
        <time>2024-03-20T22:06:39Z</time>
      </trkpt>
      <trkpt lat="50.80611" lon="1.71095">
        <ele>19</ele>
        <time>2024-03-20T22:06:50Z</time>
      </trkpt>
      <trkpt lat="50.80537" lon="1.7112">
        <ele>19</ele>
        <time>2024-03-20T22:07:03Z</time>
      </trkpt>
      <trkpt lat="50.80452" lon="1.71146">
        <ele>20</ele>
        <time>2024-03-20T22:07:19Z</time>
      </trkpt>
      <trkpt lat="50.80416" lon="1.71152">
        <ele>21</ele>
        <time>2024-03-20T22:07:25Z</time>
      </trkpt>
      <trkpt lat="50.80232" lon="1.71166">
        <ele>23</ele>
        <time>2024-03-20T22:07:58Z</time>
      </trkpt>
      <trkpt lat="50.80139" lon="1.7117">
        <ele>25</ele>
        <time>2024-03-20T22:08:14Z</time>
      </trkpt>
      <trkpt lat="50.79926" lon="1.71184">
        <ele>31</ele>
        <time>2024-03-20T22:08:52Z</time>
      </trkpt>
      <trkpt lat="50.79906" lon="1.71185">
        <ele>31</ele>
        <time>2024-03-20T22:08:56Z</time>
      </trkpt>
      <trkpt lat="50.79902" lon="1.71185">
        <ele>31</ele>
        <time>2024-03-20T22:08:57Z</time>
      </trkpt>
      <trkpt lat="50.79878" lon="1.71187">
        <ele>31</ele>
        <time>2024-03-20T22:09:01Z</time>
      </trkpt>
      <trkpt lat="50.79834" lon="1.71194">
        <ele>31</ele>
        <time>2024-03-20T22:09:09Z</time>
      </trkpt>
      <trkpt lat="50.79773" lon="1.71215">
        <ele>26</ele>
        <time>2024-03-20T22:09:20Z</time>
      </trkpt>
      <trkpt lat="50.79542" lon="1.713">
        <ele>19</ele>
        <time>2024-03-20T22:10:02Z</time>
      </trkpt>
      <trkpt lat="50.79494" lon="1.71331">
        <ele>18</ele>
        <time>2024-03-20T22:10:11Z</time>
      </trkpt>
      <trkpt lat="50.79469" lon="1.71344">
        <ele>19</ele>
        <time>2024-03-20T22:10:16Z</time>
      </trkpt>
      <trkpt lat="50.79407" lon="1.71401">
        <ele>21</ele>
        <time>2024-03-20T22:10:29Z</time>
      </trkpt>
      <trkpt lat="50.79138" lon="1.71675">
        <ele>32</ele>
        <time>2024-03-20T22:11:26Z</time>
      </trkpt>
      <trkpt lat="50.79113" lon="1.71726">
        <ele>33</ele>
        <time>2024-03-20T22:11:33Z</time>
      </trkpt>
      <trkpt lat="50.79013" lon="1.71952">
        <ele>40</ele>
        <time>2024-03-20T22:12:04Z</time>
      </trkpt>
      <trkpt lat="50.7898" lon="1.72033">
        <ele>43</ele>
        <time>2024-03-20T22:12:15Z</time>
      </trkpt>
      <trkpt lat="50.78949" lon="1.72144">
        <ele>45</ele>
        <time>2024-03-20T22:12:28Z</time>
      </trkpt>
      <trkpt lat="50.78934" lon="1.72177">
        <ele>47</ele>
        <time>2024-03-20T22:12:33Z</time>
      </trkpt>
      <trkpt lat="50.78864" lon="1.72273">
        <ele>51</ele>
        <time>2024-03-20T22:12:49Z</time>
      </trkpt>
      <trkpt lat="50.78809" lon="1.72393">
        <ele>52</ele>
        <time>2024-03-20T22:13:06Z</time>
      </trkpt>
      <trkpt lat="50.78788" lon="1.72441">
        <ele>53</ele>
        <time>2024-03-20T22:13:13Z</time>
      </trkpt>
      <trkpt lat="50.78769" lon="1.72477">
        <ele>54</ele>
        <time>2024-03-20T22:13:18Z</time>
      </trkpt>
      <trkpt lat="50.78758" lon="1.72496">
        <ele>54</ele>
        <time>2024-03-20T22:13:21Z</time>
      </trkpt>
      <trkpt lat="50.78691" lon="1.7255">
        <ele>51</ele>
        <time>2024-03-20T22:13:34Z</time>
      </trkpt>
      <trkpt lat="50.78549" lon="1.72657">
        <ele>41</ele>
        <time>2024-03-20T22:14:02Z</time>
      </trkpt>
      <trkpt lat="50.78507" lon="1.72697">
        <ele>38</ele>
        <time>2024-03-20T22:14:11Z</time>
      </trkpt>
      <trkpt lat="50.78492" lon="1.72717">
        <ele>37</ele>
        <time>2024-03-20T22:14:14Z</time>
      </trkpt>
      <trkpt lat="50.78389" lon="1.72909">
        <ele>30</ele>
        <time>2024-03-20T22:14:43Z</time>
      </trkpt>
      <trkpt lat="50.78363" lon="1.72949">
        <ele>30</ele>
        <time>2024-03-20T22:14:49Z</time>
      </trkpt>
      <trkpt lat="50.78336" lon="1.72986">
        <ele>30</ele>
        <time>2024-03-20T22:14:56Z</time>
      </trkpt>
      <trkpt lat="50.78304" lon="1.73021">
        <ele>31</ele>
        <time>2024-03-20T22:15:03Z</time>
      </trkpt>
      <trkpt lat="50.78267" lon="1.73055">
        <ele>31</ele>
        <time>2024-03-20T22:15:10Z</time>
      </trkpt>
      <trkpt lat="50.78151" lon="1.73171">
        <ele>37</ele>
        <time>2024-03-20T22:15:35Z</time>
      </trkpt>
      <trkpt lat="50.78096" lon="1.73264">
        <ele>43</ele>
        <time>2024-03-20T22:15:49Z</time>
      </trkpt>
      <trkpt lat="50.78047" lon="1.73389">
        <ele>46</ele>
        <time>2024-03-20T22:16:05Z</time>
      </trkpt>
      <trkpt lat="50.78016" lon="1.73586">
        <ele>42</ele>
        <time>2024-03-20T22:16:28Z</time>
      </trkpt>
      <trkpt lat="50.77999" lon="1.73665">
        <ele>41</ele>
        <time>2024-03-20T22:16:38Z</time>
      </trkpt>
      <trkpt lat="50.7798" lon="1.73711">
        <ele>40</ele>
        <time>2024-03-20T22:16:44Z</time>
      </trkpt>
      <trkpt lat="50.77962" lon="1.73737">
        <ele>40</ele>
        <time>2024-03-20T22:16:48Z</time>
      </trkpt>
      <trkpt lat="50.77951" lon="1.73744">
        <ele>40</ele>
        <time>2024-03-20T22:16:50Z</time>
      </trkpt>
      <trkpt lat="50.77874" lon="1.73761">
        <ele>40</ele>
        <time>2024-03-20T22:17:04Z</time>
      </trkpt>
      <trkpt lat="50.77816" lon="1.73764">
        <ele>40</ele>
        <time>2024-03-20T22:17:14Z</time>
      </trkpt>
      <trkpt lat="50.77807" lon="1.73768">
        <ele>40</ele>
        <time>2024-03-20T22:17:16Z</time>
      </trkpt>
      <trkpt lat="50.77803" lon="1.7377">
        <ele>40</ele>
        <time>2024-03-20T22:17:17Z</time>
      </trkpt>
      <trkpt lat="50.778" lon="1.73775">
        <ele>40</ele>
        <time>2024-03-20T22:17:18Z</time>
      </trkpt>
      <trkpt lat="50.77771" lon="1.73881">
        <ele>38</ele>
        <time>2024-03-20T22:17:31Z</time>
      </trkpt>
      <trkpt lat="50.77764" lon="1.73895">
        <ele>38</ele>
        <time>2024-03-20T22:17:33Z</time>
      </trkpt>
      <trkpt lat="50.77807" lon="1.73968">
        <ele>35</ele>
        <time>2024-03-20T22:17:44Z</time>
      </trkpt>
      <trkpt lat="50.77816" lon="1.7399">
        <ele>34</ele>
        <time>2024-03-20T22:17:47Z</time>
      </trkpt>
      <trkpt lat="50.77824" lon="1.74046">
        <ele>33</ele>
        <time>2024-03-20T22:17:53Z</time>
      </trkpt>
      <trkpt lat="50.77825" lon="1.74083">
        <ele>32</ele>
        <time>2024-03-20T22:17:57Z</time>
      </trkpt>
      <trkpt lat="50.7782" lon="1.74133">
        <ele>31</ele>
        <time>2024-03-20T22:18:03Z</time>
      </trkpt>
      <trkpt lat="50.77803" lon="1.74253">
        <ele>28</ele>
        <time>2024-03-20T22:18:17Z</time>
      </trkpt>
      <trkpt lat="50.77795" lon="1.74283">
        <ele>28</ele>
        <time>2024-03-20T22:18:21Z</time>
      </trkpt>
      <trkpt lat="50.77785" lon="1.7431">
        <ele>28</ele>
        <time>2024-03-20T22:18:24Z</time>
      </trkpt>
      <trkpt lat="50.77781" lon="1.7432">
        <ele>28</ele>
        <time>2024-03-20T22:18:25Z</time>
      </trkpt>
      <trkpt lat="50.77752" lon="1.74373">
        <ele>30</ele>
        <time>2024-03-20T22:18:33Z</time>
      </trkpt>
      <trkpt lat="50.77711" lon="1.74433">
        <ele>32</ele>
        <time>2024-03-20T22:18:43Z</time>
      </trkpt>
      <trkpt lat="50.7767" lon="1.745">
        <ele>34</ele>
        <time>2024-03-20T22:18:54Z</time>
      </trkpt>
      <trkpt lat="50.7765" lon="1.74533">
        <ele>35</ele>
        <time>2024-03-20T22:18:59Z</time>
      </trkpt>
      <trkpt lat="50.77622" lon="1.7459">
        <ele>37</ele>
        <time>2024-03-20T22:19:07Z</time>
      </trkpt>
      <trkpt lat="50.77599" lon="1.74663">
        <ele>41</ele>
        <time>2024-03-20T22:19:16Z</time>
      </trkpt>
      <trkpt lat="50.77563" lon="1.74764">
        <ele>44</ele>
        <time>2024-03-20T22:19:29Z</time>
      </trkpt>
      <trkpt lat="50.77495" lon="1.74876">
        <ele>45</ele>
        <time>2024-03-20T22:19:47Z</time>
      </trkpt>
      <trkpt lat="50.77446" lon="1.74937">
        <ele>47</ele>
        <time>2024-03-20T22:19:58Z</time>
      </trkpt>
      <trkpt lat="50.77396" lon="1.74988">
        <ele>48</ele>
        <time>2024-03-20T22:20:08Z</time>
      </trkpt>
      <trkpt lat="50.77252" lon="1.75127">
        <ele>55</ele>
        <time>2024-03-20T22:20:38Z</time>
      </trkpt>
      <trkpt lat="50.77111" lon="1.75173">
        <ele>57</ele>
        <time>2024-03-20T22:21:04Z</time>
      </trkpt>
      <trkpt lat="50.77013" lon="1.7521">
        <ele>60</ele>
        <time>2024-03-20T22:21:22Z</time>
      </trkpt>
      <trkpt lat="50.76945" lon="1.75235">
        <ele>59</ele>
        <time>2024-03-20T22:21:34Z</time>
      </trkpt>
      <trkpt lat="50.76896" lon="1.75235">
        <ele>57</ele>
        <time>2024-03-20T22:21:43Z</time>
      </trkpt>
      <trkpt lat="50.76831" lon="1.75241">
        <ele>55</ele>
        <time>2024-03-20T22:21:55Z</time>
      </trkpt>
      <trkpt lat="50.76783" lon="1.75274">
        <ele>54</ele>
        <time>2024-03-20T22:22:04Z</time>
      </trkpt>
      <trkpt lat="50.76694" lon="1.75328">
        <ele>53</ele>
        <time>2024-03-20T22:22:21Z</time>
      </trkpt>
      <trkpt lat="50.76652" lon="1.75325">
        <ele>52</ele>
        <time>2024-03-20T22:22:28Z</time>
      </trkpt>
      <trkpt lat="50.76544" lon="1.75254">
        <ele>51</ele>
        <time>2024-03-20T22:22:49Z</time>
      </trkpt>
      <trkpt lat="50.76473" lon="1.75211">
        <ele>56</ele>
        <time>2024-03-20T22:23:03Z</time>
      </trkpt>
      <trkpt lat="50.76432" lon="1.75183">
        <ele>58</ele>
        <time>2024-03-20T22:23:11Z</time>
      </trkpt>
      <trkpt lat="50.76418" lon="1.75169">
        <ele>58</ele>
        <time>2024-03-20T22:23:14Z</time>
      </trkpt>
      <trkpt lat="50.76404" lon="1.75138">
        <ele>58</ele>
        <time>2024-03-20T22:23:18Z</time>
      </trkpt>
      <trkpt lat="50.76382" lon="1.7502">
        <ele>60</ele>
        <time>2024-03-20T22:23:32Z</time>
      </trkpt>
      <trkpt lat="50.76377" lon="1.7498">
        <ele>61</ele>
        <time>2024-03-20T22:23:36Z</time>
      </trkpt>
      <trkpt lat="50.76291" lon="1.74753">
        <ele>65</ele>
        <time>2024-03-20T22:24:06Z</time>
      </trkpt>
      <trkpt lat="50.76285" lon="1.74745">
        <ele>65</ele>
        <time>2024-03-20T22:24:08Z</time>
      </trkpt>
      <trkpt lat="50.76275" lon="1.74737">
        <ele>66</ele>
        <time>2024-03-20T22:24:10Z</time>
      </trkpt>
      <trkpt lat="50.76266" lon="1.74738">
        <ele>66</ele>
        <time>2024-03-20T22:24:11Z</time>
      </trkpt>
      <trkpt lat="50.76227" lon="1.74755">
        <ele>68</ele>
        <time>2024-03-20T22:24:18Z</time>
      </trkpt>
      <trkpt lat="50.76117" lon="1.74805">
        <ele>76</ele>
        <time>2024-03-20T22:24:39Z</time>
      </trkpt>
      <trkpt lat="50.76023" lon="1.7486">
        <ele>80</ele>
        <time>2024-03-20T22:24:57Z</time>
      </trkpt>
      <trkpt lat="50.75899" lon="1.74919">
        <ele>81</ele>
        <time>2024-03-20T22:25:20Z</time>
      </trkpt>
      <trkpt lat="50.75862" lon="1.74933">
        <ele>79</ele>
        <time>2024-03-20T22:25:26Z</time>
      </trkpt>
      <trkpt lat="50.75854" lon="1.74933">
        <ele>79</ele>
        <time>2024-03-20T22:25:28Z</time>
      </trkpt>
      <trkpt lat="50.75802" lon="1.74872">
        <ele>76</ele>
        <time>2024-03-20T22:25:39Z</time>
      </trkpt>
      <trkpt lat="50.7577" lon="1.74831">
        <ele>73</ele>
        <time>2024-03-20T22:25:47Z</time>
      </trkpt>
      <trkpt lat="50.75752" lon="1.74801">
        <ele>72</ele>
        <time>2024-03-20T22:25:51Z</time>
      </trkpt>
      <trkpt lat="50.75733" lon="1.74756">
        <ele>70</ele>
        <time>2024-03-20T22:25:57Z</time>
      </trkpt>
      <trkpt lat="50.75721" lon="1.74751">
        <ele>68</ele>
        <time>2024-03-20T22:26:00Z</time>
      </trkpt>
      <trkpt lat="50.75707" lon="1.74757">
        <ele>66</ele>
        <time>2024-03-20T22:26:02Z</time>
      </trkpt>
      <trkpt lat="50.75701" lon="1.74768">
        <ele>64</ele>
        <time>2024-03-20T22:26:04Z</time>
      </trkpt>
      <trkpt lat="50.75698" lon="1.74799">
        <ele>63</ele>
        <time>2024-03-20T22:26:07Z</time>
      </trkpt>
      <trkpt lat="50.75702" lon="1.74825">
        <ele>63</ele>
        <time>2024-03-20T22:26:10Z</time>
      </trkpt>
      <trkpt lat="50.75716" lon="1.74883">
        <ele>63</ele>
        <time>2024-03-20T22:26:17Z</time>
      </trkpt>
      <trkpt lat="50.75719" lon="1.74915">
        <ele>62</ele>
        <time>2024-03-20T22:26:21Z</time>
      </trkpt>
      <trkpt lat="50.75716" lon="1.75005">
        <ele>59</ele>
        <time>2024-03-20T22:26:31Z</time>
      </trkpt>
      <trkpt lat="50.75711" lon="1.75068">
        <ele>57</ele>
        <time>2024-03-20T22:26:38Z</time>
      </trkpt>
      <trkpt lat="50.75708" lon="1.75086">
        <ele>56</ele>
        <time>2024-03-20T22:26:40Z</time>
      </trkpt>
      <trkpt lat="50.75706" lon="1.75095">
        <ele>55</ele>
        <time>2024-03-20T22:26:41Z</time>
      </trkpt>
      <trkpt lat="50.75692" lon="1.75116">
        <ele>52</ele>
        <time>2024-03-20T22:26:45Z</time>
      </trkpt>
      <trkpt lat="50.75676" lon="1.7512">
        <ele>49</ele>
        <time>2024-03-20T22:26:48Z</time>
      </trkpt>
      <trkpt lat="50.75658" lon="1.75116">
        <ele>47</ele>
        <time>2024-03-20T22:26:51Z</time>
      </trkpt>
      <trkpt lat="50.75645" lon="1.751">
        <ele>45</ele>
        <time>2024-03-20T22:26:54Z</time>
      </trkpt>
      <trkpt lat="50.75627" lon="1.75069">
        <ele>43</ele>
        <time>2024-03-20T22:26:59Z</time>
      </trkpt>
      <trkpt lat="50.75599" lon="1.75056">
        <ele>40</ele>
        <time>2024-03-20T22:27:04Z</time>
      </trkpt>
      <trkpt lat="50.75547" lon="1.7504">
        <ele>36</ele>
        <time>2024-03-20T22:27:13Z</time>
      </trkpt>
      <trkpt lat="50.75494" lon="1.75044">
        <ele>32</ele>
        <time>2024-03-20T22:27:23Z</time>
      </trkpt>
      <trkpt lat="50.75443" lon="1.75056">
        <ele>30</ele>
        <time>2024-03-20T22:27:32Z</time>
      </trkpt>
      <trkpt lat="50.75372" lon="1.75068">
        <ele>28</ele>
        <time>2024-03-20T22:27:45Z</time>
      </trkpt>
      <trkpt lat="50.75359" lon="1.75076">
        <ele>28</ele>
        <time>2024-03-20T22:27:47Z</time>
      </trkpt>
      <trkpt lat="50.7529" lon="1.75131">
        <ele>28</ele>
        <time>2024-03-20T22:28:01Z</time>
      </trkpt>
      <trkpt lat="50.75244" lon="1.75165">
        <ele>29</ele>
        <time>2024-03-20T22:28:10Z</time>
      </trkpt>
      <trkpt lat="50.74977" lon="1.75462">
        <ele>40</ele>
        <time>2024-03-20T22:29:08Z</time>
      </trkpt>
      <trkpt lat="50.74918" lon="1.75551">
        <ele>39</ele>
        <time>2024-03-20T22:29:23Z</time>
      </trkpt>
      <trkpt lat="50.74888" lon="1.75591">
        <ele>37</ele>
        <time>2024-03-20T22:29:30Z</time>
      </trkpt>
      <trkpt lat="50.74845" lon="1.75658">
        <ele>36</ele>
        <time>2024-03-20T22:29:40Z</time>
      </trkpt>
      <trkpt lat="50.74831" lon="1.75696">
        <ele>36</ele>
        <time>2024-03-20T22:29:45Z</time>
      </trkpt>
      <trkpt lat="50.74806" lon="1.75798">
        <ele>35</ele>
        <time>2024-03-20T22:29:58Z</time>
      </trkpt>
      <trkpt lat="50.74796" lon="1.75826">
        <ele>35</ele>
        <time>2024-03-20T22:30:01Z</time>
      </trkpt>
      <trkpt lat="50.7478" lon="1.75838">
        <ele>36</ele>
        <time>2024-03-20T22:30:04Z</time>
      </trkpt>
      <trkpt lat="50.74773" lon="1.75841">
        <ele>36</ele>
        <time>2024-03-20T22:30:06Z</time>
      </trkpt>
      <trkpt lat="50.74762" lon="1.75844">
        <ele>37</ele>
        <time>2024-03-20T22:30:08Z</time>
      </trkpt>
      <trkpt lat="50.74665" lon="1.75862">
        <ele>36</ele>
        <time>2024-03-20T22:30:25Z</time>
      </trkpt>
      <trkpt lat="50.74625" lon="1.75876">
        <ele>35</ele>
        <time>2024-03-20T22:30:32Z</time>
      </trkpt>
      <trkpt lat="50.74575" lon="1.75896">
        <ele>36</ele>
        <time>2024-03-20T22:30:41Z</time>
      </trkpt>
      <trkpt lat="50.74511" lon="1.75898">
        <ele>36</ele>
        <time>2024-03-20T22:30:53Z</time>
      </trkpt>
      <trkpt lat="50.74378" lon="1.75883">
        <ele>37</ele>
        <time>2024-03-20T22:31:17Z</time>
      </trkpt>
      <trkpt lat="50.7437" lon="1.75889">
        <ele>37</ele>
        <time>2024-03-20T22:31:18Z</time>
      </trkpt>
      <trkpt lat="50.74335" lon="1.7596">
        <ele>38</ele>
        <time>2024-03-20T22:31:28Z</time>
      </trkpt>
      <trkpt lat="50.743" lon="1.76001">
        <ele>39</ele>
        <time>2024-03-20T22:31:36Z</time>
      </trkpt>
      <trkpt lat="50.74285" lon="1.76032">
        <ele>39</ele>
        <time>2024-03-20T22:31:40Z</time>
      </trkpt>
      <trkpt lat="50.74269" lon="1.76054">
        <ele>40</ele>
        <time>2024-03-20T22:31:44Z</time>
      </trkpt>
      <trkpt lat="50.74245" lon="1.7608">
        <ele>40</ele>
        <time>2024-03-20T22:31:49Z</time>
      </trkpt>
      <trkpt lat="50.74096" lon="1.76192">
        <ele>40</ele>
        <time>2024-03-20T22:32:19Z</time>
      </trkpt>
      <trkpt lat="50.74036" lon="1.76229">
        <ele>40</ele>
        <time>2024-03-20T22:32:30Z</time>
      </trkpt>
      <trkpt lat="50.74022" lon="1.76243">
        <ele>41</ele>
        <time>2024-03-20T22:32:33Z</time>
      </trkpt>
      <trkpt lat="50.73943" lon="1.76345">
        <ele>44</ele>
        <time>2024-03-20T22:32:51Z</time>
      </trkpt>
      <trkpt lat="50.7392" lon="1.76383">
        <ele>45</ele>
        <time>2024-03-20T22:32:57Z</time>
      </trkpt>
      <trkpt lat="50.7388" lon="1.76472">
        <ele>46</ele>
        <time>2024-03-20T22:33:09Z</time>
      </trkpt>
      <trkpt lat="50.73855" lon="1.76519">
        <ele>46</ele>
        <time>2024-03-20T22:33:16Z</time>
      </trkpt>
      <trkpt lat="50.7382" lon="1.76574">
        <ele>47</ele>
        <time>2024-03-20T22:33:25Z</time>
      </trkpt>
      <trkpt lat="50.7379" lon="1.76611">
        <ele>48</ele>
        <time>2024-03-20T22:33:32Z</time>
      </trkpt>
      <trkpt lat="50.73759" lon="1.76635">
        <ele>49</ele>
        <time>2024-03-20T22:33:38Z</time>
      </trkpt>
      <trkpt lat="50.73721" lon="1.76652">
        <ele>49</ele>
        <time>2024-03-20T22:33:45Z</time>
      </trkpt>
      <trkpt lat="50.737" lon="1.76656">
        <ele>49</ele>
        <time>2024-03-20T22:33:49Z</time>
      </trkpt>
      <trkpt lat="50.73646" lon="1.76671">
        <ele>49</ele>
        <time>2024-03-20T22:33:59Z</time>
      </trkpt>
      <trkpt lat="50.73629" lon="1.76675">
        <ele>49</ele>
        <time>2024-03-20T22:34:02Z</time>
      </trkpt>
      <trkpt lat="50.73611" lon="1.76685">
        <ele>49</ele>
        <time>2024-03-20T22:34:05Z</time>
      </trkpt>
      <trkpt lat="50.73588" lon="1.76704">
        <ele>49</ele>
        <time>2024-03-20T22:34:10Z</time>
      </trkpt>
      <trkpt lat="50.73509" lon="1.76797">
        <ele>55</ele>
        <time>2024-03-20T22:34:27Z</time>
      </trkpt>
      <trkpt lat="50.73425" lon="1.76874">
        <ele>61</ele>
        <time>2024-03-20T22:34:44Z</time>
      </trkpt>
      <trkpt lat="50.73264" lon="1.77037">
        <ele>69</ele>
        <time>2024-03-20T22:35:19Z</time>
      </trkpt>
      <trkpt lat="50.73216" lon="1.77071">
        <ele>71</ele>
        <time>2024-03-20T22:35:28Z</time>
      </trkpt>
      <trkpt lat="50.73202" lon="1.77086">
        <ele>72</ele>
        <time>2024-03-20T22:35:31Z</time>
      </trkpt>
      <trkpt lat="50.73176" lon="1.77113">
        <ele>73</ele>
        <time>2024-03-20T22:35:36Z</time>
      </trkpt>
      <trkpt lat="50.73054" lon="1.773">
        <ele>80</ele>
        <time>2024-03-20T22:36:07Z</time>
      </trkpt>
      <trkpt lat="50.72907" lon="1.77425">
        <ele>83</ele>
        <time>2024-03-20T22:36:36Z</time>
      </trkpt>
      <trkpt lat="50.72834" lon="1.77482">
        <ele>84</ele>
        <time>2024-03-20T22:36:51Z</time>
      </trkpt>
      <trkpt lat="50.72811" lon="1.77497">
        <ele>85</ele>
        <time>2024-03-20T22:36:55Z</time>
      </trkpt>
      <trkpt lat="50.72774" lon="1.77504">
        <ele>86</ele>
        <time>2024-03-20T22:37:02Z</time>
      </trkpt>
      <trkpt lat="50.72764" lon="1.77519">
        <ele>87</ele>
        <time>2024-03-20T22:37:04Z</time>
      </trkpt>
      <trkpt lat="50.72718" lon="1.77597">
        <ele>90</ele>
        <time>2024-03-20T22:37:16Z</time>
      </trkpt>
      <trkpt lat="50.72691" lon="1.77637">
        <ele>92</ele>
        <time>2024-03-20T22:37:23Z</time>
      </trkpt>
      <trkpt lat="50.72661" lon="1.77679">
        <ele>94</ele>
        <time>2024-03-20T22:37:30Z</time>
      </trkpt>
      <trkpt lat="50.72612" lon="1.7774">
        <ele>96</ele>
        <time>2024-03-20T22:37:41Z</time>
      </trkpt>
      <trkpt lat="50.72588" lon="1.77759">
        <ele>97</ele>
        <time>2024-03-20T22:37:46Z</time>
      </trkpt>
      <trkpt lat="50.72515" lon="1.77804">
        <ele>100</ele>
        <time>2024-03-20T22:38:00Z</time>
      </trkpt>
      <trkpt lat="50.72498" lon="1.77812">
        <ele>101</ele>
        <time>2024-03-20T22:38:03Z</time>
      </trkpt>
      <trkpt lat="50.72478" lon="1.77817">
        <ele>101</ele>
        <time>2024-03-20T22:38:07Z</time>
      </trkpt>
      <trkpt lat="50.72415" lon="1.77794">
        <ele>101</ele>
        <time>2024-03-20T22:38:18Z</time>
      </trkpt>
      <trkpt lat="50.72359" lon="1.77784">
        <ele>101</ele>
        <time>2024-03-20T22:38:28Z</time>
      </trkpt>
      <trkpt lat="50.7234" lon="1.77784">
        <ele>101</ele>
        <time>2024-03-20T22:38:32Z</time>
      </trkpt>
      <trkpt lat="50.72317" lon="1.77784">
        <ele>100</ele>
        <time>2024-03-20T22:38:36Z</time>
      </trkpt>
      <trkpt lat="50.72264" lon="1.77789">
        <ele>98</ele>
        <time>2024-03-20T22:38:45Z</time>
      </trkpt>
      <trkpt lat="50.72199" lon="1.77798">
        <ele>97</ele>
        <time>2024-03-20T22:38:57Z</time>
      </trkpt>
      <trkpt lat="50.72144" lon="1.7781">
        <ele>96</ele>
        <time>2024-03-20T22:39:07Z</time>
      </trkpt>
      <trkpt lat="50.72047" lon="1.7786">
        <ele>94</ele>
        <time>2024-03-20T22:39:25Z</time>
      </trkpt>
      <trkpt lat="50.718" lon="1.77967">
        <ele>93</ele>
        <time>2024-03-20T22:40:10Z</time>
      </trkpt>
      <trkpt lat="50.71703" lon="1.78018">
        <ele>92</ele>
        <time>2024-03-20T22:40:29Z</time>
      </trkpt>
      <trkpt lat="50.71533" lon="1.7815">
        <ele>92</ele>
        <time>2024-03-20T22:41:02Z</time>
      </trkpt>
      <trkpt lat="50.71388" lon="1.78262">
        <ele>93</ele>
        <time>2024-03-20T22:41:31Z</time>
      </trkpt>
      <trkpt lat="50.70957" lon="1.78316">
        <ele>84</ele>
        <time>2024-03-20T22:42:48Z</time>
      </trkpt>
      <trkpt lat="50.70839" lon="1.78319">
        <ele>80</ele>
        <time>2024-03-20T22:43:09Z</time>
      </trkpt>
      <trkpt lat="50.70601" lon="1.78302">
        <ele>71</ele>
        <time>2024-03-20T22:43:51Z</time>
      </trkpt>
      <trkpt lat="50.70419" lon="1.78272">
        <ele>65</ele>
        <time>2024-03-20T22:44:24Z</time>
      </trkpt>
      <trkpt lat="50.70351" lon="1.78275">
        <ele>62</ele>
        <time>2024-03-20T22:44:36Z</time>
      </trkpt>
      <trkpt lat="50.7033" lon="1.78278">
        <ele>61</ele>
        <time>2024-03-20T22:44:40Z</time>
      </trkpt>
      <trkpt lat="50.70276" lon="1.78307">
        <ele>57</ele>
        <time>2024-03-20T22:44:50Z</time>
      </trkpt>
      <trkpt lat="50.70239" lon="1.78313">
        <ele>55</ele>
        <time>2024-03-20T22:44:56Z</time>
      </trkpt>
      <trkpt lat="50.7019" lon="1.78312">
        <ele>51</ele>
        <time>2024-03-20T22:45:05Z</time>
      </trkpt>
      <trkpt lat="50.70172" lon="1.78321">
        <ele>49</ele>
        <time>2024-03-20T22:45:09Z</time>
      </trkpt>
      <trkpt lat="50.70129" lon="1.7835">
        <ele>44</ele>
        <time>2024-03-20T22:45:17Z</time>
      </trkpt>
      <trkpt lat="50.70068" lon="1.78393">
        <ele>38</ele>
        <time>2024-03-20T22:45:29Z</time>
      </trkpt>
      <trkpt lat="50.70055" lon="1.78404">
        <ele>37</ele>
        <time>2024-03-20T22:45:31Z</time>
      </trkpt>
      <trkpt lat="50.70044" lon="1.78421">
        <ele>37</ele>
        <time>2024-03-20T22:45:34Z</time>
      </trkpt>
      <trkpt lat="50.70025" lon="1.78467">
        <ele>35</ele>
        <time>2024-03-20T22:45:40Z</time>
      </trkpt>
      <trkpt lat="50.70013" lon="1.78486">
        <ele>35</ele>
        <time>2024-03-20T22:45:43Z</time>
      </trkpt>
      <trkpt lat="50.69921" lon="1.78543">
        <ele>34</ele>
        <time>2024-03-20T22:46:01Z</time>
      </trkpt>
      <trkpt lat="50.69904" lon="1.78551">
        <ele>35</ele>
        <time>2024-03-20T22:46:04Z</time>
      </trkpt>
      <trkpt lat="50.69908" lon="1.78566">
        <ele>34</ele>
        <time>2024-03-20T22:46:06Z</time>
      </trkpt>
      <trkpt lat="50.69909" lon="1.7858">
        <ele>34</ele>
        <time>2024-03-20T22:46:07Z</time>
      </trkpt>
      <trkpt lat="50.69906" lon="1.78595">
        <ele>34</ele>
        <time>2024-03-20T22:46:09Z</time>
      </trkpt>
      <trkpt lat="50.69897" lon="1.78619">
        <ele>34</ele>
        <time>2024-03-20T22:46:12Z</time>
      </trkpt>
      <trkpt lat="50.69884" lon="1.78639">
        <ele>34</ele>
        <time>2024-03-20T22:46:16Z</time>
      </trkpt>
      <trkpt lat="50.69804" lon="1.78742">
        <ele>31</ele>
        <time>2024-03-20T22:46:34Z</time>
      </trkpt>
      <trkpt lat="50.69767" lon="1.78769">
        <ele>30</ele>
        <time>2024-03-20T22:46:41Z</time>
      </trkpt>
      <trkpt lat="50.69696" lon="1.78811">
        <ele>31</ele>
        <time>2024-03-20T22:46:55Z</time>
      </trkpt>
      <trkpt lat="50.69679" lon="1.78823">
        <ele>32</ele>
        <time>2024-03-20T22:46:58Z</time>
      </trkpt>
      <trkpt lat="50.69632" lon="1.7885">
        <ele>32</ele>
        <time>2024-03-20T22:47:07Z</time>
      </trkpt>
      <trkpt lat="50.69609" lon="1.78847">
        <ele>32</ele>
        <time>2024-03-20T22:47:11Z</time>
      </trkpt>
      <trkpt lat="50.69499" lon="1.78791">
        <ele>34</ele>
        <time>2024-03-20T22:47:32Z</time>
      </trkpt>
      <trkpt lat="50.69407" lon="1.78756">
        <ele>36</ele>
        <time>2024-03-20T22:47:48Z</time>
      </trkpt>
      <trkpt lat="50.69361" lon="1.78737">
        <ele>36</ele>
        <time>2024-03-20T22:47:57Z</time>
      </trkpt>
      <trkpt lat="50.69269" lon="1.78671">
        <ele>34</ele>
        <time>2024-03-20T22:48:15Z</time>
      </trkpt>
      <trkpt lat="50.69224" lon="1.78647">
        <ele>34</ele>
        <time>2024-03-20T22:48:23Z</time>
      </trkpt>
      <trkpt lat="50.69205" lon="1.7864">
        <ele>34</ele>
        <time>2024-03-20T22:48:27Z</time>
      </trkpt>
      <trkpt lat="50.69193" lon="1.78625">
        <ele>33</ele>
        <time>2024-03-20T22:48:30Z</time>
      </trkpt>
      <trkpt lat="50.69171" lon="1.78577">
        <ele>33</ele>
        <time>2024-03-20T22:48:36Z</time>
      </trkpt>
      <trkpt lat="50.69148" lon="1.78546">
        <ele>32</ele>
        <time>2024-03-20T22:48:42Z</time>
      </trkpt>
      <trkpt lat="50.69045" lon="1.78445">
        <ele>30</ele>
        <time>2024-03-20T22:49:03Z</time>
      </trkpt>
      <trkpt lat="50.69037" lon="1.78438">
        <ele>30</ele>
        <time>2024-03-20T22:49:05Z</time>
      </trkpt>
      <trkpt lat="50.68985" lon="1.78385">
        <ele>30</ele>
        <time>2024-03-20T22:49:16Z</time>
      </trkpt>
      <trkpt lat="50.68957" lon="1.78373">
        <ele>31</ele>
        <time>2024-03-20T22:49:21Z</time>
      </trkpt>
      <trkpt lat="50.68863" lon="1.7837">
        <ele>33</ele>
        <time>2024-03-20T22:49:38Z</time>
      </trkpt>
      <trkpt lat="50.68851" lon="1.78372">
        <ele>33</ele>
        <time>2024-03-20T22:49:40Z</time>
      </trkpt>
      <trkpt lat="50.68816" lon="1.78371">
        <ele>35</ele>
        <time>2024-03-20T22:49:46Z</time>
      </trkpt>
      <trkpt lat="50.68792" lon="1.78364">
        <ele>35</ele>
        <time>2024-03-20T22:49:50Z</time>
      </trkpt>
      <trkpt lat="50.68767" lon="1.78353">
        <ele>36</ele>
        <time>2024-03-20T22:49:55Z</time>
      </trkpt>
      <trkpt lat="50.68752" lon="1.78364">
        <ele>36</ele>
        <time>2024-03-20T22:49:58Z</time>
      </trkpt>
      <trkpt lat="50.68735" lon="1.78389">
        <ele>37</ele>
        <time>2024-03-20T22:50:02Z</time>
      </trkpt>
      <trkpt lat="50.68698" lon="1.7846">
        <ele>39</ele>
        <time>2024-03-20T22:50:12Z</time>
      </trkpt>
      <trkpt lat="50.68688" lon="1.78489">
        <ele>39</ele>
        <time>2024-03-20T22:50:16Z</time>
      </trkpt>
      <trkpt lat="50.68685" lon="1.78508">
        <ele>39</ele>
        <time>2024-03-20T22:50:18Z</time>
      </trkpt>
      <trkpt lat="50.68694" lon="1.78558">
        <ele>38</ele>
        <time>2024-03-20T22:50:24Z</time>
      </trkpt>
      <trkpt lat="50.68693" lon="1.78598">
        <ele>38</ele>
        <time>2024-03-20T22:50:29Z</time>
      </trkpt>
      <trkpt lat="50.68669" lon="1.78824">
        <ele>37</ele>
        <time>2024-03-20T22:50:55Z</time>
      </trkpt>
      <trkpt lat="50.68654" lon="1.78932">
        <ele>38</ele>
        <time>2024-03-20T22:51:07Z</time>
      </trkpt>
      <trkpt lat="50.6863" lon="1.79046">
        <ele>37</ele>
        <time>2024-03-20T22:51:21Z</time>
      </trkpt>
      <trkpt lat="50.68621" lon="1.79069">
        <ele>37</ele>
        <time>2024-03-20T22:51:24Z</time>
      </trkpt>
      <trkpt lat="50.68609" lon="1.79084">
        <ele>38</ele>
        <time>2024-03-20T22:51:26Z</time>
      </trkpt>
      <trkpt lat="50.6859" lon="1.79087">
        <ele>39</ele>
        <time>2024-03-20T22:51:30Z</time>
      </trkpt>
      <trkpt lat="50.68492" lon="1.79068">
        <ele>43</ele>
        <time>2024-03-20T22:51:47Z</time>
      </trkpt>
      <trkpt lat="50.68475" lon="1.79079">
        <ele>44</ele>
        <time>2024-03-20T22:51:51Z</time>
      </trkpt>
      <trkpt lat="50.68441" lon="1.79176">
        <ele>45</ele>
        <time>2024-03-20T22:52:03Z</time>
      </trkpt>
      <trkpt lat="50.68439" lon="1.79212">
        <ele>45</ele>
        <time>2024-03-20T22:52:07Z</time>
      </trkpt>
      <trkpt lat="50.68445" lon="1.79283">
        <ele>45</ele>
        <time>2024-03-20T22:52:15Z</time>
      </trkpt>
      <trkpt lat="50.68442" lon="1.79327">
        <ele>46</ele>
        <time>2024-03-20T22:52:20Z</time>
      </trkpt>
      <trkpt lat="50.68427" lon="1.79377">
        <ele>47</ele>
        <time>2024-03-20T22:52:27Z</time>
      </trkpt>
      <trkpt lat="50.68411" lon="1.79451">
        <ele>46</ele>
        <time>2024-03-20T22:52:35Z</time>
      </trkpt>
      <trkpt lat="50.68404" lon="1.79517">
        <ele>45</ele>
        <time>2024-03-20T22:52:43Z</time>
      </trkpt>
      <trkpt lat="50.68403" lon="1.79611">
        <ele>44</ele>
        <time>2024-03-20T22:52:53Z</time>
      </trkpt>
      <trkpt lat="50.68414" lon="1.79708">
        <ele>45</ele>
        <time>2024-03-20T22:53:05Z</time>
      </trkpt>
      <trkpt lat="50.6841" lon="1.79802">
        <ele>47</ele>
        <time>2024-03-20T22:53:15Z</time>
      </trkpt>
      <trkpt lat="50.68397" lon="1.79917">
        <ele>47</ele>
        <time>2024-03-20T22:53:28Z</time>
      </trkpt>
      <trkpt lat="50.68353" lon="1.80073">
        <ele>47</ele>
        <time>2024-03-20T22:53:48Z</time>
      </trkpt>
      <trkpt lat="50.68288" lon="1.80278">
        <ele>53</ele>
        <time>2024-03-20T22:54:13Z</time>
      </trkpt>
      <trkpt lat="50.68242" lon="1.80331">
        <ele>55</ele>
        <time>2024-03-20T22:54:24Z</time>
      </trkpt>
      <trkpt lat="50.68211" lon="1.8036">
        <ele>55</ele>
        <time>2024-03-20T22:54:30Z</time>
      </trkpt>
      <trkpt lat="50.682" lon="1.80391">
        <ele>54</ele>
        <time>2024-03-20T22:54:34Z</time>
      </trkpt>
      <trkpt lat="50.68126" lon="1.80519">
        <ele>52</ele>
        <time>2024-03-20T22:54:54Z</time>
      </trkpt>
      <trkpt lat="50.68071" lon="1.80638">
        <ele>50</ele>
        <time>2024-03-20T22:55:10Z</time>
      </trkpt>
      <trkpt lat="50.68017" lon="1.80738">
        <ele>49</ele>
        <time>2024-03-20T22:55:25Z</time>
      </trkpt>
      <trkpt lat="50.67959" lon="1.81006">
        <ele>52</ele>
        <time>2024-03-20T22:55:57Z</time>
      </trkpt>
      <trkpt lat="50.67934" lon="1.81131">
        <ele>53</ele>
        <time>2024-03-20T22:56:12Z</time>
      </trkpt>
      <trkpt lat="50.67914" lon="1.81202">
        <ele>53</ele>
        <time>2024-03-20T22:56:20Z</time>
      </trkpt>
      <trkpt lat="50.6782" lon="1.81497">
        <ele>64</ele>
        <time>2024-03-20T22:56:58Z</time>
      </trkpt>
      <trkpt lat="50.67674" lon="1.81742">
        <ele>68</ele>
        <time>2024-03-20T22:57:36Z</time>
      </trkpt>
      <trkpt lat="50.67424" lon="1.82079">
        <ele>81</ele>
        <time>2024-03-20T22:58:34Z</time>
      </trkpt>
      <trkpt lat="50.67414" lon="1.82094">
        <ele>82</ele>
        <time>2024-03-20T22:58:37Z</time>
      </trkpt>
      <trkpt lat="50.674" lon="1.82136">
        <ele>81</ele>
        <time>2024-03-20T22:58:42Z</time>
      </trkpt>
      <trkpt lat="50.67399" lon="1.82158">
        <ele>81</ele>
        <time>2024-03-20T22:58:44Z</time>
      </trkpt>
      <trkpt lat="50.67394" lon="1.82218">
        <ele>79</ele>
        <time>2024-03-20T22:58:51Z</time>
      </trkpt>
      <trkpt lat="50.67383" lon="1.82253">
        <ele>79</ele>
        <time>2024-03-20T22:58:56Z</time>
      </trkpt>
      <trkpt lat="50.67385" lon="1.82268">
        <ele>79</ele>
        <time>2024-03-20T22:58:57Z</time>
      </trkpt>
      <trkpt lat="50.67386" lon="1.82297">
        <ele>78</ele>
        <time>2024-03-20T22:59:01Z</time>
      </trkpt>
      <trkpt lat="50.67381" lon="1.82315">
        <ele>78</ele>
        <time>2024-03-20T22:59:03Z</time>
      </trkpt>
      <trkpt lat="50.67369" lon="1.82347">
        <ele>79</ele>
        <time>2024-03-20T22:59:07Z</time>
      </trkpt>
      <trkpt lat="50.67342" lon="1.82405">
        <ele>80</ele>
        <time>2024-03-20T22:59:15Z</time>
      </trkpt>
      <trkpt lat="50.67319" lon="1.82434">
        <ele>80</ele>
        <time>2024-03-20T22:59:20Z</time>
      </trkpt>
      <trkpt lat="50.67277" lon="1.82479">
        <ele>80</ele>
        <time>2024-03-20T22:59:29Z</time>
      </trkpt>
      <trkpt lat="50.67227" lon="1.82539">
        <ele>80</ele>
        <time>2024-03-20T22:59:41Z</time>
      </trkpt>
      <trkpt lat="50.6714" lon="1.82646">
        <ele>87</ele>
        <time>2024-03-20T23:00:00Z</time>
      </trkpt>
      <trkpt lat="50.67088" lon="1.82714">
        <ele>87</ele>
        <time>2024-03-20T23:00:12Z</time>
      </trkpt>
      <trkpt lat="50.67026" lon="1.82789">
        <ele>88</ele>
        <time>2024-03-20T23:00:26Z</time>
      </trkpt>
      <trkpt lat="50.66942" lon="1.82841">
        <ele>89</ele>
        <time>2024-03-20T23:00:42Z</time>
      </trkpt>
      <trkpt lat="50.66957" lon="1.82903">
        <ele>84</ele>
        <time>2024-03-20T23:00:50Z</time>
      </trkpt>
      <trkpt lat="50.66955" lon="1.82931">
        <ele>82</ele>
        <time>2024-03-20T23:00:53Z</time>
      </trkpt>
      <trkpt lat="50.66941" lon="1.82961">
        <ele>82</ele>
        <time>2024-03-20T23:00:57Z</time>
      </trkpt>
      <trkpt lat="50.66929" lon="1.8298">
        <ele>81</ele>
        <time>2024-03-20T23:01:00Z</time>
      </trkpt>
      <trkpt lat="50.66918" lon="1.83001">
        <ele>81</ele>
        <time>2024-03-20T23:01:03Z</time>
      </trkpt>
      <trkpt lat="50.66914" lon="1.83017">
        <ele>82</ele>
        <time>2024-03-20T23:01:05Z</time>
      </trkpt>
      <trkpt lat="50.66909" lon="1.83079">
        <ele>83</ele>
        <time>2024-03-20T23:01:12Z</time>
      </trkpt>
      <trkpt lat="50.66883" lon="1.83078">
        <ele>84</ele>
        <time>2024-03-20T23:01:17Z</time>
      </trkpt>
      <trkpt lat="50.66847" lon="1.8308">
        <ele>86</ele>
        <time>2024-03-20T23:01:23Z</time>
      </trkpt>
      <trkpt lat="50.66814" lon="1.83088">
        <ele>87</ele>
        <time>2024-03-20T23:01:29Z</time>
      </trkpt>
      <trkpt lat="50.66803" lon="1.83094">
        <ele>87</ele>
        <time>2024-03-20T23:01:31Z</time>
      </trkpt>
      <trkpt lat="50.66797" lon="1.83097">
        <ele>88</ele>
        <time>2024-03-20T23:01:32Z</time>
      </trkpt>
      <trkpt lat="50.66791" lon="1.83104">
        <ele>88</ele>
        <time>2024-03-20T23:01:34Z</time>
      </trkpt>
      <trkpt lat="50.66747" lon="1.83193">
        <ele>90</ele>
        <time>2024-03-20T23:01:46Z</time>
      </trkpt>
      <trkpt lat="50.66705" lon="1.83182">
        <ele>89</ele>
        <time>2024-03-20T23:01:54Z</time>
      </trkpt>
      <trkpt lat="50.66671" lon="1.83184">
        <ele>89</ele>
        <time>2024-03-20T23:02:00Z</time>
      </trkpt>
      <trkpt lat="50.6653" lon="1.83284">
        <ele>97</ele>
        <time>2024-03-20T23:02:27Z</time>
      </trkpt>
      <trkpt lat="50.6653" lon="1.83285">
        <ele>97</ele>
        <time>2024-03-20T23:02:28Z</time>
      </trkpt>
      <trkpt lat="50.66427" lon="1.83133">
        <ele>101</ele>
        <time>2024-03-20T23:02:53Z</time>
      </trkpt>
      <trkpt lat="50.66404" lon="1.83177">
        <ele>101</ele>
        <time>2024-03-20T23:02:59Z</time>
      </trkpt>
      <trkpt lat="50.66324" lon="1.83346">
        <ele>106</ele>
        <time>2024-03-20T23:03:23Z</time>
      </trkpt>
      <trkpt lat="50.66306" lon="1.83381">
        <ele>107</ele>
        <time>2024-03-20T23:03:28Z</time>
      </trkpt>
      <trkpt lat="50.66313" lon="1.83383">
        <ele>107</ele>
        <time>2024-03-20T23:03:29Z</time>
      </trkpt>
      <trkpt lat="50.66315" lon="1.83375">
        <ele>106</ele>
        <time>2024-03-20T23:03:30Z</time>
      </trkpt>
      <trkpt lat="50.66326" lon="1.83369">
        <ele>106</ele>
        <time>2024-03-20T23:03:32Z</time>
      </trkpt>
      <trkpt lat="50.66379" lon="1.83339">
        <ele>104</ele>
        <time>2024-03-20T23:03:42Z</time>
      </trkpt>
      <trkpt lat="50.6646" lon="1.83333">
        <ele>101</ele>
        <time>2024-03-20T23:03:57Z</time>
      </trkpt>
      <trkpt lat="50.6653" lon="1.83284">
        <ele>97</ele>
        <time>2024-03-20T23:04:10Z</time>
      </trkpt>
      <trkpt lat="50.66427" lon="1.83133">
        <ele>101</ele>
        <time>2024-03-20T23:04:35Z</time>
      </trkpt>
      <trkpt lat="50.66404" lon="1.83177">
        <ele>101</ele>
        <time>2024-03-20T23:04:42Z</time>
      </trkpt>
      <trkpt lat="50.66324" lon="1.83346">
        <ele>106</ele>
        <time>2024-03-20T23:05:06Z</time>
      </trkpt>
      <trkpt lat="50.66306" lon="1.83381">
        <ele>107</ele>
        <time>2024-03-20T23:05:11Z</time>
      </trkpt>
      <trkpt lat="50.663" lon="1.83396">
        <ele>107</ele>
        <time>2024-03-20T23:05:13Z</time>
      </trkpt>
      <trkpt lat="50.66298" lon="1.83397">
        <ele>107</ele>
        <time>2024-03-20T23:05:13Z</time>
      </trkpt>
      <trkpt lat="50.66277" lon="1.83406">
        <ele>108</ele>
        <time>2024-03-20T23:05:17Z</time>
      </trkpt>
      <trkpt lat="50.66172" lon="1.83443">
        <ele>111</ele>
        <time>2024-03-20T23:05:36Z</time>
      </trkpt>
      <trkpt lat="50.6609" lon="1.83475">
        <ele>107</ele>
        <time>2024-03-20T23:05:51Z</time>
      </trkpt>
      <trkpt lat="50.66072" lon="1.83485">
        <ele>107</ele>
        <time>2024-03-20T23:05:55Z</time>
      </trkpt>
      <trkpt lat="50.65985" lon="1.83553">
        <ele>108</ele>
        <time>2024-03-20T23:06:12Z</time>
      </trkpt>
      <trkpt lat="50.65949" lon="1.83574">
        <ele>108</ele>
        <time>2024-03-20T23:06:19Z</time>
      </trkpt>
      <trkpt lat="50.65871" lon="1.83606">
        <ele>108</ele>
        <time>2024-03-20T23:06:33Z</time>
      </trkpt>
      <trkpt lat="50.65825" lon="1.83625">
        <ele>108</ele>
        <time>2024-03-20T23:06:41Z</time>
      </trkpt>
      <trkpt lat="50.65805" lon="1.83637">
        <ele>108</ele>
        <time>2024-03-20T23:06:45Z</time>
      </trkpt>
      <trkpt lat="50.65788" lon="1.83655">
        <ele>109</ele>
        <time>2024-03-20T23:06:49Z</time>
      </trkpt>
      <trkpt lat="50.65775" lon="1.83675">
        <ele>110</ele>
        <time>2024-03-20T23:06:52Z</time>
      </trkpt>
      <trkpt lat="50.65727" lon="1.83779">
        <ele>116</ele>
        <time>2024-03-20T23:07:07Z</time>
      </trkpt>
      <trkpt lat="50.65711" lon="1.83825">
        <ele>119</ele>
        <time>2024-03-20T23:07:13Z</time>
      </trkpt>
      <trkpt lat="50.65704" lon="1.83851">
        <ele>119</ele>
        <time>2024-03-20T23:07:16Z</time>
      </trkpt>
      <trkpt lat="50.65696" lon="1.83896">
        <ele>120</ele>
        <time>2024-03-20T23:07:21Z</time>
      </trkpt>
      <trkpt lat="50.65666" lon="1.84163">
        <ele>134</ele>
        <time>2024-03-20T23:07:52Z</time>
      </trkpt>
      <trkpt lat="50.65634" lon="1.84153">
        <ele>138</ele>
        <time>2024-03-20T23:07:57Z</time>
      </trkpt>
      <trkpt lat="50.65616" lon="1.84145">
        <ele>139</ele>
        <time>2024-03-20T23:08:01Z</time>
      </trkpt>
      <trkpt lat="50.65554" lon="1.84108">
        <ele>148</ele>
        <time>2024-03-20T23:08:13Z</time>
      </trkpt>
      <trkpt lat="50.6554" lon="1.84097">
        <ele>151</ele>
        <time>2024-03-20T23:08:15Z</time>
      </trkpt>
      <trkpt lat="50.65527" lon="1.8408">
        <ele>153</ele>
        <time>2024-03-20T23:08:18Z</time>
      </trkpt>
      <trkpt lat="50.65514" lon="1.84059">
        <ele>154</ele>
        <time>2024-03-20T23:08:22Z</time>
      </trkpt>
      <trkpt lat="50.65371" lon="1.83767">
        <ele>166</ele>
        <time>2024-03-20T23:09:03Z</time>
      </trkpt>
      <trkpt lat="50.65361" lon="1.8375">
        <ele>167</ele>
        <time>2024-03-20T23:09:06Z</time>
      </trkpt>
      <trkpt lat="50.65352" lon="1.8374">
        <ele>169</ele>
        <time>2024-03-20T23:09:08Z</time>
      </trkpt>
      <trkpt lat="50.65326" lon="1.83721">
        <ele>174</ele>
        <time>2024-03-20T23:09:13Z</time>
      </trkpt>
      <trkpt lat="50.65306" lon="1.83714">
        <ele>175</ele>
        <time>2024-03-20T23:09:17Z</time>
      </trkpt>
      <trkpt lat="50.65201" lon="1.83693">
        <ele>179</ele>
        <time>2024-03-20T23:09:35Z</time>
      </trkpt>
      <trkpt lat="50.65179" lon="1.83692">
        <ele>179</ele>
        <time>2024-03-20T23:09:39Z</time>
      </trkpt>
      <trkpt lat="50.65143" lon="1.83695">
        <ele>178</ele>
        <time>2024-03-20T23:09:46Z</time>
      </trkpt>
      <trkpt lat="50.65101" lon="1.83704">
        <ele>178</ele>
        <time>2024-03-20T23:09:53Z</time>
      </trkpt>
      <trkpt lat="50.65059" lon="1.83719">
        <ele>177</ele>
        <time>2024-03-20T23:10:01Z</time>
      </trkpt>
      <trkpt lat="50.65012" lon="1.83738">
        <ele>177</ele>
        <time>2024-03-20T23:10:10Z</time>
      </trkpt>
      <trkpt lat="50.64893" lon="1.83813">
        <ele>174</ele>
        <time>2024-03-20T23:10:32Z</time>
      </trkpt>
      <trkpt lat="50.64813" lon="1.83837">
        <ele>168</ele>
        <time>2024-03-20T23:10:47Z</time>
      </trkpt>
      <trkpt lat="50.64774" lon="1.83856">
        <ele>163</ele>
        <time>2024-03-20T23:10:54Z</time>
      </trkpt>
      <trkpt lat="50.64727" lon="1.8389">
        <ele>160</ele>
        <time>2024-03-20T23:11:03Z</time>
      </trkpt>
      <trkpt lat="50.64707" lon="1.8391">
        <ele>159</ele>
        <time>2024-03-20T23:11:08Z</time>
      </trkpt>
      <trkpt lat="50.64693" lon="1.83931">
        <ele>158</ele>
        <time>2024-03-20T23:11:11Z</time>
      </trkpt>
      <trkpt lat="50.64667" lon="1.83973">
        <ele>156</ele>
        <time>2024-03-20T23:11:18Z</time>
      </trkpt>
      <trkpt lat="50.64649" lon="1.83997">
        <ele>156</ele>
        <time>2024-03-20T23:11:22Z</time>
      </trkpt>
      <trkpt lat="50.64608" lon="1.84034">
        <ele>155</ele>
        <time>2024-03-20T23:11:30Z</time>
      </trkpt>
      <trkpt lat="50.64567" lon="1.84065">
        <ele>153</ele>
        <time>2024-03-20T23:11:38Z</time>
      </trkpt>
      <trkpt lat="50.64547" lon="1.84074">
        <ele>152</ele>
        <time>2024-03-20T23:11:42Z</time>
      </trkpt>
      <trkpt lat="50.6447" lon="1.84078">
        <ele>151</ele>
        <time>2024-03-20T23:11:56Z</time>
      </trkpt>
      <trkpt lat="50.64348" lon="1.84114">
        <ele>147</ele>
        <time>2024-03-20T23:12:18Z</time>
      </trkpt>
      <trkpt lat="50.64218" lon="1.84153">
        <ele>140</ele>
        <time>2024-03-20T23:12:41Z</time>
      </trkpt>
      <trkpt lat="50.6419" lon="1.84168">
        <ele>139</ele>
        <time>2024-03-20T23:12:47Z</time>
      </trkpt>
      <trkpt lat="50.64109" lon="1.84224">
        <ele>135</ele>
        <time>2024-03-20T23:13:02Z</time>
      </trkpt>
      <trkpt lat="50.64071" lon="1.84238">
        <ele>133</ele>
        <time>2024-03-20T23:13:09Z</time>
      </trkpt>
      <trkpt lat="50.63908" lon="1.84239">
        <ele>129</ele>
        <time>2024-03-20T23:13:38Z</time>
      </trkpt>
      <trkpt lat="50.63758" lon="1.84241">
        <ele>125</ele>
        <time>2024-03-20T23:14:05Z</time>
      </trkpt>
      <trkpt lat="50.63719" lon="1.84236">
        <ele>125</ele>
        <time>2024-03-20T23:14:12Z</time>
      </trkpt>
      <trkpt lat="50.6357" lon="1.84204">
        <ele>125</ele>
        <time>2024-03-20T23:14:39Z</time>
      </trkpt>
      <trkpt lat="50.63535" lon="1.84205">
        <ele>125</ele>
        <time>2024-03-20T23:14:45Z</time>
      </trkpt>
      <trkpt lat="50.63311" lon="1.84235">
        <ele>126</ele>
        <time>2024-03-20T23:15:25Z</time>
      </trkpt>
      <trkpt lat="50.63259" lon="1.84234">
        <ele>125</ele>
        <time>2024-03-20T23:15:34Z</time>
      </trkpt>
      <trkpt lat="50.63124" lon="1.84212">
        <ele>124</ele>
        <time>2024-03-20T23:15:58Z</time>
      </trkpt>
      <trkpt lat="50.62936" lon="1.84197">
        <ele>118</ele>
        <time>2024-03-20T23:16:32Z</time>
      </trkpt>
      <trkpt lat="50.62909" lon="1.84196">
        <ele>117</ele>
        <time>2024-03-20T23:16:37Z</time>
      </trkpt>
      <trkpt lat="50.62885" lon="1.84199">
        <ele>116</ele>
        <time>2024-03-20T23:16:41Z</time>
      </trkpt>
      <trkpt lat="50.62865" lon="1.84209">
        <ele>115</ele>
        <time>2024-03-20T23:16:45Z</time>
      </trkpt>
      <trkpt lat="50.62776" lon="1.84273">
        <ele>110</ele>
        <time>2024-03-20T23:17:02Z</time>
      </trkpt>
      <trkpt lat="50.62723" lon="1.84289">
        <ele>109</ele>
        <time>2024-03-20T23:17:12Z</time>
      </trkpt>
      <trkpt lat="50.62685" lon="1.84297">
        <ele>109</ele>
        <time>2024-03-20T23:17:18Z</time>
      </trkpt>
      <trkpt lat="50.62657" lon="1.84303">
        <ele>109</ele>
        <time>2024-03-20T23:17:23Z</time>
      </trkpt>
      <trkpt lat="50.62632" lon="1.84312">
        <ele>108</ele>
        <time>2024-03-20T23:17:28Z</time>
      </trkpt>
      <trkpt lat="50.62568" lon="1.84346">
        <ele>107</ele>
        <time>2024-03-20T23:17:40Z</time>
      </trkpt>
      <trkpt lat="50.62553" lon="1.84348">
        <ele>107</ele>
        <time>2024-03-20T23:17:43Z</time>
      </trkpt>
      <trkpt lat="50.62546" lon="1.84347">
        <ele>107</ele>
        <time>2024-03-20T23:17:44Z</time>
      </trkpt>
      <trkpt lat="50.62533" lon="1.84342">
        <ele>107</ele>
        <time>2024-03-20T23:17:46Z</time>
      </trkpt>
      <trkpt lat="50.62428" lon="1.84281">
        <ele>104</ele>
        <time>2024-03-20T23:18:06Z</time>
      </trkpt>
      <trkpt lat="50.62337" lon="1.84255">
        <ele>102</ele>
        <time>2024-03-20T23:18:23Z</time>
      </trkpt>
      <trkpt lat="50.62293" lon="1.8424">
        <ele>101</ele>
        <time>2024-03-20T23:18:31Z</time>
      </trkpt>
      <trkpt lat="50.6229" lon="1.84235">
        <ele>101</ele>
        <time>2024-03-20T23:18:31Z</time>
      </trkpt>
      <trkpt lat="50.62293" lon="1.8424">
        <ele>101</ele>
        <time>2024-03-20T23:18:32Z</time>
      </trkpt>
      <trkpt lat="50.62266" lon="1.84223">
        <ele>101</ele>
        <time>2024-03-20T23:18:37Z</time>
      </trkpt>
      <trkpt lat="50.62251" lon="1.84206">
        <ele>102</ele>
        <time>2024-03-20T23:18:41Z</time>
      </trkpt>
      <trkpt lat="50.62243" lon="1.84194">
        <ele>102</ele>
        <time>2024-03-20T23:18:43Z</time>
      </trkpt>
      <trkpt lat="50.62154" lon="1.84006">
        <ele>105</ele>
        <time>2024-03-20T23:19:09Z</time>
      </trkpt>
      <trkpt lat="50.62136" lon="1.83973">
        <ele>104</ele>
        <time>2024-03-20T23:19:14Z</time>
      </trkpt>
      <trkpt lat="50.62067" lon="1.83886">
        <ele>101</ele>
        <time>2024-03-20T23:19:30Z</time>
      </trkpt>
      <trkpt lat="50.62017" lon="1.83819">
        <ele>101</ele>
        <time>2024-03-20T23:19:41Z</time>
      </trkpt>
      <trkpt lat="50.61899" lon="1.83626">
        <ele>98</ele>
        <time>2024-03-20T23:20:12Z</time>
      </trkpt>
      <trkpt lat="50.61823" lon="1.83512">
        <ele>99</ele>
        <time>2024-03-20T23:20:30Z</time>
      </trkpt>
      <trkpt lat="50.61765" lon="1.83438">
        <ele>97</ele>
        <time>2024-03-20T23:20:44Z</time>
      </trkpt>
      <trkpt lat="50.61744" lon="1.83421">
        <ele>97</ele>
        <time>2024-03-20T23:20:48Z</time>
      </trkpt>
      <trkpt lat="50.61723" lon="1.83411">
        <ele>96</ele>
        <time>2024-03-20T23:20:52Z</time>
      </trkpt>
      <trkpt lat="50.61662" lon="1.83389">
        <ele>93</ele>
        <time>2024-03-20T23:21:03Z</time>
      </trkpt>
      <trkpt lat="50.61644" lon="1.83377">
        <ele>92</ele>
        <time>2024-03-20T23:21:06Z</time>
      </trkpt>
      <trkpt lat="50.61628" lon="1.8336">
        <ele>92</ele>
        <time>2024-03-20T23:21:10Z</time>
      </trkpt>
      <trkpt lat="50.61587" lon="1.833">
        <ele>91</ele>
        <time>2024-03-20T23:21:20Z</time>
      </trkpt>
      <trkpt lat="50.61574" lon="1.83288">
        <ele>90</ele>
        <time>2024-03-20T23:21:22Z</time>
      </trkpt>
      <trkpt lat="50.61575" lon="1.83283">
        <ele>91</ele>
        <time>2024-03-20T23:21:23Z</time>
      </trkpt>
      <trkpt lat="50.61574" lon="1.83288">
        <ele>90</ele>
        <time>2024-03-20T23:21:24Z</time>
      </trkpt>
      <trkpt lat="50.61554" lon="1.83276">
        <ele>90</ele>
        <time>2024-03-20T23:21:27Z</time>
      </trkpt>
      <trkpt lat="50.61534" lon="1.83259">
        <ele>90</ele>
        <time>2024-03-20T23:21:32Z</time>
      </trkpt>
      <trkpt lat="50.61384" lon="1.83086">
        <ele>89</ele>
        <time>2024-03-20T23:22:05Z</time>
      </trkpt>
      <trkpt lat="50.61364" lon="1.83065">
        <ele>89</ele>
        <time>2024-03-20T23:22:09Z</time>
      </trkpt>
      <trkpt lat="50.61352" lon="1.83055">
        <ele>88</ele>
        <time>2024-03-20T23:22:11Z</time>
      </trkpt>
      <trkpt lat="50.61339" lon="1.83047">
        <ele>88</ele>
        <time>2024-03-20T23:22:14Z</time>
      </trkpt>
      <trkpt lat="50.6132" lon="1.8304">
        <ele>88</ele>
        <time>2024-03-20T23:22:17Z</time>
      </trkpt>
      <trkpt lat="50.61256" lon="1.83023">
        <ele>87</ele>
        <time>2024-03-20T23:22:29Z</time>
      </trkpt>
      <trkpt lat="50.6115" lon="1.82972">
        <ele>88</ele>
        <time>2024-03-20T23:22:48Z</time>
      </trkpt>
      <trkpt lat="50.61139" lon="1.82969">
        <ele>88</ele>
        <time>2024-03-20T23:22:50Z</time>
      </trkpt>
      <trkpt lat="50.61122" lon="1.82964">
        <ele>88</ele>
        <time>2024-03-20T23:22:54Z</time>
      </trkpt>
      <trkpt lat="50.61105" lon="1.82966">
        <ele>88</ele>
        <time>2024-03-20T23:22:57Z</time>
      </trkpt>
      <trkpt lat="50.61004" lon="1.83013">
        <ele>86</ele>
        <time>2024-03-20T23:23:15Z</time>
      </trkpt>
      <trkpt lat="50.60982" lon="1.83015">
        <ele>86</ele>
        <time>2024-03-20T23:23:19Z</time>
      </trkpt>
      <trkpt lat="50.6093" lon="1.83007">
        <ele>86</ele>
        <time>2024-03-20T23:23:29Z</time>
      </trkpt>
      <trkpt lat="50.60872" lon="1.83004">
        <ele>85</ele>
        <time>2024-03-20T23:23:39Z</time>
      </trkpt>
      <trkpt lat="50.60854" lon="1.83002">
        <ele>85</ele>
        <time>2024-03-20T23:23:42Z</time>
      </trkpt>
      <trkpt lat="50.60841" lon="1.83">
        <ele>84</ele>
        <time>2024-03-20T23:23:44Z</time>
      </trkpt>
      <trkpt lat="50.60854" lon="1.83002">
        <ele>85</ele>
        <time>2024-03-20T23:23:47Z</time>
      </trkpt>
      <trkpt lat="50.60872" lon="1.83004">
        <ele>85</ele>
        <time>2024-03-20T23:23:50Z</time>
      </trkpt>
      <trkpt lat="50.60871" lon="1.83011">
        <ele>85</ele>
        <time>2024-03-20T23:23:51Z</time>
      </trkpt>
      <trkpt lat="50.6086" lon="1.8303">
        <ele>85</ele>
        <time>2024-03-20T23:23:54Z</time>
      </trkpt>
      <trkpt lat="50.60854" lon="1.8305">
        <ele>86</ele>
        <time>2024-03-20T23:23:56Z</time>
      </trkpt>
      <trkpt lat="50.60859" lon="1.8311">
        <ele>88</ele>
        <time>2024-03-20T23:24:03Z</time>
      </trkpt>
      <trkpt lat="50.60866" lon="1.83163">
        <ele>91</ele>
        <time>2024-03-20T23:24:09Z</time>
      </trkpt>
      <trkpt lat="50.60866" lon="1.83176">
        <ele>92</ele>
        <time>2024-03-20T23:24:11Z</time>
      </trkpt>
      <trkpt lat="50.60864" lon="1.83185">
        <ele>92</ele>
        <time>2024-03-20T23:24:12Z</time>
      </trkpt>
      <trkpt lat="50.60859" lon="1.83193">
        <ele>93</ele>
        <time>2024-03-20T23:24:13Z</time>
      </trkpt>
      <trkpt lat="50.60846" lon="1.83201">
        <ele>93</ele>
        <time>2024-03-20T23:24:15Z</time>
      </trkpt>
      <trkpt lat="50.6073" lon="1.83214">
        <ele>93</ele>
        <time>2024-03-20T23:24:36Z</time>
      </trkpt>
      <trkpt lat="50.60461" lon="1.83239">
        <ele>108</ele>
        <time>2024-03-20T23:25:24Z</time>
      </trkpt>
      <trkpt lat="50.60442" lon="1.83242">
        <ele>109</ele>
        <time>2024-03-20T23:25:27Z</time>
      </trkpt>
      <trkpt lat="50.60422" lon="1.8325">
        <ele>111</ele>
        <time>2024-03-20T23:25:31Z</time>
      </trkpt>
      <trkpt lat="50.60409" lon="1.83255">
        <ele>111</ele>
        <time>2024-03-20T23:25:33Z</time>
      </trkpt>
      <trkpt lat="50.604" lon="1.83256">
        <ele>111</ele>
        <time>2024-03-20T23:25:35Z</time>
      </trkpt>
      <trkpt lat="50.60385" lon="1.83251">
        <ele>110</ele>
        <time>2024-03-20T23:25:38Z</time>
      </trkpt>
      <trkpt lat="50.60376" lon="1.83243">
        <ele>109</ele>
        <time>2024-03-20T23:25:40Z</time>
      </trkpt>
      <trkpt lat="50.60368" lon="1.83233">
        <ele>109</ele>
        <time>2024-03-20T23:25:41Z</time>
      </trkpt>
      <trkpt lat="50.60173" lon="1.82876">
        <ele>95</ele>
        <time>2024-03-20T23:26:35Z</time>
      </trkpt>
      <trkpt lat="50.60157" lon="1.82858">
        <ele>95</ele>
        <time>2024-03-20T23:26:38Z</time>
      </trkpt>
      <trkpt lat="50.60138" lon="1.82854">
        <ele>95</ele>
        <time>2024-03-20T23:26:42Z</time>
      </trkpt>
      <trkpt lat="50.60107" lon="1.82862">
        <ele>94</ele>
        <time>2024-03-20T23:26:47Z</time>
      </trkpt>
      <trkpt lat="50.60065" lon="1.82875">
        <ele>92</ele>
        <time>2024-03-20T23:26:55Z</time>
      </trkpt>
      <trkpt lat="50.59953" lon="1.82919">
        <ele>84</ele>
        <time>2024-03-20T23:27:15Z</time>
      </trkpt>
      <trkpt lat="50.59931" lon="1.82924">
        <ele>83</ele>
        <time>2024-03-20T23:27:19Z</time>
      </trkpt>
      <trkpt lat="50.59898" lon="1.82927">
        <ele>81</ele>
        <time>2024-03-20T23:27:25Z</time>
      </trkpt>
      <trkpt lat="50.5984" lon="1.82926">
        <ele>78</ele>
        <time>2024-03-20T23:27:35Z</time>
      </trkpt>
      <trkpt lat="50.59818" lon="1.8293">
        <ele>77</ele>
        <time>2024-03-20T23:27:39Z</time>
      </trkpt>
      <trkpt lat="50.59797" lon="1.82937">
        <ele>75</ele>
        <time>2024-03-20T23:27:43Z</time>
      </trkpt>
      <trkpt lat="50.5976" lon="1.82981">
        <ele>73</ele>
        <time>2024-03-20T23:27:51Z</time>
      </trkpt>
      <trkpt lat="50.59751" lon="1.82987">
        <ele>72</ele>
        <time>2024-03-20T23:27:53Z</time>
      </trkpt>
      <trkpt lat="50.59742" lon="1.82982">
        <ele>72</ele>
        <time>2024-03-20T23:27:55Z</time>
      </trkpt>
      <trkpt lat="50.59737" lon="1.82974">
        <ele>72</ele>
        <time>2024-03-20T23:27:56Z</time>
      </trkpt>
      <trkpt lat="50.59612" lon="1.82746">
        <ele>72</ele>
        <time>2024-03-20T23:28:30Z</time>
      </trkpt>
      <trkpt lat="50.59604" lon="1.82718">
        <ele>72</ele>
        <time>2024-03-20T23:28:34Z</time>
      </trkpt>
      <trkpt lat="50.59599" lon="1.82676">
        <ele>73</ele>
        <time>2024-03-20T23:28:39Z</time>
      </trkpt>
      <trkpt lat="50.59594" lon="1.82658">
        <ele>73</ele>
        <time>2024-03-20T23:28:41Z</time>
      </trkpt>
      <trkpt lat="50.59585" lon="1.82638">
        <ele>74</ele>
        <time>2024-03-20T23:28:43Z</time>
      </trkpt>
      <trkpt lat="50.59566" lon="1.82618">
        <ele>74</ele>
        <time>2024-03-20T23:28:48Z</time>
      </trkpt>
      <trkpt lat="50.59505" lon="1.82578">
        <ele>72</ele>
        <time>2024-03-20T23:28:59Z</time>
      </trkpt>
      <trkpt lat="50.59493" lon="1.82574">
        <ele>71</ele>
        <time>2024-03-20T23:29:01Z</time>
      </trkpt>
      <trkpt lat="50.5943" lon="1.82563">
        <ele>71</ele>
        <time>2024-03-20T23:29:13Z</time>
      </trkpt>
      <trkpt lat="50.59409" lon="1.82559">
        <ele>70</ele>
        <time>2024-03-20T23:29:17Z</time>
      </trkpt>
      <trkpt lat="50.59394" lon="1.82554">
        <ele>70</ele>
        <time>2024-03-20T23:29:19Z</time>
      </trkpt>
      <trkpt lat="50.59357" lon="1.82524">
        <ele>70</ele>
        <time>2024-03-20T23:29:27Z</time>
      </trkpt>
      <trkpt lat="50.59348" lon="1.82519">
        <ele>69</ele>
        <time>2024-03-20T23:29:28Z</time>
      </trkpt>
      <trkpt lat="50.59336" lon="1.82516">
        <ele>69</ele>
        <time>2024-03-20T23:29:31Z</time>
      </trkpt>
      <trkpt lat="50.59319" lon="1.8252">
        <ele>69</ele>
        <time>2024-03-20T23:29:34Z</time>
      </trkpt>
      <trkpt lat="50.59278" lon="1.82555">
        <ele>71</ele>
        <time>2024-03-20T23:29:42Z</time>
      </trkpt>
      <trkpt lat="50.5927" lon="1.82559">
        <ele>71</ele>
        <time>2024-03-20T23:29:43Z</time>
      </trkpt>
      <trkpt lat="50.5924" lon="1.82559">
        <ele>72</ele>
        <time>2024-03-20T23:29:49Z</time>
      </trkpt>
      <trkpt lat="50.59162" lon="1.82545">
        <ele>76</ele>
        <time>2024-03-20T23:30:03Z</time>
      </trkpt>
      <trkpt lat="50.59103" lon="1.82539">
        <ele>77</ele>
        <time>2024-03-20T23:30:13Z</time>
      </trkpt>
      <trkpt lat="50.58994" lon="1.8256">
        <ele>73</ele>
        <time>2024-03-20T23:30:33Z</time>
      </trkpt>
      <trkpt lat="50.58973" lon="1.82568">
        <ele>72</ele>
        <time>2024-03-20T23:30:37Z</time>
      </trkpt>
      <trkpt lat="50.58953" lon="1.8258">
        <ele>72</ele>
        <time>2024-03-20T23:30:40Z</time>
      </trkpt>
      <trkpt lat="50.58923" lon="1.82604">
        <ele>71</ele>
        <time>2024-03-20T23:30:46Z</time>
      </trkpt>
      <trkpt lat="50.58909" lon="1.8261">
        <ele>71</ele>
        <time>2024-03-20T23:30:49Z</time>
      </trkpt>
      <trkpt lat="50.58894" lon="1.82613">
        <ele>72</ele>
        <time>2024-03-20T23:30:52Z</time>
      </trkpt>
      <trkpt lat="50.58879" lon="1.82612">
        <ele>72</ele>
        <time>2024-03-20T23:30:54Z</time>
      </trkpt>
      <trkpt lat="50.58802" lon="1.82597">
        <ele>71</ele>
        <time>2024-03-20T23:31:08Z</time>
      </trkpt>
      <trkpt lat="50.58762" lon="1.82594">
        <ele>70</ele>
        <time>2024-03-20T23:31:15Z</time>
      </trkpt>
      <trkpt lat="50.58701" lon="1.82596">
        <ele>67</ele>
        <time>2024-03-20T23:31:26Z</time>
      </trkpt>
      <trkpt lat="50.586" lon="1.82611">
        <ele>65</ele>
        <time>2024-03-20T23:31:44Z</time>
      </trkpt>
      <trkpt lat="50.58456" lon="1.82638">
        <ele>62</ele>
        <time>2024-03-20T23:32:10Z</time>
      </trkpt>
      <trkpt lat="50.58335" lon="1.82671">
        <ele>61</ele>
        <time>2024-03-20T23:32:32Z</time>
      </trkpt>
      <trkpt lat="50.58241" lon="1.8269">
        <ele>62</ele>
        <time>2024-03-20T23:32:49Z</time>
      </trkpt>
      <trkpt lat="50.58215" lon="1.82689">
        <ele>61</ele>
        <time>2024-03-20T23:32:53Z</time>
      </trkpt>
      <trkpt lat="50.58164" lon="1.82682">
        <ele>59</ele>
        <time>2024-03-20T23:33:02Z</time>
      </trkpt>
      <trkpt lat="50.5814" lon="1.82677">
        <ele>58</ele>
        <time>2024-03-20T23:33:07Z</time>
      </trkpt>
      <trkpt lat="50.58095" lon="1.82662">
        <ele>56</ele>
        <time>2024-03-20T23:33:15Z</time>
      </trkpt>
      <trkpt lat="50.58074" lon="1.82659">
        <ele>55</ele>
        <time>2024-03-20T23:33:19Z</time>
      </trkpt>
      <trkpt lat="50.58003" lon="1.82671">
        <ele>54</ele>
        <time>2024-03-20T23:33:31Z</time>
      </trkpt>
      <trkpt lat="50.57952" lon="1.82674">
        <ele>55</ele>
        <time>2024-03-20T23:33:40Z</time>
      </trkpt>
      <trkpt lat="50.57908" lon="1.82666">
        <ele>55</ele>
        <time>2024-03-20T23:33:48Z</time>
      </trkpt>
      <trkpt lat="50.57892" lon="1.82669">
        <ele>55</ele>
        <time>2024-03-20T23:33:51Z</time>
      </trkpt>
      <trkpt lat="50.57876" lon="1.82676">
        <ele>55</ele>
        <time>2024-03-20T23:33:54Z</time>
      </trkpt>
      <trkpt lat="50.57844" lon="1.82696">
        <ele>55</ele>
        <time>2024-03-20T23:34:00Z</time>
      </trkpt>
      <trkpt lat="50.57824" lon="1.82715">
        <ele>56</ele>
        <time>2024-03-20T23:34:04Z</time>
      </trkpt>
      <trkpt lat="50.57797" lon="1.82758">
        <ele>56</ele>
        <time>2024-03-20T23:34:11Z</time>
      </trkpt>
      <trkpt lat="50.57778" lon="1.82799">
        <ele>57</ele>
        <time>2024-03-20T23:34:17Z</time>
      </trkpt>
      <trkpt lat="50.5775" lon="1.82868">
        <ele>57</ele>
        <time>2024-03-20T23:34:26Z</time>
      </trkpt>
      <trkpt lat="50.57736" lon="1.82893">
        <ele>57</ele>
        <time>2024-03-20T23:34:30Z</time>
      </trkpt>
      <trkpt lat="50.57721" lon="1.82909">
        <ele>57</ele>
        <time>2024-03-20T23:34:33Z</time>
      </trkpt>
      <trkpt lat="50.57684" lon="1.82932">
        <ele>55</ele>
        <time>2024-03-20T23:34:40Z</time>
      </trkpt>
      <trkpt lat="50.57651" lon="1.82961">
        <ele>53</ele>
        <time>2024-03-20T23:34:47Z</time>
      </trkpt>
      <trkpt lat="50.57634" lon="1.82975">
        <ele>53</ele>
        <time>2024-03-20T23:34:50Z</time>
      </trkpt>
      <trkpt lat="50.57626" lon="1.82979">
        <ele>53</ele>
        <time>2024-03-20T23:34:52Z</time>
      </trkpt>
      <trkpt lat="50.5762" lon="1.8298">
        <ele>53</ele>
        <time>2024-03-20T23:34:53Z</time>
      </trkpt>
      <trkpt lat="50.57617" lon="1.82989">
        <ele>53</ele>
        <time>2024-03-20T23:34:54Z</time>
      </trkpt>
      <trkpt lat="50.57614" lon="1.82997">
        <ele>52</ele>
        <time>2024-03-20T23:34:55Z</time>
      </trkpt>
      <trkpt lat="50.57566" lon="1.83039">
        <ele>52</ele>
        <time>2024-03-20T23:35:05Z</time>
      </trkpt>
      <trkpt lat="50.57537" lon="1.83075">
        <ele>52</ele>
        <time>2024-03-20T23:35:12Z</time>
      </trkpt>
      <trkpt lat="50.5743" lon="1.83163">
        <ele>55</ele>
        <time>2024-03-20T23:35:33Z</time>
      </trkpt>
      <trkpt lat="50.57353" lon="1.83215">
        <ele>57</ele>
        <time>2024-03-20T23:35:48Z</time>
      </trkpt>
      <trkpt lat="50.57315" lon="1.8325">
        <ele>57</ele>
        <time>2024-03-20T23:35:56Z</time>
      </trkpt>
      <trkpt lat="50.5729" lon="1.83287">
        <ele>56</ele>
        <time>2024-03-20T23:36:02Z</time>
      </trkpt>
      <trkpt lat="50.57281" lon="1.83322">
        <ele>57</ele>
        <time>2024-03-20T23:36:06Z</time>
      </trkpt>
      <trkpt lat="50.57276" lon="1.83362">
        <ele>58</ele>
        <time>2024-03-20T23:36:11Z</time>
      </trkpt>
      <trkpt lat="50.57272" lon="1.83435">
        <ele>61</ele>
        <time>2024-03-20T23:36:19Z</time>
      </trkpt>
      <trkpt lat="50.57271" lon="1.83485">
        <ele>61</ele>
        <time>2024-03-20T23:36:25Z</time>
      </trkpt>
      <trkpt lat="50.57277" lon="1.83527">
        <ele>61</ele>
        <time>2024-03-20T23:36:30Z</time>
      </trkpt>
      <trkpt lat="50.57281" lon="1.83581">
        <ele>61</ele>
        <time>2024-03-20T23:36:36Z</time>
      </trkpt>
      <trkpt lat="50.57281" lon="1.83624">
        <ele>60</ele>
        <time>2024-03-20T23:36:41Z</time>
      </trkpt>
      <trkpt lat="50.57282" lon="1.8364">
        <ele>60</ele>
        <time>2024-03-20T23:36:42Z</time>
      </trkpt>
      <trkpt lat="50.57275" lon="1.83682">
        <ele>60</ele>
        <time>2024-03-20T23:36:47Z</time>
      </trkpt>
      <trkpt lat="50.57254" lon="1.83676">
        <ele>57</ele>
        <time>2024-03-20T23:36:51Z</time>
      </trkpt>
      <trkpt lat="50.57166" lon="1.83672">
        <ele>53</ele>
        <time>2024-03-20T23:37:07Z</time>
      </trkpt>
      <trkpt lat="50.57139" lon="1.83718">
        <ele>52</ele>
        <time>2024-03-20T23:37:14Z</time>
      </trkpt>
      <trkpt lat="50.57128" lon="1.83732">
        <ele>52</ele>
        <time>2024-03-20T23:37:16Z</time>
      </trkpt>
      <trkpt lat="50.57093" lon="1.83754">
        <ele>51</ele>
        <time>2024-03-20T23:37:23Z</time>
      </trkpt>
      <trkpt lat="50.57084" lon="1.83759">
        <ele>51</ele>
        <time>2024-03-20T23:37:25Z</time>
      </trkpt>
      <trkpt lat="50.57079" lon="1.83762">
        <ele>51</ele>
        <time>2024-03-20T23:37:26Z</time>
      </trkpt>
      <trkpt lat="50.57078" lon="1.83773">
        <ele>51</ele>
        <time>2024-03-20T23:37:27Z</time>
      </trkpt>
      <trkpt lat="50.57074" lon="1.83794">
        <ele>52</ele>
        <time>2024-03-20T23:37:29Z</time>
      </trkpt>
      <trkpt lat="50.57048" lon="1.83858">
        <ele>53</ele>
        <time>2024-03-20T23:37:38Z</time>
      </trkpt>
      <trkpt lat="50.57029" lon="1.83911">
        <ele>54</ele>
        <time>2024-03-20T23:37:45Z</time>
      </trkpt>
      <trkpt lat="50.57021" lon="1.83941">
        <ele>54</ele>
        <time>2024-03-20T23:37:49Z</time>
      </trkpt>
      <trkpt lat="50.57005" lon="1.84016">
        <ele>54</ele>
        <time>2024-03-20T23:37:58Z</time>
      </trkpt>
      <trkpt lat="50.56981" lon="1.84097">
        <ele>54</ele>
        <time>2024-03-20T23:38:08Z</time>
      </trkpt>
      <trkpt lat="50.56975" lon="1.84133">
        <ele>55</ele>
        <time>2024-03-20T23:38:12Z</time>
      </trkpt>
      <trkpt lat="50.56966" lon="1.84222">
        <ele>56</ele>
        <time>2024-03-20T23:38:22Z</time>
      </trkpt>
      <trkpt lat="50.56975" lon="1.84133">
        <ele>55</ele>
        <time>2024-03-20T23:38:32Z</time>
      </trkpt>
      <trkpt lat="50.56981" lon="1.84097">
        <ele>54</ele>
        <time>2024-03-20T23:38:36Z</time>
      </trkpt>
      <trkpt lat="50.57005" lon="1.84016">
        <ele>54</ele>
        <time>2024-03-20T23:38:46Z</time>
      </trkpt>
      <trkpt lat="50.57021" lon="1.83941">
        <ele>54</ele>
        <time>2024-03-20T23:38:55Z</time>
      </trkpt>
      <trkpt lat="50.57029" lon="1.83911">
        <ele>54</ele>
        <time>2024-03-20T23:38:59Z</time>
      </trkpt>
      <trkpt lat="50.57048" lon="1.83858">
        <ele>53</ele>
        <time>2024-03-20T23:39:06Z</time>
      </trkpt>
      <trkpt lat="50.57074" lon="1.83794">
        <ele>52</ele>
        <time>2024-03-20T23:39:15Z</time>
      </trkpt>
      <trkpt lat="50.57078" lon="1.83773">
        <ele>51</ele>
        <time>2024-03-20T23:39:17Z</time>
      </trkpt>
      <trkpt lat="50.57079" lon="1.83762">
        <ele>51</ele>
        <time>2024-03-20T23:39:18Z</time>
      </trkpt>
      <trkpt lat="50.57076" lon="1.83763">
        <ele>51</ele>
        <time>2024-03-20T23:39:19Z</time>
      </trkpt>
      <trkpt lat="50.57054" lon="1.83715">
        <ele>52</ele>
        <time>2024-03-20T23:39:26Z</time>
      </trkpt>
      <trkpt lat="50.5698" lon="1.83581">
        <ele>53</ele>
        <time>2024-03-20T23:39:46Z</time>
      </trkpt>
      <trkpt lat="50.56962" lon="1.83535">
        <ele>53</ele>
        <time>2024-03-20T23:39:52Z</time>
      </trkpt>
      <trkpt lat="50.56937" lon="1.83485">
        <ele>53</ele>
        <time>2024-03-20T23:39:59Z</time>
      </trkpt>
      <trkpt lat="50.56917" lon="1.83425">
        <ele>50</ele>
        <time>2024-03-20T23:40:07Z</time>
      </trkpt>
      <trkpt lat="50.5691" lon="1.83392">
        <ele>51</ele>
        <time>2024-03-20T23:40:10Z</time>
      </trkpt>
      <trkpt lat="50.56902" lon="1.83325">
        <ele>50</ele>
        <time>2024-03-20T23:40:18Z</time>
      </trkpt>
      <trkpt lat="50.56898" lon="1.83316">
        <ele>50</ele>
        <time>2024-03-20T23:40:19Z</time>
      </trkpt>
      <trkpt lat="50.56882" lon="1.83288">
        <ele>50</ele>
        <time>2024-03-20T23:40:24Z</time>
      </trkpt>
      <trkpt lat="50.56858" lon="1.83253">
        <ele>51</ele>
        <time>2024-03-20T23:40:30Z</time>
      </trkpt>
      <trkpt lat="50.56847" lon="1.83232">
        <ele>50</ele>
        <time>2024-03-20T23:40:33Z</time>
      </trkpt>
      <trkpt lat="50.56821" lon="1.83166">
        <ele>48</ele>
        <time>2024-03-20T23:40:41Z</time>
      </trkpt>
      <trkpt lat="50.56803" lon="1.83141">
        <ele>48</ele>
        <time>2024-03-20T23:40:46Z</time>
      </trkpt>
      <trkpt lat="50.5679" lon="1.83129">
        <ele>48</ele>
        <time>2024-03-20T23:40:48Z</time>
      </trkpt>
      <trkpt lat="50.56778" lon="1.83121">
        <ele>48</ele>
        <time>2024-03-20T23:40:51Z</time>
      </trkpt>
      <trkpt lat="50.56693" lon="1.83099">
        <ele>48</ele>
        <time>2024-03-20T23:41:06Z</time>
      </trkpt>
      <trkpt lat="50.56599" lon="1.83016">
        <ele>49</ele>
        <time>2024-03-20T23:41:25Z</time>
      </trkpt>
      <trkpt lat="50.56593" lon="1.8301">
        <ele>49</ele>
        <time>2024-03-20T23:41:26Z</time>
      </trkpt>
      <trkpt lat="50.56589" lon="1.83002">
        <ele>49</ele>
        <time>2024-03-20T23:41:28Z</time>
      </trkpt>
      <trkpt lat="50.5661" lon="1.82977">
        <ele>47</ele>
        <time>2024-03-20T23:41:32Z</time>
      </trkpt>
      <trkpt lat="50.56617" lon="1.82964">
        <ele>47</ele>
        <time>2024-03-20T23:41:34Z</time>
      </trkpt>
      <trkpt lat="50.56642" lon="1.82878">
        <ele>45</ele>
        <time>2024-03-20T23:41:45Z</time>
      </trkpt>
      <trkpt lat="50.56657" lon="1.82837">
        <ele>44</ele>
        <time>2024-03-20T23:41:50Z</time>
      </trkpt>
      <trkpt lat="50.56724" lon="1.82686">
        <ele>45</ele>
        <time>2024-03-20T23:42:11Z</time>
      </trkpt>
      <trkpt lat="50.56728" lon="1.82681">
        <ele>45</ele>
        <time>2024-03-20T23:42:12Z</time>
      </trkpt>
      <trkpt lat="50.56732" lon="1.82673">
        <ele>45</ele>
        <time>2024-03-20T23:42:13Z</time>
      </trkpt>
      <trkpt lat="50.56759" lon="1.82653">
        <ele>45</ele>
        <time>2024-03-20T23:42:18Z</time>
      </trkpt>
      <trkpt lat="50.56767" lon="1.8264">
        <ele>45</ele>
        <time>2024-03-20T23:42:20Z</time>
      </trkpt>
      <trkpt lat="50.56787" lon="1.82598">
        <ele>45</ele>
        <time>2024-03-20T23:42:26Z</time>
      </trkpt>
      <trkpt lat="50.56814" lon="1.82533">
        <ele>48</ele>
        <time>2024-03-20T23:42:35Z</time>
      </trkpt>
      <trkpt lat="50.56913" lon="1.82361">
        <ele>59</ele>
        <time>2024-03-20T23:43:01Z</time>
      </trkpt>
      <trkpt lat="50.56924" lon="1.82336">
        <ele>60</ele>
        <time>2024-03-20T23:43:05Z</time>
      </trkpt>
      <trkpt lat="50.56929" lon="1.82341">
        <ele>60</ele>
        <time>2024-03-20T23:43:06Z</time>
      </trkpt>
      <trkpt lat="50.56948" lon="1.82369">
        <ele>60</ele>
        <time>2024-03-20T23:43:10Z</time>
      </trkpt>
      <trkpt lat="50.56992" lon="1.82461">
        <ele>60</ele>
        <time>2024-03-20T23:43:24Z</time>
      </trkpt>
      <trkpt lat="50.57016" lon="1.82501">
        <ele>60</ele>
        <time>2024-03-20T23:43:30Z</time>
      </trkpt>
      <trkpt lat="50.57039" lon="1.82524">
        <ele>60</ele>
        <time>2024-03-20T23:43:35Z</time>
      </trkpt>
      <trkpt lat="50.57066" lon="1.8254">
        <ele>62</ele>
        <time>2024-03-20T23:43:40Z</time>
      </trkpt>
      <trkpt lat="50.57115" lon="1.82558">
        <ele>63</ele>
        <time>2024-03-20T23:43:49Z</time>
      </trkpt>
      <trkpt lat="50.57139" lon="1.82565">
        <ele>64</ele>
        <time>2024-03-20T23:43:53Z</time>
      </trkpt>
      <trkpt lat="50.57165" lon="1.82564">
        <ele>65</ele>
        <time>2024-03-20T23:43:58Z</time>
      </trkpt>
      <trkpt lat="50.57193" lon="1.82557">
        <ele>65</ele>
        <time>2024-03-20T23:44:03Z</time>
      </trkpt>
      <trkpt lat="50.57221" lon="1.82542">
        <ele>66</ele>
        <time>2024-03-20T23:44:08Z</time>
      </trkpt>
      <trkpt lat="50.57374" lon="1.82418">
        <ele>60</ele>
        <time>2024-03-20T23:44:39Z</time>
      </trkpt>
      <trkpt lat="50.57396" lon="1.82405">
        <ele>58</ele>
        <time>2024-03-20T23:44:43Z</time>
      </trkpt>
      <trkpt lat="50.57416" lon="1.82401">
        <ele>57</ele>
        <time>2024-03-20T23:44:46Z</time>
      </trkpt>
      <trkpt lat="50.57418" lon="1.82401">
        <ele>57</ele>
        <time>2024-03-20T23:44:47Z</time>
      </trkpt>
      <trkpt lat="50.57422" lon="1.82402">
        <ele>57</ele>
        <time>2024-03-20T23:44:47Z</time>
      </trkpt>
      <trkpt lat="50.57438" lon="1.82407">
        <ele>58</ele>
        <time>2024-03-20T23:44:50Z</time>
      </trkpt>
      <trkpt lat="50.57509" lon="1.82449">
        <ele>60</ele>
        <time>2024-03-20T23:45:04Z</time>
      </trkpt>
      <trkpt lat="50.57521" lon="1.82454">
        <ele>61</ele>
        <time>2024-03-20T23:45:06Z</time>
      </trkpt>
      <trkpt lat="50.57557" lon="1.8246">
        <ele>63</ele>
        <time>2024-03-20T23:45:12Z</time>
      </trkpt>
      <trkpt lat="50.57593" lon="1.82453">
        <ele>66</ele>
        <time>2024-03-20T23:45:19Z</time>
      </trkpt>
      <trkpt lat="50.57658" lon="1.82431">
        <ele>70</ele>
        <time>2024-03-20T23:45:31Z</time>
      </trkpt>
      <trkpt lat="50.57707" lon="1.82406">
        <ele>71</ele>
        <time>2024-03-20T23:45:40Z</time>
      </trkpt>
      <trkpt lat="50.57799" lon="1.82353">
        <ele>71</ele>
        <time>2024-03-20T23:45:57Z</time>
      </trkpt>
      <trkpt lat="50.57882" lon="1.82318">
        <ele>71</ele>
        <time>2024-03-20T23:46:13Z</time>
      </trkpt>
      <trkpt lat="50.57994" lon="1.82275">
        <ele>68</ele>
        <time>2024-03-20T23:46:33Z</time>
      </trkpt>
      <trkpt lat="50.58031" lon="1.8225">
        <ele>66</ele>
        <time>2024-03-20T23:46:40Z</time>
      </trkpt>
      <trkpt lat="50.58083" lon="1.82211">
        <ele>63</ele>
        <time>2024-03-20T23:46:51Z</time>
      </trkpt>
      <trkpt lat="50.58121" lon="1.82173">
        <ele>63</ele>
        <time>2024-03-20T23:46:59Z</time>
      </trkpt>
      <trkpt lat="50.58135" lon="1.82155">
        <ele>62</ele>
        <time>2024-03-20T23:47:02Z</time>
      </trkpt>
      <trkpt lat="50.58163" lon="1.82112">
        <ele>61</ele>
        <time>2024-03-20T23:47:09Z</time>
      </trkpt>
      <trkpt lat="50.58313" lon="1.81818">
        <ele>60</ele>
        <time>2024-03-20T23:47:51Z</time>
      </trkpt>
      <trkpt lat="50.58322" lon="1.81785">
        <ele>60</ele>
        <time>2024-03-20T23:47:55Z</time>
      </trkpt>
      <trkpt lat="50.58327" lon="1.81763">
        <ele>60</ele>
        <time>2024-03-20T23:47:58Z</time>
      </trkpt>
      <trkpt lat="50.58336" lon="1.81701">
        <ele>61</ele>
        <time>2024-03-20T23:48:05Z</time>
      </trkpt>
      <trkpt lat="50.58345" lon="1.81657">
        <ele>62</ele>
        <time>2024-03-20T23:48:10Z</time>
      </trkpt>
      <trkpt lat="50.58369" lon="1.81594">
        <ele>63</ele>
        <time>2024-03-20T23:48:19Z</time>
      </trkpt>
      <trkpt lat="50.58487" lon="1.81357">
        <ele>63</ele>
        <time>2024-03-20T23:48:53Z</time>
      </trkpt>
      <trkpt lat="50.58515" lon="1.81314">
        <ele>66</ele>
        <time>2024-03-20T23:49:00Z</time>
      </trkpt>
      <trkpt lat="50.58654" lon="1.81166">
        <ele>64</ele>
        <time>2024-03-20T23:49:30Z</time>
      </trkpt>
      <trkpt lat="50.58676" lon="1.81133">
        <ele>65</ele>
        <time>2024-03-20T23:49:35Z</time>
      </trkpt>
      <trkpt lat="50.58691" lon="1.81102">
        <ele>66</ele>
        <time>2024-03-20T23:49:39Z</time>
      </trkpt>
      <trkpt lat="50.58696" lon="1.81106">
        <ele>65</ele>
        <time>2024-03-20T23:49:40Z</time>
      </trkpt>
      <trkpt lat="50.58701" lon="1.81104">
        <ele>65</ele>
        <time>2024-03-20T23:49:41Z</time>
      </trkpt>
      <trkpt lat="50.58723" lon="1.81086">
        <ele>65</ele>
        <time>2024-03-20T23:49:46Z</time>
      </trkpt>
      <trkpt lat="50.58701" lon="1.81104">
        <ele>65</ele>
        <time>2024-03-20T23:49:50Z</time>
      </trkpt>
      <trkpt lat="50.58696" lon="1.81106">
        <ele>65</ele>
        <time>2024-03-20T23:49:51Z</time>
      </trkpt>
      <trkpt lat="50.58691" lon="1.81102">
        <ele>66</ele>
        <time>2024-03-20T23:49:52Z</time>
      </trkpt>
      <trkpt lat="50.58762" lon="1.80962">
        <ele>67</ele>
        <time>2024-03-20T23:50:12Z</time>
      </trkpt>
      <trkpt lat="50.58755" lon="1.80949">
        <ele>67</ele>
        <time>2024-03-20T23:50:14Z</time>
      </trkpt>
      <trkpt lat="50.58704" lon="1.80809">
        <ele>72</ele>
        <time>2024-03-20T23:50:32Z</time>
      </trkpt>
      <trkpt lat="50.58681" lon="1.80757">
        <ele>75</ele>
        <time>2024-03-20T23:50:40Z</time>
      </trkpt>
      <trkpt lat="50.58707" lon="1.80734">
        <ele>76</ele>
        <time>2024-03-20T23:50:45Z</time>
      </trkpt>
      <trkpt lat="50.58845" lon="1.80651">
        <ele>80</ele>
        <time>2024-03-20T23:51:11Z</time>
      </trkpt>
      <trkpt lat="50.58869" lon="1.80625">
        <ele>82</ele>
        <time>2024-03-20T23:51:16Z</time>
      </trkpt>
      <trkpt lat="50.58885" lon="1.80597">
        <ele>84</ele>
        <time>2024-03-20T23:51:21Z</time>
      </trkpt>
      <trkpt lat="50.589" lon="1.8056">
        <ele>87</ele>
        <time>2024-03-20T23:51:26Z</time>
      </trkpt>
      <trkpt lat="50.58919" lon="1.80478">
        <ele>93</ele>
        <time>2024-03-20T23:51:35Z</time>
      </trkpt>
      <trkpt lat="50.58933" lon="1.80435">
        <ele>97</ele>
        <time>2024-03-20T23:51:41Z</time>
      </trkpt>
      <trkpt lat="50.58945" lon="1.80417">
        <ele>99</ele>
        <time>2024-03-20T23:51:44Z</time>
      </trkpt>
      <trkpt lat="50.58957" lon="1.80407">
        <ele>101</ele>
        <time>2024-03-20T23:51:46Z</time>
      </trkpt>
      <trkpt lat="50.58972" lon="1.80404">
        <ele>102</ele>
        <time>2024-03-20T23:51:49Z</time>
      </trkpt>
      <trkpt lat="50.58995" lon="1.80405">
        <ele>104</ele>
        <time>2024-03-20T23:51:53Z</time>
      </trkpt>
      <trkpt lat="50.59029" lon="1.80401">
        <ele>106</ele>
        <time>2024-03-20T23:51:59Z</time>
      </trkpt>
      <trkpt lat="50.59059" lon="1.80384">
        <ele>109</ele>
        <time>2024-03-20T23:52:05Z</time>
      </trkpt>
      <trkpt lat="50.59103" lon="1.8035">
        <ele>115</ele>
        <time>2024-03-20T23:52:14Z</time>
      </trkpt>
      <trkpt lat="50.59201" lon="1.80326">
        <ele>123</ele>
        <time>2024-03-20T23:52:31Z</time>
      </trkpt>
      <trkpt lat="50.59235" lon="1.80301">
        <ele>128</ele>
        <time>2024-03-20T23:52:38Z</time>
      </trkpt>
      <trkpt lat="50.59275" lon="1.80239">
        <ele>135</ele>
        <time>2024-03-20T23:52:48Z</time>
      </trkpt>
      <trkpt lat="50.59333" lon="1.8014">
        <ele>142</ele>
        <time>2024-03-20T23:53:03Z</time>
      </trkpt>
      <trkpt lat="50.59376" lon="1.80052">
        <ele>143</ele>
        <time>2024-03-20T23:53:16Z</time>
      </trkpt>
      <trkpt lat="50.59396" lon="1.80016">
        <ele>143</ele>
        <time>2024-03-20T23:53:21Z</time>
      </trkpt>
      <trkpt lat="50.59434" lon="1.79966">
        <ele>143</ele>
        <time>2024-03-20T23:53:30Z</time>
      </trkpt>
      <trkpt lat="50.59451" lon="1.79914">
        <ele>142</ele>
        <time>2024-03-20T23:53:36Z</time>
      </trkpt>
      <trkpt lat="50.59467" lon="1.79811">
        <ele>139</ele>
        <time>2024-03-20T23:53:48Z</time>
      </trkpt>
      <trkpt lat="50.59458" lon="1.79788">
        <ele>136</ele>
        <time>2024-03-20T23:53:51Z</time>
      </trkpt>
      <trkpt lat="50.59442" lon="1.79764">
        <ele>133</ele>
        <time>2024-03-20T23:53:55Z</time>
      </trkpt>
      <trkpt lat="50.5942" lon="1.79709">
        <ele>129</ele>
        <time>2024-03-20T23:54:03Z</time>
      </trkpt>
      <trkpt lat="50.59396" lon="1.79632">
        <ele>130</ele>
        <time>2024-03-20T23:54:12Z</time>
      </trkpt>
      <trkpt lat="50.59372" lon="1.79495">
        <ele>139</ele>
        <time>2024-03-20T23:54:28Z</time>
      </trkpt>
      <trkpt lat="50.59321" lon="1.79322">
        <ele>141</ele>
        <time>2024-03-20T23:54:50Z</time>
      </trkpt>
      <trkpt lat="50.59288" lon="1.79145">
        <ele>143</ele>
        <time>2024-03-20T23:55:11Z</time>
      </trkpt>
      <trkpt lat="50.59295" lon="1.791">
        <ele>144</ele>
        <time>2024-03-20T23:55:16Z</time>
      </trkpt>
      <trkpt lat="50.59305" lon="1.79057">
        <ele>145</ele>
        <time>2024-03-20T23:55:21Z</time>
      </trkpt>
      <trkpt lat="50.59305" lon="1.79025">
        <ele>146</ele>
        <time>2024-03-20T23:55:25Z</time>
      </trkpt>
      <trkpt lat="50.59291" lon="1.79012">
        <ele>145</ele>
        <time>2024-03-20T23:55:28Z</time>
      </trkpt>
      <trkpt lat="50.59275" lon="1.78991">
        <ele>145</ele>
        <time>2024-03-20T23:55:31Z</time>
      </trkpt>
      <trkpt lat="50.5926" lon="1.78948">
        <ele>145</ele>
        <time>2024-03-20T23:55:37Z</time>
      </trkpt>
      <trkpt lat="50.59219" lon="1.78857">
        <ele>143</ele>
        <time>2024-03-20T23:55:50Z</time>
      </trkpt>
      <trkpt lat="50.59092" lon="1.78626">
        <ele>138</ele>
        <time>2024-03-20T23:56:24Z</time>
      </trkpt>
      <trkpt lat="50.59052" lon="1.78578">
        <ele>137</ele>
        <time>2024-03-20T23:56:33Z</time>
      </trkpt>
      <trkpt lat="50.59015" lon="1.78538">
        <ele>136</ele>
        <time>2024-03-20T23:56:41Z</time>
      </trkpt>
      <trkpt lat="50.58999" lon="1.78528">
        <ele>136</ele>
        <time>2024-03-20T23:56:44Z</time>
      </trkpt>
      <trkpt lat="50.58951" lon="1.78482">
        <ele>134</ele>
        <time>2024-03-20T23:56:54Z</time>
      </trkpt>
      <trkpt lat="50.58905" lon="1.7845">
        <ele>132</ele>
        <time>2024-03-20T23:57:03Z</time>
      </trkpt>
      <trkpt lat="50.5889" lon="1.78436">
        <ele>131</ele>
        <time>2024-03-20T23:57:06Z</time>
      </trkpt>
      <trkpt lat="50.58883" lon="1.78395">
        <ele>130</ele>
        <time>2024-03-20T23:57:11Z</time>
      </trkpt>
      <trkpt lat="50.58872" lon="1.78325">
        <ele>128</ele>
        <time>2024-03-20T23:57:19Z</time>
      </trkpt>
      <trkpt lat="50.58875" lon="1.78187">
        <ele>125</ele>
        <time>2024-03-20T23:57:35Z</time>
      </trkpt>
      <trkpt lat="50.58885" lon="1.78095">
        <ele>125</ele>
        <time>2024-03-20T23:57:45Z</time>
      </trkpt>
      <trkpt lat="50.58922" lon="1.77988">
        <ele>130</ele>
        <time>2024-03-20T23:57:59Z</time>
      </trkpt>
      <trkpt lat="50.58937" lon="1.7795">
        <ele>131</ele>
        <time>2024-03-20T23:58:04Z</time>
      </trkpt>
      <trkpt lat="50.58954" lon="1.77912">
        <ele>131</ele>
        <time>2024-03-20T23:58:09Z</time>
      </trkpt>
      <trkpt lat="50.58985" lon="1.77839">
        <ele>131</ele>
        <time>2024-03-20T23:58:19Z</time>
      </trkpt>
      <trkpt lat="50.59019" lon="1.77752">
        <ele>130</ele>
        <time>2024-03-20T23:58:31Z</time>
      </trkpt>
      <trkpt lat="50.59031" lon="1.77731">
        <ele>129</ele>
        <time>2024-03-20T23:58:34Z</time>
      </trkpt>
      <trkpt lat="50.5904" lon="1.7771">
        <ele>129</ele>
        <time>2024-03-20T23:58:37Z</time>
      </trkpt>
      <trkpt lat="50.59047" lon="1.77688">
        <ele>128</ele>
        <time>2024-03-20T23:58:40Z</time>
      </trkpt>
      <trkpt lat="50.59066" lon="1.77546">
        <ele>127</ele>
        <time>2024-03-20T23:58:56Z</time>
      </trkpt>
      <trkpt lat="50.59086" lon="1.77481">
        <ele>127</ele>
        <time>2024-03-20T23:59:04Z</time>
      </trkpt>
      <trkpt lat="50.59111" lon="1.77407">
        <ele>128</ele>
        <time>2024-03-20T23:59:14Z</time>
      </trkpt>
      <trkpt lat="50.59123" lon="1.77357">
        <ele>128</ele>
        <time>2024-03-20T23:59:20Z</time>
      </trkpt>
      <trkpt lat="50.59134" lon="1.77315">
        <ele>127</ele>
        <time>2024-03-20T23:59:25Z</time>
      </trkpt>
      <trkpt lat="50.59143" lon="1.77256">
        <ele>126</ele>
        <time>2024-03-20T23:59:32Z</time>
      </trkpt>
      <trkpt lat="50.59144" lon="1.7721">
        <ele>125</ele>
        <time>2024-03-20T23:59:37Z</time>
      </trkpt>
      <trkpt lat="50.59139" lon="1.77133">
        <ele>124</ele>
        <time>2024-03-20T23:59:46Z</time>
      </trkpt>
      <trkpt lat="50.5914" lon="1.7709">
        <ele>125</ele>
        <time>2024-03-20T23:59:50Z</time>
      </trkpt>
      <trkpt lat="50.59211" lon="1.76586">
        <ele>118</ele>
        <time>2024-03-21T00:00:49Z</time>
      </trkpt>
      <trkpt lat="50.59237" lon="1.76476">
        <ele>117</ele>
        <time>2024-03-21T00:01:02Z</time>
      </trkpt>
      <trkpt lat="50.59321" lon="1.76228">
        <ele>102</ele>
        <time>2024-03-21T00:01:34Z</time>
      </trkpt>
      <trkpt lat="50.59335" lon="1.76199">
        <ele>100</ele>
        <time>2024-03-21T00:01:38Z</time>
      </trkpt>
      <trkpt lat="50.5936" lon="1.76186">
        <ele>96</ele>
        <time>2024-03-21T00:01:43Z</time>
      </trkpt>
      <trkpt lat="50.59451" lon="1.76154">
        <ele>86</ele>
        <time>2024-03-21T00:01:59Z</time>
      </trkpt>
      <trkpt lat="50.59479" lon="1.76122">
        <ele>84</ele>
        <time>2024-03-21T00:02:05Z</time>
      </trkpt>
      <trkpt lat="50.595" lon="1.76046">
        <ele>81</ele>
        <time>2024-03-21T00:02:15Z</time>
      </trkpt>
      <trkpt lat="50.59552" lon="1.7594">
        <ele>81</ele>
        <time>2024-03-21T00:02:30Z</time>
      </trkpt>
      <trkpt lat="50.59564" lon="1.75941">
        <ele>81</ele>
        <time>2024-03-21T00:02:32Z</time>
      </trkpt>
      <trkpt lat="50.59757" lon="1.75918">
        <ele>83</ele>
        <time>2024-03-21T00:03:06Z</time>
      </trkpt>
      <trkpt lat="50.59851" lon="1.75889">
        <ele>87</ele>
        <time>2024-03-21T00:03:23Z</time>
      </trkpt>
      <trkpt lat="50.59983" lon="1.75835">
        <ele>93</ele>
        <time>2024-03-21T00:03:48Z</time>
      </trkpt>
      <trkpt lat="50.6001" lon="1.75845">
        <ele>94</ele>
        <time>2024-03-21T00:03:53Z</time>
      </trkpt>
      <trkpt lat="50.60034" lon="1.75857">
        <ele>95</ele>
        <time>2024-03-21T00:03:57Z</time>
      </trkpt>
      <trkpt lat="50.60034" lon="1.75838">
        <ele>96</ele>
        <time>2024-03-21T00:03:59Z</time>
      </trkpt>
      <trkpt lat="50.6004" lon="1.7581">
        <ele>97</ele>
        <time>2024-03-21T00:04:03Z</time>
      </trkpt>
      <trkpt lat="50.60049" lon="1.75751">
        <ele>99</ele>
        <time>2024-03-21T00:04:09Z</time>
      </trkpt>
      <trkpt lat="50.60088" lon="1.75739">
        <ele>101</ele>
        <time>2024-03-21T00:04:17Z</time>
      </trkpt>
      <trkpt lat="50.6013" lon="1.75731">
        <ele>99</ele>
        <time>2024-03-21T00:04:24Z</time>
      </trkpt>
      <trkpt lat="50.60155" lon="1.75729">
        <ele>98</ele>
        <time>2024-03-21T00:04:28Z</time>
      </trkpt>
      <trkpt lat="50.60194" lon="1.75731">
        <ele>96</ele>
        <time>2024-03-21T00:04:35Z</time>
      </trkpt>
      <trkpt lat="50.60203" lon="1.7573">
        <ele>96</ele>
        <time>2024-03-21T00:04:37Z</time>
      </trkpt>
      <trkpt lat="50.60209" lon="1.75725">
        <ele>96</ele>
        <time>2024-03-21T00:04:38Z</time>
      </trkpt>
      <trkpt lat="50.6021" lon="1.75699">
        <ele>97</ele>
        <time>2024-03-21T00:04:41Z</time>
      </trkpt>
      <trkpt lat="50.6023" lon="1.75594">
        <ele>98</ele>
        <time>2024-03-21T00:04:54Z</time>
      </trkpt>
      <trkpt lat="50.60237" lon="1.75517">
        <ele>100</ele>
        <time>2024-03-21T00:05:02Z</time>
      </trkpt>
      <trkpt lat="50.60394" lon="1.74876">
        <ele>120</ele>
        <time>2024-03-21T00:06:20Z</time>
      </trkpt>
      <trkpt lat="50.60398" lon="1.74849">
        <ele>120</ele>
        <time>2024-03-21T00:06:23Z</time>
      </trkpt>
      <trkpt lat="50.60407" lon="1.74795">
        <ele>120</ele>
        <time>2024-03-21T00:06:29Z</time>
      </trkpt>
      <trkpt lat="50.60429" lon="1.74754">
        <ele>120</ele>
        <time>2024-03-21T00:06:35Z</time>
      </trkpt>
      <trkpt lat="50.60488" lon="1.74679">
        <ele>124</ele>
        <time>2024-03-21T00:06:49Z</time>
      </trkpt>
      <trkpt lat="50.60702" lon="1.74458">
        <ele>128</ele>
        <time>2024-03-21T00:07:34Z</time>
      </trkpt>
      <trkpt lat="50.60707" lon="1.74449">
        <ele>127</ele>
        <time>2024-03-21T00:07:36Z</time>
      </trkpt>
      <trkpt lat="50.60702" lon="1.7369">
        <ele>129</ele>
        <time>2024-03-21T00:09:02Z</time>
      </trkpt>
      <trkpt lat="50.60691" lon="1.72254">
        <ele>138</ele>
        <time>2024-03-21T00:11:44Z</time>
      </trkpt>
      <trkpt lat="50.60693" lon="1.72218">
        <ele>137</ele>
        <time>2024-03-21T00:11:48Z</time>
      </trkpt>
      <trkpt lat="50.60699" lon="1.72187">
        <ele>137</ele>
        <time>2024-03-21T00:11:51Z</time>
      </trkpt>
      <trkpt lat="50.60708" lon="1.7216">
        <ele>137</ele>
        <time>2024-03-21T00:11:55Z</time>
      </trkpt>
      <trkpt lat="50.60726" lon="1.72123">
        <ele>138</ele>
        <time>2024-03-21T00:12:00Z</time>
      </trkpt>
      <trkpt lat="50.60798" lon="1.71987">
        <ele>138</ele>
        <time>2024-03-21T00:12:20Z</time>
      </trkpt>
      <trkpt lat="50.60811" lon="1.71952">
        <ele>138</ele>
        <time>2024-03-21T00:12:25Z</time>
      </trkpt>
      <trkpt lat="50.6081" lon="1.71911">
        <ele>137</ele>
        <time>2024-03-21T00:12:29Z</time>
      </trkpt>
      <trkpt lat="50.60795" lon="1.71787">
        <ele>131</ele>
        <time>2024-03-21T00:12:44Z</time>
      </trkpt>
      <trkpt lat="50.60788" lon="1.71751">
        <ele>129</ele>
        <time>2024-03-21T00:12:48Z</time>
      </trkpt>
      <trkpt lat="50.60786" lon="1.71736">
        <ele>129</ele>
        <time>2024-03-21T00:12:50Z</time>
      </trkpt>
      <trkpt lat="50.60716" lon="1.71578">
        <ele>129</ele>
        <time>2024-03-21T00:13:11Z</time>
      </trkpt>
      <trkpt lat="50.60705" lon="1.71549">
        <ele>129</ele>
        <time>2024-03-21T00:13:15Z</time>
      </trkpt>
      <trkpt lat="50.6069" lon="1.71484">
        <ele>130</ele>
        <time>2024-03-21T00:13:23Z</time>
      </trkpt>
      <trkpt lat="50.60657" lon="1.71287">
        <ele>128</ele>
        <time>2024-03-21T00:13:46Z</time>
      </trkpt>
      <trkpt lat="50.60637" lon="1.71007">
        <ele>129</ele>
        <time>2024-03-21T00:14:18Z</time>
      </trkpt>
      <trkpt lat="50.60636" lon="1.70943">
        <ele>129</ele>
        <time>2024-03-21T00:14:25Z</time>
      </trkpt>
      <trkpt lat="50.60649" lon="1.70819">
        <ele>130</ele>
        <time>2024-03-21T00:14:39Z</time>
      </trkpt>
      <trkpt lat="50.60649" lon="1.70771">
        <ele>130</ele>
        <time>2024-03-21T00:14:45Z</time>
      </trkpt>
      <trkpt lat="50.60656" lon="1.70759">
        <ele>130</ele>
        <time>2024-03-21T00:14:46Z</time>
      </trkpt>
      <trkpt lat="50.60661" lon="1.70737">
        <ele>130</ele>
        <time>2024-03-21T00:14:49Z</time>
      </trkpt>
      <trkpt lat="50.60706" lon="1.70435">
        <ele>134</ele>
        <time>2024-03-21T00:15:24Z</time>
      </trkpt>
      <trkpt lat="50.60722" lon="1.70358">
        <ele>135</ele>
        <time>2024-03-21T00:15:33Z</time>
      </trkpt>
      <trkpt lat="50.60744" lon="1.70291">
        <ele>135</ele>
        <time>2024-03-21T00:15:42Z</time>
      </trkpt>
      <trkpt lat="50.60847" lon="1.70031">
        <ele>141</ele>
        <time>2024-03-21T00:16:16Z</time>
      </trkpt>
      <trkpt lat="50.6092" lon="1.69827">
        <ele>144</ele>
        <time>2024-03-21T00:16:43Z</time>
      </trkpt>
      <trkpt lat="50.60982" lon="1.69661">
        <ele>147</ele>
        <time>2024-03-21T00:17:05Z</time>
      </trkpt>
      <trkpt lat="50.6105" lon="1.69502">
        <ele>150</ele>
        <time>2024-03-21T00:17:26Z</time>
      </trkpt>
      <trkpt lat="50.61072" lon="1.69456">
        <ele>152</ele>
        <time>2024-03-21T00:17:33Z</time>
      </trkpt>
      <trkpt lat="50.61148" lon="1.69272">
        <ele>157</ele>
        <time>2024-03-21T00:17:58Z</time>
      </trkpt>
      <trkpt lat="50.61154" lon="1.69261">
        <ele>158</ele>
        <time>2024-03-21T00:17:59Z</time>
      </trkpt>
      <trkpt lat="50.61171" lon="1.69216">
        <ele>159</ele>
        <time>2024-03-21T00:18:05Z</time>
      </trkpt>
      <trkpt lat="50.61201" lon="1.69124">
        <ele>162</ele>
        <time>2024-03-21T00:18:17Z</time>
      </trkpt>
      <trkpt lat="50.61205" lon="1.691">
        <ele>162</ele>
        <time>2024-03-21T00:18:20Z</time>
      </trkpt>
      <trkpt lat="50.61246" lon="1.68751">
        <ele>162</ele>
        <time>2024-03-21T00:19:00Z</time>
      </trkpt>
      <trkpt lat="50.61261" lon="1.6855">
        <ele>166</ele>
        <time>2024-03-21T00:19:23Z</time>
      </trkpt>
      <trkpt lat="50.61265" lon="1.68529">
        <ele>167</ele>
        <time>2024-03-21T00:19:25Z</time>
      </trkpt>
      <trkpt lat="50.61271" lon="1.68515">
        <ele>168</ele>
        <time>2024-03-21T00:19:27Z</time>
      </trkpt>
      <trkpt lat="50.613" lon="1.68471">
        <ele>170</ele>
        <time>2024-03-21T00:19:34Z</time>
      </trkpt>
      <trkpt lat="50.61337" lon="1.68372">
        <ele>171</ele>
        <time>2024-03-21T00:19:47Z</time>
      </trkpt>
      <trkpt lat="50.61352" lon="1.68345">
        <ele>170</ele>
        <time>2024-03-21T00:19:51Z</time>
      </trkpt>
      <trkpt lat="50.61374" lon="1.68323">
        <ele>168</ele>
        <time>2024-03-21T00:19:56Z</time>
      </trkpt>
      <trkpt lat="50.61391" lon="1.68312">
        <ele>167</ele>
        <time>2024-03-21T00:19:59Z</time>
      </trkpt>
      <trkpt lat="50.61411" lon="1.68307">
        <ele>167</ele>
        <time>2024-03-21T00:20:03Z</time>
      </trkpt>
      <trkpt lat="50.6164" lon="1.68266">
        <ele>175</ele>
        <time>2024-03-21T00:20:44Z</time>
      </trkpt>
      <trkpt lat="50.61659" lon="1.68269">
        <ele>175</ele>
        <time>2024-03-21T00:20:47Z</time>
      </trkpt>
      <trkpt lat="50.61682" lon="1.6828">
        <ele>176</ele>
        <time>2024-03-21T00:20:51Z</time>
      </trkpt>
      <trkpt lat="50.61711" lon="1.68305">
        <ele>175</ele>
        <time>2024-03-21T00:20:57Z</time>
      </trkpt>
      <trkpt lat="50.61738" lon="1.68338">
        <ele>175</ele>
        <time>2024-03-21T00:21:03Z</time>
      </trkpt>
      <trkpt lat="50.61838" lon="1.68431">
        <ele>167</ele>
        <time>2024-03-21T00:21:24Z</time>
      </trkpt>
      <trkpt lat="50.61891" lon="1.68468">
        <ele>163</ele>
        <time>2024-03-21T00:21:34Z</time>
      </trkpt>
      <trkpt lat="50.61933" lon="1.68502">
        <ele>159</ele>
        <time>2024-03-21T00:21:43Z</time>
      </trkpt>
      <trkpt lat="50.6203" lon="1.68641">
        <ele>141</ele>
        <time>2024-03-21T00:22:06Z</time>
      </trkpt>
      <trkpt lat="50.62227" lon="1.68856">
        <ele>109</ele>
        <time>2024-03-21T00:22:49Z</time>
      </trkpt>
      <trkpt lat="50.62255" lon="1.68879">
        <ele>105</ele>
        <time>2024-03-21T00:22:54Z</time>
      </trkpt>
      <trkpt lat="50.62284" lon="1.68892">
        <ele>101</ele>
        <time>2024-03-21T00:23:00Z</time>
      </trkpt>
      <trkpt lat="50.62323" lon="1.68902">
        <ele>96</ele>
        <time>2024-03-21T00:23:07Z</time>
      </trkpt>
      <trkpt lat="50.62335" lon="1.689">
        <ele>95</ele>
        <time>2024-03-21T00:23:09Z</time>
      </trkpt>
      <trkpt lat="50.62347" lon="1.68892">
        <ele>93</ele>
        <time>2024-03-21T00:23:11Z</time>
      </trkpt>
      <trkpt lat="50.62356" lon="1.68878">
        <ele>92</ele>
        <time>2024-03-21T00:23:13Z</time>
      </trkpt>
      <trkpt lat="50.62366" lon="1.68837">
        <ele>91</ele>
        <time>2024-03-21T00:23:18Z</time>
      </trkpt>
      <trkpt lat="50.62374" lon="1.68821">
        <ele>89</ele>
        <time>2024-03-21T00:23:21Z</time>
      </trkpt>
      <trkpt lat="50.62384" lon="1.68814">
        <ele>86</ele>
        <time>2024-03-21T00:23:23Z</time>
      </trkpt>
      <trkpt lat="50.62395" lon="1.68812">
        <ele>83</ele>
        <time>2024-03-21T00:23:24Z</time>
      </trkpt>
      <trkpt lat="50.6241" lon="1.68822">
        <ele>80</ele>
        <time>2024-03-21T00:23:27Z</time>
      </trkpt>
      <trkpt lat="50.62431" lon="1.68848">
        <ele>78</ele>
        <time>2024-03-21T00:23:32Z</time>
      </trkpt>
      <trkpt lat="50.62448" lon="1.68867">
        <ele>76</ele>
        <time>2024-03-21T00:23:36Z</time>
      </trkpt>
      <trkpt lat="50.62477" lon="1.68883">
        <ele>72</ele>
        <time>2024-03-21T00:23:41Z</time>
      </trkpt>
      <trkpt lat="50.6248" lon="1.68801">
        <ele>71</ele>
        <time>2024-03-21T00:23:51Z</time>
      </trkpt>
      <trkpt lat="50.62486" lon="1.68728">
        <ele>69</ele>
        <time>2024-03-21T00:23:59Z</time>
      </trkpt>
      <trkpt lat="50.62497" lon="1.68649">
        <ele>69</ele>
        <time>2024-03-21T00:24:08Z</time>
      </trkpt>
      <trkpt lat="50.62584" lon="1.68219">
        <ele>67</ele>
        <time>2024-03-21T00:24:59Z</time>
      </trkpt>
      <trkpt lat="50.62591" lon="1.68176">
        <ele>67</ele>
        <time>2024-03-21T00:25:04Z</time>
      </trkpt>
      <trkpt lat="50.62687" lon="1.6734">
        <ele>71</ele>
        <time>2024-03-21T00:26:40Z</time>
      </trkpt>
      <trkpt lat="50.62699" lon="1.67228">
        <ele>71</ele>
        <time>2024-03-21T00:26:53Z</time>
      </trkpt>
      <trkpt lat="50.62699" lon="1.67194">
        <ele>71</ele>
        <time>2024-03-21T00:26:57Z</time>
      </trkpt>
      <trkpt lat="50.62694" lon="1.67148">
        <ele>72</ele>
        <time>2024-03-21T00:27:02Z</time>
      </trkpt>
      <trkpt lat="50.62664" lon="1.67006">
        <ele>72</ele>
        <time>2024-03-21T00:27:19Z</time>
      </trkpt>
      <trkpt lat="50.62659" lon="1.66966">
        <ele>72</ele>
        <time>2024-03-21T00:27:23Z</time>
      </trkpt>
      <trkpt lat="50.62658" lon="1.66922">
        <ele>71</ele>
        <time>2024-03-21T00:27:28Z</time>
      </trkpt>
      <trkpt lat="50.62659" lon="1.66604">
        <ele>69</ele>
        <time>2024-03-21T00:28:04Z</time>
      </trkpt>
      <trkpt lat="50.62655" lon="1.66562">
        <ele>68</ele>
        <time>2024-03-21T00:28:09Z</time>
      </trkpt>
      <trkpt lat="50.6265" lon="1.66533">
        <ele>67</ele>
        <time>2024-03-21T00:28:12Z</time>
      </trkpt>
      <trkpt lat="50.6264" lon="1.66495">
        <ele>66</ele>
        <time>2024-03-21T00:28:17Z</time>
      </trkpt>
      <trkpt lat="50.6263" lon="1.66466">
        <ele>65</ele>
        <time>2024-03-21T00:28:21Z</time>
      </trkpt>
      <trkpt lat="50.62575" lon="1.66353">
        <ele>65</ele>
        <time>2024-03-21T00:28:37Z</time>
      </trkpt>
      <trkpt lat="50.62564" lon="1.6632">
        <ele>66</ele>
        <time>2024-03-21T00:28:41Z</time>
      </trkpt>
      <trkpt lat="50.62541" lon="1.66235">
        <ele>69</ele>
        <time>2024-03-21T00:28:51Z</time>
      </trkpt>
      <trkpt lat="50.6252" lon="1.66173">
        <ele>69</ele>
        <time>2024-03-21T00:28:59Z</time>
      </trkpt>
      <trkpt lat="50.62485" lon="1.66075">
        <ele>68</ele>
        <time>2024-03-21T00:29:12Z</time>
      </trkpt>
      <trkpt lat="50.62456" lon="1.65994">
        <ele>68</ele>
        <time>2024-03-21T00:29:23Z</time>
      </trkpt>
      <trkpt lat="50.62449" lon="1.65971">
        <ele>68</ele>
        <time>2024-03-21T00:29:25Z</time>
      </trkpt>
      <trkpt lat="50.62443" lon="1.65944">
        <ele>69</ele>
        <time>2024-03-21T00:29:29Z</time>
      </trkpt>
      <trkpt lat="50.62435" lon="1.65879">
        <ele>67</ele>
        <time>2024-03-21T00:29:36Z</time>
      </trkpt>
      <trkpt lat="50.62433" lon="1.65847">
        <ele>66</ele>
        <time>2024-03-21T00:29:40Z</time>
      </trkpt>
      <trkpt lat="50.62432" lon="1.65695">
        <ele>64</ele>
        <time>2024-03-21T00:29:57Z</time>
      </trkpt>
      <trkpt lat="50.624" lon="1.65341">
        <ele>65</ele>
        <time>2024-03-21T00:30:37Z</time>
      </trkpt>
      <trkpt lat="50.62384" lon="1.65203">
        <ele>63</ele>
        <time>2024-03-21T00:30:53Z</time>
      </trkpt>
      <trkpt lat="50.62342" lon="1.64873">
        <ele>62</ele>
        <time>2024-03-21T00:31:31Z</time>
      </trkpt>
      <trkpt lat="50.62337" lon="1.64853">
        <ele>63</ele>
        <time>2024-03-21T00:31:34Z</time>
      </trkpt>
      <trkpt lat="50.62326" lon="1.64824">
        <ele>63</ele>
        <time>2024-03-21T00:31:37Z</time>
      </trkpt>
      <trkpt lat="50.62292" lon="1.6475">
        <ele>61</ele>
        <time>2024-03-21T00:31:48Z</time>
      </trkpt>
      <trkpt lat="50.62281" lon="1.6471">
        <ele>60</ele>
        <time>2024-03-21T00:31:53Z</time>
      </trkpt>
      <trkpt lat="50.62276" lon="1.64673">
        <ele>59</ele>
        <time>2024-03-21T00:31:57Z</time>
      </trkpt>
      <trkpt lat="50.6228" lon="1.64665">
        <ele>59</ele>
        <time>2024-03-21T00:31:58Z</time>
      </trkpt>
      <trkpt lat="50.6258" lon="1.64619">
        <ele>48</ele>
        <time>2024-03-21T00:32:52Z</time>
      </trkpt>
      <trkpt lat="50.62597" lon="1.64616">
        <ele>47</ele>
        <time>2024-03-21T00:32:55Z</time>
      </trkpt>
      <trkpt lat="50.62896" lon="1.64571">
        <ele>38</ele>
        <time>2024-03-21T00:33:48Z</time>
      </trkpt>
      <trkpt lat="50.63032" lon="1.64551">
        <ele>34</ele>
        <time>2024-03-21T00:34:12Z</time>
      </trkpt>
      <trkpt lat="50.63233" lon="1.64521">
        <ele>30</ele>
        <time>2024-03-21T00:34:48Z</time>
      </trkpt>
      <trkpt lat="50.6325" lon="1.64516">
        <ele>30</ele>
        <time>2024-03-21T00:34:51Z</time>
      </trkpt>
      <trkpt lat="50.63257" lon="1.64509">
        <ele>30</ele>
        <time>2024-03-21T00:34:53Z</time>
      </trkpt>
      <trkpt lat="50.63268" lon="1.6449">
        <ele>30</ele>
        <time>2024-03-21T00:34:56Z</time>
      </trkpt>
      <trkpt lat="50.63274" lon="1.64494">
        <ele>30</ele>
        <time>2024-03-21T00:34:57Z</time>
      </trkpt>
      <trkpt lat="50.63318" lon="1.64503">
        <ele>30</ele>
        <time>2024-03-21T00:35:05Z</time>
      </trkpt>
      <trkpt lat="50.63395" lon="1.64504">
        <ele>33</ele>
        <time>2024-03-21T00:35:19Z</time>
      </trkpt>
      <trkpt lat="50.63768" lon="1.64449">
        <ele>34</ele>
        <time>2024-03-21T00:36:25Z</time>
      </trkpt>
      <trkpt lat="50.64019" lon="1.64415">
        <ele>40</ele>
        <time>2024-03-21T00:37:10Z</time>
      </trkpt>
      <trkpt lat="50.64078" lon="1.64404">
        <ele>41</ele>
        <time>2024-03-21T00:37:21Z</time>
      </trkpt>
      <trkpt lat="50.64089" lon="1.64405">
        <ele>41</ele>
        <time>2024-03-21T00:37:23Z</time>
      </trkpt>
      <trkpt lat="50.64099" lon="1.6441">
        <ele>41</ele>
        <time>2024-03-21T00:37:24Z</time>
      </trkpt>
      <trkpt lat="50.64102" lon="1.64393">
        <ele>41</ele>
        <time>2024-03-21T00:37:26Z</time>
      </trkpt>
      <trkpt lat="50.64496" lon="1.64334">
        <ele>39</ele>
        <time>2024-03-21T00:38:37Z</time>
      </trkpt>
      <trkpt lat="50.64528" lon="1.64325">
        <ele>37</ele>
        <time>2024-03-21T00:38:43Z</time>
      </trkpt>
      <trkpt lat="50.64541" lon="1.64328">
        <ele>36</ele>
        <time>2024-03-21T00:38:45Z</time>
      </trkpt>
      <trkpt lat="50.64546" lon="1.64335">
        <ele>36</ele>
        <time>2024-03-21T00:38:46Z</time>
      </trkpt>
      <trkpt lat="50.64556" lon="1.64342">
        <ele>35</ele>
        <time>2024-03-21T00:38:48Z</time>
      </trkpt>
      <trkpt lat="50.64568" lon="1.64341">
        <ele>34</ele>
        <time>2024-03-21T00:38:50Z</time>
      </trkpt>
      <trkpt lat="50.64577" lon="1.64333">
        <ele>33</ele>
        <time>2024-03-21T00:38:52Z</time>
      </trkpt>
      <trkpt lat="50.64583" lon="1.64321">
        <ele>33</ele>
        <time>2024-03-21T00:38:54Z</time>
      </trkpt>
      <trkpt lat="50.64586" lon="1.64301">
        <ele>32</ele>
        <time>2024-03-21T00:38:56Z</time>
      </trkpt>
      <trkpt lat="50.64583" lon="1.6428">
        <ele>32</ele>
        <time>2024-03-21T00:38:59Z</time>
      </trkpt>
      <trkpt lat="50.64574" lon="1.64266">
        <ele>33</ele>
        <time>2024-03-21T00:39:01Z</time>
      </trkpt>
      <trkpt lat="50.6457" lon="1.64255">
        <ele>33</ele>
        <time>2024-03-21T00:39:02Z</time>
      </trkpt>
      <trkpt lat="50.64568" lon="1.6424">
        <ele>33</ele>
        <time>2024-03-21T00:39:04Z</time>
      </trkpt>
      <trkpt lat="50.64568" lon="1.64145">
        <ele>37</ele>
        <time>2024-03-21T00:39:15Z</time>
      </trkpt>
      <trkpt lat="50.64644" lon="1.63096">
        <ele>36</ele>
        <time>2024-03-21T00:41:14Z</time>
      </trkpt>
      <trkpt lat="50.6465" lon="1.63096">
        <ele>36</ele>
        <time>2024-03-21T00:41:15Z</time>
      </trkpt>
      <trkpt lat="50.64652" lon="1.63093">
        <ele>36</ele>
        <time>2024-03-21T00:41:15Z</time>
      </trkpt>
      <trkpt lat="50.64676" lon="1.63061">
        <ele>35</ele>
        <time>2024-03-21T00:41:21Z</time>
      </trkpt>
      <trkpt lat="50.64742" lon="1.62972">
        <ele>32</ele>
        <time>2024-03-21T00:41:36Z</time>
      </trkpt>
      <trkpt lat="50.64781" lon="1.62928">
        <ele>30</ele>
        <time>2024-03-21T00:41:45Z</time>
      </trkpt>
      <trkpt lat="50.64826" lon="1.62889">
        <ele>29</ele>
        <time>2024-03-21T00:41:54Z</time>
      </trkpt>
      <trkpt lat="50.64795" lon="1.62642">
        <ele>31</ele>
        <time>2024-03-21T00:42:22Z</time>
      </trkpt>
      <trkpt lat="50.64793" lon="1.62635">
        <ele>31</ele>
        <time>2024-03-21T00:42:23Z</time>
      </trkpt>
      <trkpt lat="50.64934" lon="1.62647">
        <ele>33</ele>
        <time>2024-03-21T00:42:48Z</time>
      </trkpt>
      <trkpt lat="50.64956" lon="1.62644">
        <ele>34</ele>
        <time>2024-03-21T00:42:52Z</time>
      </trkpt>
      <trkpt lat="50.65006" lon="1.62624">
        <ele>36</ele>
        <time>2024-03-21T00:43:02Z</time>
      </trkpt>
      <trkpt lat="50.65018" lon="1.62614">
        <ele>36</ele>
        <time>2024-03-21T00:43:04Z</time>
      </trkpt>
      <trkpt lat="50.65064" lon="1.62566">
        <ele>39</ele>
        <time>2024-03-21T00:43:14Z</time>
      </trkpt>
      <trkpt lat="50.65099" lon="1.62519">
        <ele>38</ele>
        <time>2024-03-21T00:43:22Z</time>
      </trkpt>
      <trkpt lat="50.65116" lon="1.62517">
        <ele>38</ele>
        <time>2024-03-21T00:43:25Z</time>
      </trkpt>
      <trkpt lat="50.6512" lon="1.6251">
        <ele>38</ele>
        <time>2024-03-21T00:43:26Z</time>
      </trkpt>
      <trkpt lat="50.65124" lon="1.62494">
        <ele>38</ele>
        <time>2024-03-21T00:43:28Z</time>
      </trkpt>
      <trkpt lat="50.65134" lon="1.62344">
        <ele>39</ele>
        <time>2024-03-21T00:43:45Z</time>
      </trkpt>
      <trkpt lat="50.65139" lon="1.62311">
        <ele>39</ele>
        <time>2024-03-21T00:43:49Z</time>
      </trkpt>
      <trkpt lat="50.65146" lon="1.62283">
        <ele>39</ele>
        <time>2024-03-21T00:43:52Z</time>
      </trkpt>
      <trkpt lat="50.65153" lon="1.62267">
        <ele>39</ele>
        <time>2024-03-21T00:43:54Z</time>
      </trkpt>
      <trkpt lat="50.65174" lon="1.62246">
        <ele>39</ele>
        <time>2024-03-21T00:43:59Z</time>
      </trkpt>
      <trkpt lat="50.65255" lon="1.62181">
        <ele>45</ele>
        <time>2024-03-21T00:44:15Z</time>
      </trkpt>
      <trkpt lat="50.65303" lon="1.62157">
        <ele>47</ele>
        <time>2024-03-21T00:44:24Z</time>
      </trkpt>
      <trkpt lat="50.65329" lon="1.62135">
        <ele>48</ele>
        <time>2024-03-21T00:44:29Z</time>
      </trkpt>
      <trkpt lat="50.6534" lon="1.6212">
        <ele>49</ele>
        <time>2024-03-21T00:44:32Z</time>
      </trkpt>
      <trkpt lat="50.65344" lon="1.62124">
        <ele>50</ele>
        <time>2024-03-21T00:44:33Z</time>
      </trkpt>
      <trkpt lat="50.65351" lon="1.62124">
        <ele>50</ele>
        <time>2024-03-21T00:44:34Z</time>
      </trkpt>
      <trkpt lat="50.65354" lon="1.62118">
        <ele>50</ele>
        <time>2024-03-21T00:44:35Z</time>
      </trkpt>
      <trkpt lat="50.65354" lon="1.62107">
        <ele>50</ele>
        <time>2024-03-21T00:44:36Z</time>
      </trkpt>
      <trkpt lat="50.65372" lon="1.62087">
        <ele>52</ele>
        <time>2024-03-21T00:44:40Z</time>
      </trkpt>
      <trkpt lat="50.65393" lon="1.62058">
        <ele>54</ele>
        <time>2024-03-21T00:44:45Z</time>
      </trkpt>
      <trkpt lat="50.65413" lon="1.62021">
        <ele>55</ele>
        <time>2024-03-21T00:44:50Z</time>
      </trkpt>
      <trkpt lat="50.65423" lon="1.61998">
        <ele>55</ele>
        <time>2024-03-21T00:44:54Z</time>
      </trkpt>
      <trkpt lat="50.65431" lon="1.61971">
        <ele>56</ele>
        <time>2024-03-21T00:44:57Z</time>
      </trkpt>
      <trkpt lat="50.65435" lon="1.6195">
        <ele>57</ele>
        <time>2024-03-21T00:44:59Z</time>
      </trkpt>
      <trkpt lat="50.65438" lon="1.61902">
        <ele>58</ele>
        <time>2024-03-21T00:45:05Z</time>
      </trkpt>
      <trkpt lat="50.65439" lon="1.61729">
        <ele>58</ele>
        <time>2024-03-21T00:45:24Z</time>
      </trkpt>
      <trkpt lat="50.65443" lon="1.61647">
        <ele>57</ele>
        <time>2024-03-21T00:45:34Z</time>
      </trkpt>
      <trkpt lat="50.65448" lon="1.61622">
        <ele>57</ele>
        <time>2024-03-21T00:45:37Z</time>
      </trkpt>
      <trkpt lat="50.65455" lon="1.616">
        <ele>57</ele>
        <time>2024-03-21T00:45:39Z</time>
      </trkpt>
      <trkpt lat="50.65538" lon="1.61388">
        <ele>65</ele>
        <time>2024-03-21T00:46:07Z</time>
      </trkpt>
      <trkpt lat="50.65553" lon="1.61335">
        <ele>66</ele>
        <time>2024-03-21T00:46:14Z</time>
      </trkpt>
      <trkpt lat="50.65566" lon="1.61264">
        <ele>67</ele>
        <time>2024-03-21T00:46:22Z</time>
      </trkpt>
      <trkpt lat="50.65571" lon="1.61223">
        <ele>68</ele>
        <time>2024-03-21T00:46:27Z</time>
      </trkpt>
      <trkpt lat="50.65572" lon="1.61181">
        <ele>68</ele>
        <time>2024-03-21T00:46:32Z</time>
      </trkpt>
      <trkpt lat="50.6557" lon="1.61143">
        <ele>67</ele>
        <time>2024-03-21T00:46:36Z</time>
      </trkpt>
      <trkpt lat="50.65549" lon="1.60949">
        <ele>63</ele>
        <time>2024-03-21T00:46:58Z</time>
      </trkpt>
      <trkpt lat="50.65546" lon="1.60896">
        <ele>63</ele>
        <time>2024-03-21T00:47:04Z</time>
      </trkpt>
      <trkpt lat="50.65548" lon="1.60882">
        <ele>63</ele>
        <time>2024-03-21T00:47:06Z</time>
      </trkpt>
      <trkpt lat="50.65554" lon="1.60853">
        <ele>63</ele>
        <time>2024-03-21T00:47:09Z</time>
      </trkpt>
      <trkpt lat="50.65611" lon="1.60691">
        <ele>64</ele>
        <time>2024-03-21T00:47:30Z</time>
      </trkpt>
      <trkpt lat="50.65621" lon="1.60667">
        <ele>64</ele>
        <time>2024-03-21T00:47:33Z</time>
      </trkpt>
      <trkpt lat="50.65631" lon="1.60646">
        <ele>64</ele>
        <time>2024-03-21T00:47:36Z</time>
      </trkpt>
      <trkpt lat="50.65651" lon="1.60616">
        <ele>65</ele>
        <time>2024-03-21T00:47:41Z</time>
      </trkpt>
      <trkpt lat="50.6567" lon="1.60595">
        <ele>66</ele>
        <time>2024-03-21T00:47:45Z</time>
      </trkpt>
      <trkpt lat="50.65736" lon="1.60537">
        <ele>69</ele>
        <time>2024-03-21T00:47:59Z</time>
      </trkpt>
      <trkpt lat="50.65758" lon="1.60523">
        <ele>70</ele>
        <time>2024-03-21T00:48:03Z</time>
      </trkpt>
      <trkpt lat="50.65912" lon="1.60461">
        <ele>77</ele>
        <time>2024-03-21T00:48:31Z</time>
      </trkpt>
      <trkpt lat="50.65946" lon="1.6045">
        <ele>78</ele>
        <time>2024-03-21T00:48:38Z</time>
      </trkpt>
      <trkpt lat="50.65986" lon="1.60447">
        <ele>80</ele>
        <time>2024-03-21T00:48:45Z</time>
      </trkpt>
      <trkpt lat="50.66006" lon="1.60449">
        <ele>81</ele>
        <time>2024-03-21T00:48:48Z</time>
      </trkpt>
      <trkpt lat="50.66026" lon="1.60455">
        <ele>81</ele>
        <time>2024-03-21T00:48:52Z</time>
      </trkpt>
      <trkpt lat="50.6606" lon="1.60471">
        <ele>82</ele>
        <time>2024-03-21T00:48:58Z</time>
      </trkpt>
      <trkpt lat="50.6612" lon="1.60504">
        <ele>84</ele>
        <time>2024-03-21T00:49:10Z</time>
      </trkpt>
      <trkpt lat="50.66145" lon="1.60512">
        <ele>85</ele>
        <time>2024-03-21T00:49:14Z</time>
      </trkpt>
      <trkpt lat="50.66158" lon="1.60512">
        <ele>86</ele>
        <time>2024-03-21T00:49:16Z</time>
      </trkpt>
      <trkpt lat="50.66235" lon="1.60502">
        <ele>89</ele>
        <time>2024-03-21T00:49:30Z</time>
      </trkpt>
      <trkpt lat="50.66259" lon="1.60496">
        <ele>90</ele>
        <time>2024-03-21T00:49:34Z</time>
      </trkpt>
      <trkpt lat="50.66406" lon="1.60441">
        <ele>95</ele>
        <time>2024-03-21T00:50:01Z</time>
      </trkpt>
      <trkpt lat="50.66433" lon="1.60433">
        <ele>95</ele>
        <time>2024-03-21T00:50:06Z</time>
      </trkpt>
      <trkpt lat="50.66446" lon="1.60434">
        <ele>95</ele>
        <time>2024-03-21T00:50:09Z</time>
      </trkpt>
      <trkpt lat="50.66487" lon="1.60444">
        <ele>96</ele>
        <time>2024-03-21T00:50:16Z</time>
      </trkpt>
      <trkpt lat="50.66515" lon="1.60445">
        <ele>96</ele>
        <time>2024-03-21T00:50:21Z</time>
      </trkpt>
      <trkpt lat="50.6654" lon="1.60441">
        <ele>95</ele>
        <time>2024-03-21T00:50:25Z</time>
      </trkpt>
      <trkpt lat="50.66604" lon="1.60425">
        <ele>96</ele>
        <time>2024-03-21T00:50:37Z</time>
      </trkpt>
      <trkpt lat="50.66644" lon="1.60423">
        <ele>96</ele>
        <time>2024-03-21T00:50:44Z</time>
      </trkpt>
      <trkpt lat="50.66653" lon="1.60418">
        <ele>96</ele>
        <time>2024-03-21T00:50:46Z</time>
      </trkpt>
      <trkpt lat="50.66666" lon="1.60401">
        <ele>96</ele>
        <time>2024-03-21T00:50:49Z</time>
      </trkpt>
      <trkpt lat="50.66692" lon="1.60362">
        <ele>96</ele>
        <time>2024-03-21T00:50:55Z</time>
      </trkpt>
      <trkpt lat="50.66756" lon="1.6026">
        <ele>95</ele>
        <time>2024-03-21T00:51:11Z</time>
      </trkpt>
      <trkpt lat="50.66764" lon="1.60243">
        <ele>95</ele>
        <time>2024-03-21T00:51:14Z</time>
      </trkpt>
      <trkpt lat="50.66794" lon="1.60159">
        <ele>94</ele>
        <time>2024-03-21T00:51:25Z</time>
      </trkpt>
      <trkpt lat="50.66804" lon="1.60129">
        <ele>94</ele>
        <time>2024-03-21T00:51:28Z</time>
      </trkpt>
      <trkpt lat="50.66809" lon="1.6011">
        <ele>94</ele>
        <time>2024-03-21T00:51:31Z</time>
      </trkpt>
      <trkpt lat="50.66811" lon="1.6008">
        <ele>93</ele>
        <time>2024-03-21T00:51:34Z</time>
      </trkpt>
      <trkpt lat="50.66809" lon="1.60035">
        <ele>94</ele>
        <time>2024-03-21T00:51:39Z</time>
      </trkpt>
      <trkpt lat="50.66814" lon="1.60013">
        <ele>94</ele>
        <time>2024-03-21T00:51:42Z</time>
      </trkpt>
      <trkpt lat="50.66946" lon="1.59672">
        <ele>91</ele>
        <time>2024-03-21T00:52:27Z</time>
      </trkpt>
      <trkpt lat="50.66966" lon="1.59627">
        <ele>91</ele>
        <time>2024-03-21T00:52:33Z</time>
      </trkpt>
      <trkpt lat="50.67006" lon="1.59546">
        <ele>91</ele>
        <time>2024-03-21T00:52:45Z</time>
      </trkpt>
      <trkpt lat="50.67029" lon="1.59492">
        <ele>91</ele>
        <time>2024-03-21T00:52:52Z</time>
      </trkpt>
      <trkpt lat="50.67046" lon="1.59436">
        <ele>90</ele>
        <time>2024-03-21T00:52:59Z</time>
      </trkpt>
      <trkpt lat="50.67077" lon="1.59272">
        <ele>82</ele>
        <time>2024-03-21T00:53:18Z</time>
      </trkpt>
      <trkpt lat="50.67093" lon="1.59214">
        <ele>80</ele>
        <time>2024-03-21T00:53:25Z</time>
      </trkpt>
      <trkpt lat="50.67108" lon="1.59175">
        <ele>79</ele>
        <time>2024-03-21T00:53:31Z</time>
      </trkpt>
      <trkpt lat="50.67217" lon="1.58922">
        <ele>77</ele>
        <time>2024-03-21T00:54:05Z</time>
      </trkpt>
      <trkpt lat="50.67248" lon="1.58843">
        <ele>79</ele>
        <time>2024-03-21T00:54:16Z</time>
      </trkpt>
      <trkpt lat="50.67354" lon="1.58542">
        <ele>88</ele>
        <time>2024-03-21T00:54:54Z</time>
      </trkpt>
      <trkpt lat="50.67402" lon="1.58415">
        <ele>91</ele>
        <time>2024-03-21T00:55:11Z</time>
      </trkpt>
      <trkpt lat="50.67415" lon="1.58382">
        <ele>92</ele>
        <time>2024-03-21T00:55:15Z</time>
      </trkpt>
      <trkpt lat="50.67446" lon="1.58278">
        <ele>93</ele>
        <time>2024-03-21T00:55:28Z</time>
      </trkpt>
      <trkpt lat="50.67457" lon="1.5825">
        <ele>92</ele>
        <time>2024-03-21T00:55:32Z</time>
      </trkpt>
      <trkpt lat="50.67465" lon="1.5825">
        <ele>93</ele>
        <time>2024-03-21T00:55:34Z</time>
      </trkpt>
      <trkpt lat="50.67474" lon="1.58246">
        <ele>93</ele>
        <time>2024-03-21T00:55:35Z</time>
      </trkpt>
      <trkpt lat="50.67483" lon="1.58237">
        <ele>92</ele>
        <time>2024-03-21T00:55:37Z</time>
      </trkpt>
      <trkpt lat="50.67488" lon="1.5823">
        <ele>92</ele>
        <time>2024-03-21T00:55:38Z</time>
      </trkpt>
      <trkpt lat="50.67511" lon="1.5824">
        <ele>92</ele>
        <time>2024-03-21T00:55:43Z</time>
      </trkpt>
      <trkpt lat="50.67546" lon="1.58245">
        <ele>92</ele>
        <time>2024-03-21T00:55:49Z</time>
      </trkpt>
      <trkpt lat="50.67645" lon="1.58235">
        <ele>91</ele>
        <time>2024-03-21T00:56:06Z</time>
      </trkpt>
      <trkpt lat="50.67673" lon="1.58237">
        <ele>91</ele>
        <time>2024-03-21T00:56:11Z</time>
      </trkpt>
      <trkpt lat="50.6772" lon="1.58247">
        <ele>91</ele>
        <time>2024-03-21T00:56:20Z</time>
      </trkpt>
      <trkpt lat="50.67854" lon="1.58286">
        <ele>91</ele>
        <time>2024-03-21T00:56:44Z</time>
      </trkpt>
      <trkpt lat="50.67884" lon="1.58291">
        <ele>91</ele>
        <time>2024-03-21T00:56:49Z</time>
      </trkpt>
      <trkpt lat="50.67909" lon="1.58289">
        <ele>91</ele>
        <time>2024-03-21T00:56:54Z</time>
      </trkpt>
      <trkpt lat="50.67933" lon="1.58282">
        <ele>90</ele>
        <time>2024-03-21T00:56:58Z</time>
      </trkpt>
      <trkpt lat="50.67957" lon="1.58268">
        <ele>90</ele>
        <time>2024-03-21T00:57:03Z</time>
      </trkpt>
      <trkpt lat="50.68051" lon="1.58202">
        <ele>87</ele>
        <time>2024-03-21T00:57:21Z</time>
      </trkpt>
      <trkpt lat="50.68107" lon="1.58182">
        <ele>86</ele>
        <time>2024-03-21T00:57:31Z</time>
      </trkpt>
      <trkpt lat="50.68263" lon="1.58146">
        <ele>85</ele>
        <time>2024-03-21T00:57:59Z</time>
      </trkpt>
      <trkpt lat="50.68454" lon="1.58113">
        <ele>80</ele>
        <time>2024-03-21T00:58:34Z</time>
      </trkpt>
      <trkpt lat="50.68515" lon="1.58096">
        <ele>79</ele>
        <time>2024-03-21T00:58:45Z</time>
      </trkpt>
      <trkpt lat="50.68575" lon="1.58069">
        <ele>79</ele>
        <time>2024-03-21T00:58:56Z</time>
      </trkpt>
      <trkpt lat="50.68725" lon="1.57985">
        <ele>73</ele>
        <time>2024-03-21T00:59:24Z</time>
      </trkpt>
      <trkpt lat="50.68932" lon="1.57855">
        <ele>64</ele>
        <time>2024-03-21T01:00:04Z</time>
      </trkpt>
      <trkpt lat="50.68941" lon="1.57852">
        <ele>64</ele>
        <time>2024-03-21T01:00:05Z</time>
      </trkpt>
      <trkpt lat="50.69047" lon="1.5779">
        <ele>61</ele>
        <time>2024-03-21T01:00:25Z</time>
      </trkpt>
      <trkpt lat="50.69126" lon="1.57739">
        <ele>62</ele>
        <time>2024-03-21T01:00:41Z</time>
      </trkpt>
      <trkpt lat="50.6915" lon="1.57732">
        <ele>62</ele>
        <time>2024-03-21T01:00:45Z</time>
      </trkpt>
      <trkpt lat="50.69188" lon="1.5773">
        <ele>61</ele>
        <time>2024-03-21T01:00:52Z</time>
      </trkpt>
      <trkpt lat="50.69214" lon="1.57734">
        <ele>60</ele>
        <time>2024-03-21T01:00:56Z</time>
      </trkpt>
      <trkpt lat="50.69265" lon="1.57756">
        <ele>59</ele>
        <time>2024-03-21T01:01:06Z</time>
      </trkpt>
      <trkpt lat="50.69263" lon="1.57747">
        <ele>59</ele>
        <time>2024-03-21T01:01:07Z</time>
      </trkpt>
      <trkpt lat="50.69342" lon="1.57792">
        <ele>57</ele>
        <time>2024-03-21T01:01:22Z</time>
      </trkpt>
      <trkpt lat="50.69356" lon="1.57804">
        <ele>55</ele>
        <time>2024-03-21T01:01:25Z</time>
      </trkpt>
      <trkpt lat="50.69416" lon="1.57849">
        <ele>48</ele>
        <time>2024-03-21T01:01:36Z</time>
      </trkpt>
      <trkpt lat="50.69423" lon="1.57851">
        <ele>47</ele>
        <time>2024-03-21T01:01:38Z</time>
      </trkpt>
      <trkpt lat="50.69438" lon="1.57846">
        <ele>46</ele>
        <time>2024-03-21T01:01:40Z</time>
      </trkpt>
      <trkpt lat="50.6944" lon="1.57853">
        <ele>45</ele>
        <time>2024-03-21T01:01:41Z</time>
      </trkpt>
      <trkpt lat="50.69443" lon="1.57855">
        <ele>45</ele>
        <time>2024-03-21T01:01:42Z</time>
      </trkpt>
      <trkpt lat="50.69459" lon="1.57849">
        <ele>44</ele>
        <time>2024-03-21T01:01:45Z</time>
      </trkpt>
      <trkpt lat="50.69463" lon="1.57851">
        <ele>43</ele>
        <time>2024-03-21T01:01:46Z</time>
      </trkpt>
      <trkpt lat="50.69467" lon="1.57861">
        <ele>43</ele>
        <time>2024-03-21T01:01:47Z</time>
      </trkpt>
      <trkpt lat="50.69461" lon="1.57868">
        <ele>43</ele>
        <time>2024-03-21T01:01:48Z</time>
      </trkpt>
      <trkpt lat="50.69443" lon="1.57871">
        <ele>44</ele>
        <time>2024-03-21T01:01:51Z</time>
      </trkpt>
      <trkpt lat="50.69423" lon="1.57866">
        <ele>46</ele>
        <time>2024-03-21T01:01:55Z</time>
      </trkpt>
      <trkpt lat="50.69433" lon="1.57875">
        <ele>45</ele>
        <time>2024-03-21T01:01:57Z</time>
      </trkpt>
      <trkpt lat="50.6946" lon="1.57891">
        <ele>42</ele>
        <time>2024-03-21T01:02:02Z</time>
      </trkpt>
      <trkpt lat="50.69463" lon="1.57898">
        <ele>42</ele>
        <time>2024-03-21T01:02:03Z</time>
      </trkpt>
      <trkpt lat="50.69467" lon="1.57902">
        <ele>42</ele>
        <time>2024-03-21T01:02:04Z</time>
      </trkpt>
      <trkpt lat="50.69473" lon="1.57904">
        <ele>41</ele>
        <time>2024-03-21T01:02:05Z</time>
      </trkpt>
      <trkpt lat="50.69477" lon="1.57903">
        <ele>41</ele>
        <time>2024-03-21T01:02:06Z</time>
      </trkpt>
      <trkpt lat="50.69484" lon="1.57895">
        <ele>41</ele>
        <time>2024-03-21T01:02:07Z</time>
      </trkpt>
      <trkpt lat="50.69487" lon="1.5788">
        <ele>41</ele>
        <time>2024-03-21T01:02:09Z</time>
      </trkpt>
      <trkpt lat="50.69486" lon="1.57875">
        <ele>41</ele>
        <time>2024-03-21T01:02:10Z</time>
      </trkpt>
      <trkpt lat="50.69492" lon="1.57855">
        <ele>40</ele>
        <time>2024-03-21T01:02:12Z</time>
      </trkpt>
      <trkpt lat="50.69497" lon="1.57848">
        <ele>40</ele>
        <time>2024-03-21T01:02:13Z</time>
      </trkpt>
      <trkpt lat="50.69513" lon="1.5784">
        <ele>40</ele>
        <time>2024-03-21T01:02:16Z</time>
      </trkpt>
      <trkpt lat="50.69714" lon="1.57788">
        <ele>38</ele>
        <time>2024-03-21T01:02:53Z</time>
      </trkpt>
      <trkpt lat="50.69713" lon="1.57779">
        <ele>39</ele>
        <time>2024-03-21T01:02:54Z</time>
      </trkpt>
      <trkpt lat="50.69774" lon="1.57764">
        <ele>37</ele>
        <time>2024-03-21T01:03:05Z</time>
      </trkpt>
      <trkpt lat="50.69816" lon="1.57742">
        <ele>36</ele>
        <time>2024-03-21T01:03:13Z</time>
      </trkpt>
      <trkpt lat="50.69838" lon="1.57724">
        <ele>36</ele>
        <time>2024-03-21T01:03:17Z</time>
      </trkpt>
      <trkpt lat="50.70164" lon="1.57397">
        <ele>42</ele>
        <time>2024-03-21T01:04:26Z</time>
      </trkpt>
      <trkpt lat="50.70165" lon="1.57396">
        <ele>42</ele>
        <time>2024-03-21T01:04:26Z</time>
      </trkpt>
      <trkpt lat="50.70167" lon="1.57401">
        <ele>42</ele>
        <time>2024-03-21T01:04:27Z</time>
      </trkpt>
      <trkpt lat="50.70241" lon="1.57328">
        <ele>40</ele>
        <time>2024-03-21T01:04:42Z</time>
      </trkpt>
      <trkpt lat="50.70281" lon="1.57297">
        <ele>37</ele>
        <time>2024-03-21T01:04:50Z</time>
      </trkpt>
      <trkpt lat="50.70303" lon="1.57282">
        <ele>36</ele>
        <time>2024-03-21T01:04:54Z</time>
      </trkpt>
      <trkpt lat="50.70341" lon="1.57264">
        <ele>33</ele>
        <time>2024-03-21T01:05:01Z</time>
      </trkpt>
      <trkpt lat="50.70362" lon="1.57259">
        <ele>32</ele>
        <time>2024-03-21T01:05:05Z</time>
      </trkpt>
      <trkpt lat="50.70386" lon="1.57259">
        <ele>30</ele>
        <time>2024-03-21T01:05:09Z</time>
      </trkpt>
      <trkpt lat="50.70425" lon="1.57268">
        <ele>27</ele>
        <time>2024-03-21T01:05:16Z</time>
      </trkpt>
      <trkpt lat="50.70456" lon="1.57286">
        <ele>26</ele>
        <time>2024-03-21T01:05:22Z</time>
      </trkpt>
      <trkpt lat="50.70553" lon="1.57354">
        <ele>24</ele>
        <time>2024-03-21T01:05:41Z</time>
      </trkpt>
      <trkpt lat="50.70566" lon="1.57361">
        <ele>23</ele>
        <time>2024-03-21T01:05:44Z</time>
      </trkpt>
      <trkpt lat="50.70626" lon="1.57382">
        <ele>25</ele>
        <time>2024-03-21T01:05:55Z</time>
      </trkpt>
      <trkpt lat="50.70639" lon="1.57389">
        <ele>26</ele>
        <time>2024-03-21T01:05:57Z</time>
      </trkpt>
      <trkpt lat="50.70645" lon="1.57393">
        <ele>26</ele>
        <time>2024-03-21T01:05:58Z</time>
      </trkpt>
      <trkpt lat="50.70603" lon="1.57515">
        <ele>28</ele>
        <time>2024-03-21T01:06:14Z</time>
      </trkpt>
      <trkpt lat="50.706" lon="1.57521">
        <ele>28</ele>
        <time>2024-03-21T01:06:15Z</time>
      </trkpt>
      <trkpt lat="50.70594" lon="1.57526">
        <ele>28</ele>
        <time>2024-03-21T01:06:16Z</time>
      </trkpt>
      <trkpt lat="50.70601" lon="1.57563">
        <ele>29</ele>
        <time>2024-03-21T01:06:20Z</time>
      </trkpt>
      <trkpt lat="50.70612" lon="1.57596">
        <ele>29</ele>
        <time>2024-03-21T01:06:24Z</time>
      </trkpt>
    </trkseg>
  </trk>
</gpx>